YC32 / VP-BBN 7700 Squawk Report (14th of January, 2021)

Aircraft A320 Reg No. VP-BBN Age 18 years old
Model A320 Jet engines 2 First flight 11-12-02
Registered 11-06-12 Rollout 12-02 Delivered 13-02-03
Construction No. 1918 Line No. N/A Series 232
ADSHEX 42427C Airline name Yamal Airlines Owner ACG Acquisitions LLC
Airfield based Salekhard~Yamalo-Nenets~RA First tracked N/A

Flight history for VP-BBN

Route Flight No Date Playback
???? YC9501 2021-02-01 09:55:00
Salekhard Airport (SLY) - Roschino (TJM) YC9 2021-01-29 06:47:00
Roschino (TJM) - Salekhard Airport (SLY) YC10 2021-01-29 06:15:00
???? YC9776 2021-01-29 01:58:00
Domododevo (DME) - Kurumoch (KUF) N/A 2021-01-27 06:33:00
???? YC9776 2021-01-26 10:57:00
Domododevo (DME) - Kurumoch (KUF) N/A 2021-01-26 09:18:00
???? YC9875 2021-01-26 02:34:00
Salekhard Airport (SLY) - Domododevo (DME) YC31 2021-01-20 07:20:00
Domododevo (DME) - Salekhard Airport (SLY) YC32 2021-01-20 04:39:00
Pulkovo (LED) - Domododevo (DME) N/A 2021-01-16 09:19:00
Domododevo (DME) - Salekhard Airport (SLY) YC32 2021-01-14 03:53:00
???? YC9862 2021-01-12 15:07:00
???? N/A 2021-01-12 11:10:00
???? YC348 2021-01-11 09:42:00
???? YC9861 2021-01-11 08:32:00
Salekhard Airport (SLY) - Domododevo (DME) YC131 2021-01-10 15:40:00
Domododevo (DME) - Salekhard Airport (SLY) YC132 2021-01-10 13:00:00
Salekhard Airport (SLY) - Domododevo (DME) YC31 2021-01-09 07:30:00
Domododevo (DME) - Salekhard Airport (SLY) YC32 2021-01-09 02:55:00
Time Lat Lon Altitude Heading Speed Vertical Rate
2021-01-14 03:49:15 GMT 59.561028 30.034632 4,025 306 240 -1472
2021-01-14 03:49:07 GMT 59.556152 30.048706 4,225 307 239 -1472
2021-01-14 03:48:58 GMT 59.549835 30.064362 4,425 311 239 -1216
2021-01-14 03:48:47 GMT 59.541779 30.081940 4,625 314 241 -1152
2021-01-14 03:48:38 GMT 59.534317 30.096313 4,800 316 242 -1152
2021-01-14 03:48:28 GMT 59.526169 30.112244 5,000 315 244 -960
2021-01-14 03:48:17 GMT 59.517609 30.129272 5,175 315 248 -896
2021-01-14 03:48:07 GMT 59.509460 30.146027 5,350 314 251 -960
2021-01-14 03:47:57 GMT 59.501495 30.162689 5,425 314 251 256
2021-01-14 03:47:44 GMT 59.491245 30.183611 5,450 314 248 -64
2021-01-14 03:47:35 GMT 59.484497 30.197912 5,475 313 245 128
2021-01-14 03:47:24 GMT 59.476181 30.215973 5,400 311 246 0
2021-01-14 03:46:39 GMT 59.445648 30.298096 5,875 305 253 -1408
2021-01-14 03:46:35 GMT 59.442902 30.305786 5,975 305 253 -1408
2021-01-14 03:46:24 GMT 59.435570 30.326906 6,225 304 254 -1344
2021-01-14 03:46:14 GMT 59.429100 30.345564 6,450 305 255 -1344
2021-01-14 03:46:05 GMT 59.422955 30.363371 6,650 304 257 -1536
2021-01-14 03:45:55 GMT 59.416668 30.382122 6,875 304 256 -1472
2021-01-14 03:45:43 GMT 59.408661 30.405212 7,175 306 256 -1472
2021-01-14 03:45:35 GMT 59.402985 30.420959 7,375 305 256 -1472
2021-01-14 03:45:25 GMT 59.396255 30.440735 7,625 304 258 -1344
2021-01-14 03:45:14 GMT 59.389435 30.460419 7,850 305 257 -1344
2021-01-14 03:45:04 GMT 59.382019 30.481384 8,100 305 259 -1280
2021-01-14 03:44:54 GMT 59.375336 30.500610 8,300 304 261 -1280
2021-01-14 03:44:43 GMT 59.368469 30.520660 8,525 306 262 -1280
2021-01-14 03:44:31 GMT 59.359863 30.544373 8,800 306 263 -1280
2021-01-14 03:44:23 GMT 59.354149 30.560177 8,975 305 266 -1280
2021-01-14 03:44:13 GMT 59.347412 30.579803 9,175 303 268 -1216
2021-01-14 03:44:03 GMT 59.340649 30.600428 9,375 303 270 -1280
2021-01-14 03:43:53 GMT 59.333954 30.620819 9,625 304 269 -1920
2021-01-14 03:43:43 GMT 59.327087 30.642242 9,975 302 270 -1856
2021-01-14 03:43:33 GMT 59.320122 30.663694 10,250 303 272 -1536
2021-01-14 03:43:23 GMT 59.313370 30.683867 10,525 303 271 -1472
2021-01-14 03:43:13 GMT 59.306351 30.704956 10,750 304 272 -1408
2021-01-14 03:43:02 GMT 59.298752 30.727020 11,025 304 272 -1664
2021-01-14 03:42:52 GMT 59.291840 30.747986 11,300 303 274 -1408
2021-01-14 03:42:40 GMT 59.284058 30.771332 11,575 304 277 -1536
2021-01-14 03:42:31 GMT 59.277618 30.790133 11,825 304 276 -1600
2021-01-14 03:42:21 GMT 59.270645 30.810699 12,075 302 276 -1536
2021-01-14 03:42:11 GMT 59.263687 30.833862 12,350 300 276 -1600
2021-01-14 03:42:01 GMT 59.257828 30.854736 12,600 299 280 -1600
2021-01-14 03:41:51 GMT 59.251465 30.877716 12,850 299 285 -1600
2021-01-14 03:41:40 GMT 59.244644 30.902069 13,125 299 290 -1344
2021-01-14 03:41:30 GMT 59.238281 30.924866 13,350 299 292 -1536
2021-01-14 03:41:20 GMT 59.231873 30.947388 13,675 300 290 -2304
2021-01-14 03:41:10 GMT 59.225281 30.970734 14,050 299 294 -2112
2021-01-14 03:41:00 GMT 59.218590 30.995085 14,375 299 298 -1728
2021-01-14 03:40:50 GMT 59.212070 31.018381 14,675 299 297 -1728
2021-01-14 03:40:39 GMT 59.204716 31.045849 15,000 298 297 -1600
2021-01-14 03:40:29 GMT 59.198227 31.068878 15,250 300 296 -1664
2021-01-14 03:40:20 GMT 59.192287 31.090551 15,500 298 296 -1600
2021-01-14 03:40:10 GMT 59.185684 31.113739 15,775 301 296 -1600
2021-01-14 03:39:59 GMT 59.177715 31.138662 16,050 303 296 -1600
2021-01-14 03:39:49 GMT 59.170269 31.160826 16,325 305 295 -1536
2021-01-14 03:39:39 GMT 59.162704 31.181488 16,550 306 295 -1472
2021-01-14 03:39:29 GMT 59.154831 31.203186 16,800 305 296 -1472
2021-01-14 03:39:19 GMT 59.146992 31.225702 17,000 305 295 -256
2021-01-14 03:39:07 GMT 59.138008 31.251652 17,000 304 295 0
2021-01-14 03:38:58 GMT 59.131760 31.271118 17,000 301 297 0
2021-01-14 03:38:48 GMT 59.124802 31.294647 17,000 300 296 0
2021-01-14 03:38:38 GMT 59.117477 31.318268 17,000 304 296 0
2021-01-14 03:38:28 GMT 59.110031 31.339638 17,000 305 297 0
2021-01-14 03:38:17 GMT 59.101650 31.363600 17,000 305 296 64
2021-01-14 03:38:07 GMT 59.093967 31.386234 17,000 304 297 0
2021-01-14 03:37:58 GMT 59.086990 31.407623 17,000 302 297 0
2021-01-14 03:37:47 GMT 59.079910 31.430843 17,000 300 297 64
2021-01-14 03:37:37 GMT 59.072929 31.454710 16,975 300 296 0
2021-01-14 03:37:27 GMT 59.065620 31.479050 16,975 302 296 0
2021-01-14 03:37:17 GMT 59.058777 31.500929 16,975 302 297 0
2021-01-14 03:37:06 GMT 59.051235 31.525364 16,975 301 296 0
2021-01-14 03:36:57 GMT 59.044392 31.547241 16,975 302 296 0
2021-01-14 03:36:46 GMT 59.036804 31.570728 16,975 303 295 0
2021-01-14 03:36:36 GMT 59.029312 31.593109 16,975 303 296 0
2021-01-14 03:36:25 GMT 59.021908 31.617043 16,975 300 296 0
2021-01-14 03:36:16 GMT 59.015533 31.639709 16,975 297 297 0
2021-01-14 03:36:06 GMT 59.009293 31.663830 16,975 298 297 0
2021-01-14 03:35:55 GMT 59.002029 31.689423 16,975 301 297 0
2021-01-14 03:35:45 GMT 58.995438 31.711487 16,975 300 297 0
2021-01-14 03:35:35 GMT 58.988995 31.733818 16,975 300 297 0
2021-01-14 03:35:24 GMT 58.981430 31.759003 16,975 302 296 0
2021-01-14 03:35:14 GMT 58.974236 31.781933 16,975 301 296 0
2021-01-14 03:35:04 GMT 58.967300 31.804663 16,975 301 295 0
2021-01-14 03:34:54 GMT 58.960648 31.827301 16,975 300 296 0
2021-01-14 03:34:44 GMT 58.953918 31.850464 16,950 299 296 0
2021-01-14 03:34:34 GMT 58.947098 31.874557 16,950 300 296 0
2021-01-14 03:34:24 GMT 58.940460 31.896973 16,950 301 295 0
2021-01-14 03:34:13 GMT 58.932434 31.923618 16,975 301 294 0
2021-01-14 03:34:03 GMT 58.926315 31.944214 16,975 301 294 0
2021-01-14 03:33:53 GMT 58.919083 31.967010 16,975 305 293 -64
2021-01-14 03:33:43 GMT 58.911118 31.988251 16,975 307 292 0
2021-01-14 03:33:33 GMT 58.903107 32.010040 16,975 304 292 -64
2021-01-14 03:33:22 GMT 58.895283 32.033669 17,000 300 292 -64
2021-01-14 03:33:12 GMT 58.888916 32.056000 17,000 297 292 -64
2021-01-14 03:33:02 GMT 58.883102 32.079895 17,000 295 291 -64
2021-01-14 03:32:51 GMT 58.876648 32.105896 17,000 298 290 64
2021-01-14 03:32:42 GMT 58.870605 32.126312 17,000 303 289 64
2021-01-14 03:32:31 GMT 58.862595 32.150024 16,975 303 290 64
2021-01-14 03:32:22 GMT 58.856274 32.170811 16,975 299 291 64
2021-01-14 03:32:12 GMT 58.850098 32.193787 16,975 298 292 64
We lost coverage of the aircraft here for a total of 20 minutes
2021-01-14 03:11:48 GMT 57.711693 34.651943 17,025 317 316 0
2021-01-14 03:11:42 GMT 57.703949 34.665298 17,025 317 315 -64
2021-01-14 03:11:30 GMT 57.692230 34.686501 17,025 316 315 0
2021-01-14 03:11:19 GMT 57.681435 34.705990 17,050 316 314 0
2021-01-14 03:11:05 GMT 57.667328 34.732922 17,050 314 314 0
2021-01-14 03:11:01 GMT 57.661240 34.744263 17,050 316 313 -64
2021-01-14 03:10:49 GMT 57.650711 34.763222 17,050 317 311 0
2021-01-14 03:10:39 GMT 57.640560 34.781738 17,075 316 310 0
2021-01-14 03:10:26 GMT 57.626923 34.806458 17,075 316 309 -64
2021-01-14 03:10:20 GMT 57.619473 34.820457 17,075 314 308 -128
2021-01-14 03:10:09 GMT 57.609699 34.840126 17,075 313 309 128
2021-01-14 03:09:59 GMT 57.599716 34.859104 17,050 317 309 128
2021-01-14 03:09:48 GMT 57.588657 34.876099 17,050 324 307 128
2021-01-14 03:09:39 GMT 57.576462 34.892490 17,025 322 310 64
2021-01-14 03:09:28 GMT 57.565750 34.910172 17,000 316 315 64
2021-01-14 03:09:18 GMT 57.555183 34.930321 17,000 314 316 128
2021-01-14 03:09:08 GMT 57.545082 34.950523 16,975 312 317 64
2021-01-14 03:08:58 GMT 57.534191 34.972229 16,975 314 315 0
2021-01-14 03:08:43 GMT 57.520477 34.999180 16,975 313 315 64
2021-01-14 03:08:36 GMT 57.514080 35.011921 16,975 315 313 0
2021-01-14 03:08:26 GMT 57.504044 35.031364 16,975 313 312 0
2021-01-14 03:08:17 GMT 57.494247 35.051792 16,975 311 313 -64
2021-01-14 03:08:06 GMT 57.484379 35.072170 16,975 313 309 -64
2021-01-14 03:07:56 GMT 57.474182 35.092194 16,975 315 309 -64
2021-01-14 03:07:45 GMT 57.463531 35.112305 17,000 315 309 -128
2021-01-14 03:07:35 GMT 57.453781 35.130844 17,000 315 309 -64
2021-01-14 03:07:25 GMT 57.443756 35.149467 17,025 316 309 -64
2021-01-14 03:07:14 GMT 57.432522 35.169273 17,050 318 310 -64
2021-01-14 03:07:04 GMT 57.421303 35.188587 17,050 318 311 -64
2021-01-14 03:06:54 GMT 57.411026 35.206463 17,075 316 312 -64
2021-01-14 03:06:44 GMT 57.400726 35.225430 17,075 315 313 -64
2021-01-14 03:06:34 GMT 57.390656 35.244141 17,075 315 314 -64
2021-01-14 03:06:24 GMT 57.380127 35.263969 17,100 315 315 -64
2021-01-14 03:06:13 GMT 57.369164 35.283833 17,100 316 316 0
2021-01-14 03:06:03 GMT 57.357605 35.304649 17,100 317 317 0
2021-01-14 03:05:52 GMT 57.346306 35.323437 17,100 318 318 0
2021-01-14 03:05:47 GMT 57.339603 35.334866 17,100 318 319 0
2021-01-14 03:05:41 GMT 57.334854 35.343018 17,100 318 319 0
2021-01-14 03:05:31 GMT 57.323502 35.361813 17,100 320 321 0
2021-01-14 03:05:21 GMT 57.312088 35.379875 17,125 319 322 -64
2021-01-14 03:05:11 GMT 57.300980 35.398293 17,125 318 323 0
2021-01-14 03:05:01 GMT 57.290085 35.417347 17,125 315 323 -64
2021-01-14 03:04:50 GMT 57.279270 35.438526 17,150 311 323 -64
2021-01-14 03:04:41 GMT 57.269772 35.459526 17,150 310 324 64
2021-01-14 03:04:30 GMT 57.259140 35.480434 17,175 318 322 -128
2021-01-14 03:04:19 GMT 57.247330 35.500004 17,175 319 321 -128
2021-01-14 03:04:09 GMT 57.236023 35.518799 17,200 318 321 -128
2021-01-14 03:04:00 GMT 57.225266 35.536736 17,200 319 320 64
2021-01-14 03:03:49 GMT 57.213959 35.555279 17,175 318 321 64
2021-01-14 03:03:39 GMT 57.202644 35.574703 17,150 316 322 128
2021-01-14 03:03:28 GMT 57.191566 35.594730 17,150 317 323 64
2021-01-14 03:03:19 GMT 57.180626 35.613155 17,125 319 325 -64
2021-01-14 03:03:08 GMT 57.168961 35.632782 17,150 317 327 -64
2021-01-14 03:02:58 GMT 57.157677 35.652054 17,175 318 327 -64
2021-01-14 03:02:48 GMT 57.146393 35.670464 17,175 319 328 -64
2021-01-14 03:02:38 GMT 57.134171 35.690804 17,200 317 328 -64
2021-01-14 03:02:26 GMT 57.122948 35.710438 17,200 317 328 -64
2021-01-14 03:02:21 GMT 57.116364 35.721786 17,200 318 327 -64
2021-01-14 03:02:16 GMT 57.111870 35.729576 17,200 317 327 -64
2021-01-14 03:02:06 GMT 57.100708 35.748398 17,225 319 327 -64
2021-01-14 03:02:00 GMT 57.093750 35.759811 17,225 318 327 -64
2021-01-14 03:01:57 GMT 57.089539 35.766933 17,225 317 326 -128
2021-01-14 03:01:50 GMT 57.082634 35.779015 17,250 316 325 -192
2021-01-14 03:01:45 GMT 57.077606 35.787876 17,275 317 324 -192
2021-01-14 03:01:36 GMT 57.066742 35.806416 17,275 319 322 0
2021-01-14 03:01:32 GMT 57.062119 35.813972 17,275 319 322 0
2021-01-14 03:01:25 GMT 57.055435 35.825043 17,275 318 320 0
2021-01-14 03:01:16 GMT 57.044556 35.843960 17,275 317 318 -64
2021-01-14 03:01:05 GMT 57.033985 35.862564 17,250 316 316 64
2021-01-14 03:00:55 GMT 57.022842 35.881863 17,250 319 316 64
2021-01-14 03:00:45 GMT 57.011921 35.899422 17,250 319 315 64
2021-01-14 03:00:34 GMT 57.000824 35.917740 17,225 318 315 64
2021-01-14 03:00:24 GMT 56.989609 35.936024 17,225 319 314 64
2021-01-14 03:00:14 GMT 56.978401 35.954353 17,225 317 313 64
2021-01-14 03:00:03 GMT 56.967682 35.973618 17,200 316 313 64
2021-01-14 02:59:53 GMT 56.957222 35.992096 17,200 318 312 64
2021-01-14 02:59:43 GMT 56.945816 36.010704 17,200 320 310 64
2021-01-14 02:59:33 GMT 56.934971 36.027714 17,175 320 309 128
2021-01-14 02:59:28 GMT 56.928635 36.037991 17,150 315 311 -64
2021-01-14 02:59:23 GMT 56.922134 36.049061 17,150 316 310 0
2021-01-14 02:59:14 GMT 56.914997 36.062000 17,150 315 311 -64
2021-01-14 02:59:08 GMT 56.909958 36.071548 17,150 315 312 -64
2021-01-14 02:59:01 GMT 56.901405 36.086987 17,150 317 312 -64
2021-01-14 02:58:49 GMT 56.888416 36.108517 17,175 317 318 192
2021-01-14 02:58:40 GMT 56.879654 36.123047 17,175 317 315 192
2021-01-14 02:58:27 GMT 56.865887 36.147057 17,125 317 319 192
2021-01-14 02:58:20 GMT 56.857635 36.160896 17,100 319 321 256
2021-01-14 02:58:09 GMT 56.846287 36.179661 17,050 317 325 256
2021-01-14 02:57:59 GMT 56.835159 36.199436 17,025 316 328 256
2021-01-14 02:57:48 GMT 56.823944 36.219353 17,000 317 331 256
2021-01-14 02:57:39 GMT 56.812584 36.239288 16,950 316 329 128
2021-01-14 02:57:28 GMT 56.799175 36.262680 16,925 318 326 64
2021-01-14 02:57:16 GMT 56.788052 36.281284 16,925 318 323 64
2021-01-14 02:57:05 GMT 56.776691 36.300510 16,900 318 320 64
2021-01-14 02:56:55 GMT 56.764168 36.321156 16,700 319 319 0
2021-01-14 02:56:45 GMT 56.754684 36.336849 16,675 318 317 64
2021-01-14 02:56:35 GMT 56.743313 36.355442 16,650 318 317 64
2021-01-14 02:56:24 GMT 56.732483 36.374531 16,675 316 314 -64
2021-01-14 02:56:14 GMT 56.721909 36.392300 16,900 321 312 -64
2021-01-14 02:56:04 GMT 56.710510 36.409122 16,900 322 310 -64
2021-01-14 02:55:54 GMT 56.699043 36.425968 16,925 321 307 -128
2021-01-14 02:55:43 GMT 56.686981 36.444485 16,950 320 305 64
2021-01-14 02:55:33 GMT 56.677025 36.460434 16,925 318 302 64
2021-01-14 02:55:24 GMT 56.666454 36.478333 16,925 317 302 64
2021-01-14 02:55:13 GMT 56.656174 36.495895 16,900 319 300 -64
2021-01-14 02:55:02 GMT 56.645321 36.512794 16,925 320 299 -64
2021-01-14 02:54:52 GMT 56.634846 36.529099 16,925 319 296 0
2021-01-14 02:54:43 GMT 56.624512 36.546288 16,925 317 294 0
2021-01-14 02:54:32 GMT 56.614471 36.563530 16,950 318 291 -64
2021-01-14 02:54:21 GMT 56.603519 36.581196 16,950 319 289 -64
2021-01-14 02:54:11 GMT 56.592957 36.597706 16,950 321 286 -64
2021-01-14 02:54:02 GMT 56.583618 36.611771 16,975 320 283 -64
2021-01-14 02:53:51 GMT 56.573399 36.628418 16,975 317 282 -64
2021-01-14 02:53:43 GMT 56.566509 36.640347 17,000 317 282 -64
2021-01-14 02:53:38 GMT 56.560776 36.650391 17,000 318 282 -64
2021-01-14 02:53:31 GMT 56.554359 36.661205 17,000 318 283 -64
2021-01-14 02:53:21 GMT 56.544205 36.677608 17,000 319 282 64
2021-01-14 02:53:10 GMT 56.534180 36.694168 17,000 318 285 0
2021-01-14 02:53:00 GMT 56.524239 36.710472 17,000 319 288 -64
2021-01-14 02:52:56 GMT 56.520950 36.715645 17,000 320 289 -64
2021-01-14 02:52:49 GMT 56.513718 36.726952 17,025 320 289 -64
2021-01-14 02:52:45 GMT 56.508820 36.734619 17,025 319 290 -64
2021-01-14 02:52:40 GMT 56.503647 36.742943 17,025 318 291 -64
2021-01-14 02:52:33 GMT 56.497421 36.753345 17,050 318 294 -64
2021-01-14 02:52:29 GMT 56.493515 36.759995 17,050 317 293 -64
2021-01-14 02:52:24 GMT 56.488541 36.768410 17,050 318 294 -64
2021-01-14 02:52:19 GMT 56.483185 36.777233 17,050 319 295 -64
2021-01-14 02:52:14 GMT 56.476868 36.787472 17,050 318 295 -64
2021-01-14 02:52:09 GMT 56.473080 36.793640 17,050 318 296 -64
2021-01-14 02:52:04 GMT 56.467724 36.802567 17,075 318 297 -64
2021-01-14 02:51:59 GMT 56.462883 36.810551 17,075 318 299 -64
2021-01-14 02:51:55 GMT 56.455948 36.822010 17,075 319 300 -64
2021-01-14 02:51:48 GMT 56.452362 36.827805 17,075 319 301 -256
2021-01-14 02:51:44 GMT 56.447662 36.835411 17,100 318 301 -256
2021-01-14 02:51:33 GMT 56.436161 36.854584 17,125 318 303 -256
2021-01-14 02:51:25 GMT 56.427921 36.868229 17,150 319 304 -128
2021-01-14 02:51:21 GMT 56.423733 36.874840 17,175 319 304 -128
2021-01-14 02:51:17 GMT 56.420197 36.880272 17,175 320 305 -64
2021-01-14 02:51:13 GMT 56.415298 36.887844 17,175 320 305 -64
2021-01-14 02:51:08 GMT 56.408978 36.897411 17,200 321 306 -64
2021-01-14 02:51:05 GMT 56.405411 36.902744 17,200 321 306 -128
2021-01-14 02:51:02 GMT 56.403259 36.905907 17,200 322 307 -128
2021-01-14 02:50:57 GMT 56.397709 36.913891 17,225 322 306 -128
2021-01-14 02:50:52 GMT 56.392681 36.921017 17,225 323 307 -64
2021-01-14 02:50:47 GMT 56.386631 36.929424 17,225 323 307 -192
2021-01-14 02:50:41 GMT 56.379822 36.938698 17,250 323 307 -192
2021-01-14 02:50:36 GMT 56.374191 36.946522 17,275 323 307 -256
2021-01-14 02:50:32 GMT 56.369247 36.953598 17,300 321 306 -256
2021-01-14 02:50:27 GMT 56.363869 36.961784 17,325 319 306 -320
2021-01-14 02:50:22 GMT 56.359360 36.968910 17,325 319 305 -320
2021-01-14 02:50:16 GMT 56.352741 36.979897 17,350 318 305 -320
2021-01-14 02:50:12 GMT 56.348923 36.986221 17,400 318 305 -320
2021-01-14 02:50:03 GMT 56.336960 37.004700 17,450 322 304 -64
2021-01-14 02:49:56 GMT 56.331142 37.012768 17,450 323 305 -128
2021-01-14 02:49:52 GMT 56.327133 37.018349 17,450 322 306 -64
2021-01-14 02:49:46 GMT 56.319443 37.029419 17,450 322 306 -64
2021-01-14 02:49:41 GMT 56.314819 37.036076 17,475 323 307 -64
2021-01-14 02:49:36 GMT 56.309692 37.042984 17,475 325 308 -64
2021-01-14 02:49:33 GMT 56.304932 37.049061 17,475 326 309 -64
2021-01-14 02:49:30 GMT 56.300743 37.054310 17,475 325 309 -64
2021-01-14 02:49:25 GMT 56.296413 37.059891 17,475 325 310 -64
2021-01-14 02:49:21 GMT 56.291611 37.066208 17,500 324 310 -192
2021-01-14 02:49:17 GMT 56.286312 37.073109 17,500 324 311 -192
2021-01-14 02:49:14 GMT 56.284355 37.075768 17,500 324 310 -192
2021-01-14 02:49:11 GMT 56.279606 37.082207 17,525 323 311 -192
2021-01-14 02:49:05 GMT 56.272671 37.091644 17,550 323 311 -192
2021-01-14 02:49:01 GMT 56.268204 37.097912 17,550 323 312 -192
2021-01-14 02:48:54 GMT 56.260712 37.108570 17,575 321 311 -192
2021-01-14 02:48:50 GMT 56.256638 37.114647 17,575 320 312 -192
2021-01-14 02:48:44 GMT 56.249954 37.125034 17,600 319 313 -192
2021-01-14 02:48:40 GMT 56.246044 37.131214 17,600 319 313 64
2021-01-14 02:48:34 GMT 56.236496 37.146439 17,575 319 316 128
2021-01-14 02:48:31 GMT 56.235352 37.148270 17,575 319 317 192
2021-01-14 02:48:24 GMT 56.228027 37.160423 17,575 317 319 192
2021-01-14 02:48:21 GMT 56.224724 37.166145 17,550 316 321 256
2021-01-14 02:48:14 GMT 56.217461 37.179363 17,525 311 323 256
2021-01-14 02:48:10 GMT 56.213928 37.186474 17,500 311 323 256
2021-01-14 02:48:04 GMT 56.208149 37.199619 17,425 300 327 192
2021-01-14 02:48:00 GMT 56.204472 37.209232 17,450 303 325 192
2021-01-14 02:47:50 GMT 56.197163 37.231895 17,425 298 327 128
2021-01-14 02:47:40 GMT 56.191269 37.257801 17,450 286 327 -192
2021-01-14 02:47:37 GMT 56.190041 37.265968 17,450 284 326 -192
2021-01-14 02:47:31 GMT 56.187946 37.282188 17,475 282 325 -192
2021-01-14 02:47:25 GMT 56.186035 37.299614 17,500 281 325 -128
2021-01-14 02:47:19 GMT 56.184814 37.311317 17,500 282 325 192
2021-01-14 02:47:14 GMT 56.183075 37.326134 17,450 283 326 384
2021-01-14 02:47:09 GMT 56.181564 37.337620 17,425 284 326 384
2021-01-14 02:46:59 GMT 56.177982 37.365875 17,350 282 327 320
2021-01-14 02:46:51 GMT 56.175751 37.384811 17,325 283 329 320
2021-01-14 02:46:48 GMT 56.174789 37.392967 17,325 282 329 0
2021-01-14 02:46:45 GMT 56.173920 37.400707 17,325 282 330 64
2021-01-14 02:46:39 GMT 56.171700 37.419949 17,300 283 328 192
2021-01-14 02:46:33 GMT 56.169891 37.434914 17,300 284 327 192
2021-01-14 02:46:27 GMT 56.167927 37.449303 17,275 284 327 192
2021-01-14 02:46:22 GMT 56.165508 37.466125 17,250 285 326 256
2021-01-14 02:46:18 GMT 56.164307 37.474365 17,250 285 325 256
2021-01-14 02:46:13 GMT 56.162434 37.487755 17,225 285 325 256
2021-01-14 02:46:10 GMT 56.161102 37.497169 17,200 284 323 256
2021-01-14 02:46:07 GMT 56.160416 37.502499 17,200 284 323 256
2021-01-14 02:45:57 GMT 56.157074 37.528465 17,150 283 322 128
2021-01-14 02:45:52 GMT 56.155380 37.541447 17,150 283 320 128
2021-01-14 02:45:47 GMT 56.153870 37.553268 17,125 283 319 128
2021-01-14 02:45:44 GMT 56.152428 37.564487 17,125 283 319 128
2021-01-14 02:45:41 GMT 56.151810 37.569580 17,125 283 319 128
2021-01-14 02:45:36 GMT 56.150208 37.582314 17,125 283 317 128
2021-01-14 02:45:31 GMT 56.148331 37.598293 17,100 282 315 128
2021-01-14 02:45:27 GMT 56.147186 37.608532 17,100 282 314 64
2021-01-14 02:45:22 GMT 56.146141 37.617786 17,100 282 312 -128
2021-01-14 02:45:16 GMT 56.144211 37.634083 17,125 284 311 -128
2021-01-14 02:45:12 GMT 56.142929 37.643654 16,900 283 307 -128
2021-01-14 02:45:06 GMT 56.140823 37.658970 16,925 283 308 -128
2021-01-14 02:45:02 GMT 56.139580 37.668858 16,925 283 307 -128
2021-01-14 02:44:59 GMT 56.138718 37.675949 16,925 283 307 -128
2021-01-14 02:44:56 GMT 56.137711 37.684521 16,925 283 305 -128
2021-01-14 02:44:51 GMT 56.136475 37.694424 16,950 283 304 -192
2021-01-14 02:44:47 GMT 56.134735 37.708492 16,975 283 303 -256
2021-01-14 02:44:43 GMT 56.133774 37.716148 17,000 284 301 -256
2021-01-14 02:44:40 GMT 56.132996 37.722141 17,000 286 297 -256
2021-01-14 02:44:36 GMT 56.131622 37.732960 17,025 284 298 -256
2021-01-14 02:44:33 GMT 56.130592 37.740524 17,050 285 297 -256
2021-01-14 02:44:29 GMT 56.129009 37.751255 17,050 286 297 -256
2021-01-14 02:44:25 GMT 56.128033 37.757523 17,075 286 295 -256
2021-01-14 02:44:22 GMT 56.125240 37.775372 17,100 287 293 -256
2021-01-14 02:44:19 GMT 56.125240 37.775372 17,100 287 293 -256
2021-01-14 02:44:15 GMT 56.123749 37.784473 17,100 286 291 -256
2021-01-14 02:44:10 GMT 56.122421 37.793385 17,125 286 290 -128
2021-01-14 02:44:04 GMT 56.120213 37.807388 17,125 286 289 0
2021-01-14 02:44:00 GMT 56.118675 37.817173 17,100 286 290 192
2021-01-14 02:43:56 GMT 56.117065 37.827927 17,100 285 290 128
2021-01-14 02:43:52 GMT 56.115929 37.836227 16,975 283 298 64
2021-01-14 02:43:45 GMT 56.113693 37.852280 17,050 285 293 384
2021-01-14 02:43:42 GMT 56.112717 37.859386 17,025 285 294 384
2021-01-14 02:43:35 GMT 56.110016 37.878456 17,000 284 296 320
2021-01-14 02:43:31 GMT 56.109238 37.884274 16,975 283 298 -64
2021-01-14 02:43:25 GMT 56.107224 37.899570 16,975 284 298 64
2021-01-14 02:43:21 GMT 56.106106 37.908070 16,950 284 297 64
2021-01-14 02:43:18 GMT 56.104706 37.918980 16,950 283 298 64
2021-01-14 02:43:15 GMT 56.104057 37.923946 16,950 283 298 64
2021-01-14 02:43:11 GMT 56.103012 37.932629 16,925 283 298 128
2021-01-14 02:43:08 GMT 56.100998 37.949440 16,950 283 298 -64
2021-01-14 02:43:04 GMT 56.100998 37.949440 16,950 283 298 -64
2021-01-14 02:43:00 GMT 56.099777 37.959393 16,975 288 300 -64
2021-01-14 02:42:54 GMT 56.097748 37.974243 16,975 289 300 -64
2021-01-14 02:42:50 GMT 56.093723 37.997932 16,975 288 300 -64
2021-01-14 02:42:44 GMT 56.093723 37.997932 16,975 290 301 -128
2021-01-14 02:42:41 GMT 56.092190 38.005054 16,975 294 303 -64
2021-01-14 02:42:38 GMT 56.090012 38.013943 16,975 296 303 -128
2021-01-14 02:42:34 GMT 56.087814 38.021519 17,000 300 305 -128
2021-01-14 02:42:29 GMT 56.083622 38.033981 17,025 302 305 -128
2021-01-14 02:42:23 GMT 56.080215 38.043823 17,025 302 305 -64
2021-01-14 02:42:19 GMT 56.077057 38.053036 17,025 301 304 -192
2021-01-14 02:42:16 GMT 56.074539 38.060802 17,075 301 302 -256
2021-01-14 02:42:13 GMT 56.072914 38.065739 17,050 301 304 -192
2021-01-14 02:42:09 GMT 56.070122 38.074238 17,050 301 302 -192
2021-01-14 02:42:03 GMT 56.065933 38.087025 17,075 301 303 -256
2021-01-14 02:42:00 GMT 56.063141 38.095425 17,100 301 302 -256
2021-01-14 02:41:57 GMT 56.060997 38.102131 17,100 301 302 -256
2021-01-14 02:41:52 GMT 56.058392 38.109940 17,125 301 302 -256
2021-01-14 02:41:48 GMT 56.055496 38.118896 17,125 301 303 64
2021-01-14 02:41:45 GMT 56.052944 38.126762 17,100 300 304 128
2021-01-14 02:41:42 GMT 56.051128 38.132256 17,100 300 305 128
2021-01-14 02:41:39 GMT 56.046844 38.145779 17,100 300 306 -64
2021-01-14 02:41:36 GMT 56.046844 38.145779 17,100 298 305 0
2021-01-14 02:41:31 GMT 56.043961 38.155350 17,100 298 305 0
2021-01-14 02:41:28 GMT 56.041119 38.165386 17,100 296 303 -192
2021-01-14 02:41:23 GMT 56.038280 38.176373 17,150 294 298 -320
2021-01-14 02:41:19 GMT 56.035999 38.185642 17,150 293 294 -512
2021-01-14 02:41:16 GMT 56.034485 38.192139 17,175 293 294 -640
2021-01-14 02:41:11 GMT 56.032555 38.200665 17,225 292 293 -576
2021-01-14 02:41:08 GMT 56.030640 38.209202 17,250 291 292 -576
2021-01-14 02:41:02 GMT 56.027527 38.224270 17,325 290 291 -448
2021-01-14 02:40:57 GMT 56.025375 38.235500 17,350 289 291 -128
2021-01-14 02:40:52 GMT 56.022263 38.252731 17,325 288 293 512
2021-01-14 02:40:49 GMT 56.022263 38.252731 17,275 287 294 320
2021-01-14 02:40:46 GMT 56.020981 38.260555 17,275 286 295 0
2021-01-14 02:40:41 GMT 56.019379 38.270790 17,300 285 295 0
2021-01-14 02:40:37 GMT 56.018124 38.279285 17,300 285 296 64
2021-01-14 02:40:34 GMT 56.016727 38.289070 17,300 284 293 64
2021-01-14 02:40:31 GMT 56.015991 38.294594 17,300 284 292 64
2021-01-14 02:40:28 GMT 56.014866 38.303062 17,300 284 288 64
2021-01-14 02:40:25 GMT 56.014252 38.307495 17,300 284 286 128
2021-01-14 02:40:21 GMT 56.012676 38.319366 17,250 285 284 640
2021-01-14 02:40:18 GMT 56.011841 38.325207 17,225 285 283 576
2021-01-14 02:40:15 GMT 56.010860 38.331730 17,200 286 282 576
2021-01-14 02:40:11 GMT 56.009766 38.338707 17,175 287 280 512
2021-01-14 02:40:08 GMT 56.008484 38.346447 17,125 289 278 512
2021-01-14 02:40:05 GMT 56.007229 38.353100 17,125 290 278 512
2021-01-14 02:40:02 GMT 56.005878 38.359879 17,100 292 277 448
2021-01-14 02:39:59 GMT 56.004902 38.364174 17,075 293 276 448
2021-01-14 02:39:56 GMT 56.003227 38.371208 17,050 296 276 512
2021-01-14 02:39:52 GMT 56.000702 38.380322 17,000 299 274 448
2021-01-14 02:39:49 GMT 55.999130 38.385460 16,975 300 274 384
2021-01-14 02:39:45 GMT 55.995804 38.395634 16,950 303 276 384
2021-01-14 02:39:42 GMT 55.994709 38.398678 16,925 303 278 -64
2021-01-14 02:39:39 GMT 55.991776 38.406788 16,925 303 277 -512
2021-01-14 02:39:36 GMT 55.989864 38.412151 17,000 303 278 -832
2021-01-14 02:39:33 GMT 55.987122 38.419876 17,050 302 274 -640
2021-01-14 02:39:30 GMT 55.986095 38.422966 17,075 301 272 -640
2021-01-14 02:39:27 GMT 55.983860 38.429577 17,175 301 267 -704
2021-01-14 02:39:24 GMT 55.982254 38.434505 17,150 300 264 -704
2021-01-14 02:39:21 GMT 55.980698 38.439331 17,175 300 263 -384
2021-01-14 02:39:18 GMT 55.978973 38.444855 17,225 296 249 -384
2021-01-14 02:39:15 GMT 55.977219 38.450565 17,225 297 249 -384
2021-01-14 02:39:11 GMT 55.975067 38.458057 17,225 297 250 -256
2021-01-14 02:39:08 GMT 55.973015 38.465450 17,250 296 249 -384
2021-01-14 02:39:04 GMT 55.969391 38.479614 17,300 295 247 -64
2021-01-14 02:39:01 GMT 55.969391 38.479614 17,275 294 246 -64
2021-01-14 02:38:58 GMT 55.968822 38.481934 17,300 294 244 -64
2021-01-14 02:38:55 GMT 55.967381 38.487766 17,300 294 244 -64
2021-01-14 02:38:50 GMT 55.965054 38.497555 17,300 294 241 192
2021-01-14 02:38:47 GMT 55.963005 38.505962 17,275 294 240 256
2021-01-14 02:38:42 GMT 55.961285 38.513260 17,275 294 239 256
2021-01-14 02:38:38 GMT 55.960072 38.518066 17,250 294 239 256
2021-01-14 02:38:35 GMT 55.958496 38.524807 17,200 293 237 640
2021-01-14 02:38:31 GMT 55.956711 38.532299 17,175 294 237 704
2021-01-14 02:38:28 GMT 55.955605 38.536949 17,150 294 237 704
2021-01-14 02:38:25 GMT 55.954193 38.542953 17,100 294 240 512
2021-01-14 02:38:21 GMT 55.952408 38.550194 17,100 294 242 448
2021-01-14 02:38:18 GMT 55.951126 38.555351 17,075 294 241 512
2021-01-14 02:38:13 GMT 55.948387 38.566387 17,025 295 239 64
2021-01-14 02:38:09 GMT 55.946869 38.572498 17,025 294 238 -64
2021-01-14 02:38:05 GMT 55.945541 38.577824 17,025 295 237 -128
2021-01-14 02:38:01 GMT 55.943298 38.586647 17,050 294 237 -128
2021-01-14 02:37:56 GMT 55.940643 38.597050 17,050 294 237 -128
2021-01-14 02:37:52 GMT 55.939362 38.602211 17,050 294 237 -128
2021-01-14 02:37:48 GMT 55.937805 38.609035 17,075 292 237 -128
2021-01-14 02:37:44 GMT 55.936066 38.616776 17,075 292 238 -64
2021-01-14 02:37:41 GMT 55.934608 38.623466 17,100 292 239 -64
2021-01-14 02:37:38 GMT 55.933685 38.627598 17,100 293 239 -64
2021-01-14 02:37:33 GMT 55.931854 38.635338 17,100 295 240 -64
2021-01-14 02:37:30 GMT 55.929813 38.642521 17,100 299 243 -128
2021-01-14 02:37:27 GMT 55.928741 38.646126 17,100 300 244 -128
2021-01-14 02:37:23 GMT 55.926453 38.652901 17,100 304 246 0
2021-01-14 02:37:18 GMT 55.922318 38.663204 17,100 310 249 0
2021-01-14 02:37:14 GMT 55.919128 38.669628 17,100 316 251 0
2021-01-14 02:37:10 GMT 55.916500 38.673847 17,100 322 253 -64
2021-01-14 02:37:07 GMT 55.913635 38.677700 17,100 327 257 128
2021-01-14 02:37:03 GMT 55.909744 38.681862 17,075 25 258 -128
2021-01-14 02:37:00 GMT 55.905838 38.685181 17,075 339 262 -64
2021-01-14 02:36:56 GMT 55.901974 38.687756 17,100 341 263 -64
2021-01-14 02:36:53 GMT 55.897797 38.689938 17,100 347 264 -64
2021-01-14 02:36:50 GMT 55.893585 38.691685 17,100 351 265 64
2021-01-14 02:36:47 GMT 55.890755 38.692558 17,100 352 264 64
2021-01-14 02:36:42 GMT 55.885357 38.693848 17,075 357 266 128
2021-01-14 02:36:39 GMT 55.881351 38.694447 17,075 359 266 128
2021-01-14 02:36:36 GMT 55.878296 38.694763 17,075 0 266 128
2021-01-14 02:36:32 GMT 55.872787 38.694618 17,075 3 266 0
2021-01-14 02:36:29 GMT 55.868599 38.694019 17,075 9 265 -64
2021-01-14 02:36:26 GMT 55.865479 38.693184 17,075 10 264 -64
2021-01-14 02:36:22 GMT 55.860683 38.691273 17,075 15 263 -128
2021-01-14 02:36:19 GMT 55.856354 38.688786 17,075 23 260 -128
2021-01-14 02:36:16 GMT 55.853577 38.686691 17,075 27 258 -192
2021-01-14 02:36:12 GMT 55.849319 38.682529 17,275 33 254 -192
2021-01-14 02:36:09 GMT 55.844193 38.674538 17,300 49 243 -320
2021-01-14 02:36:06 GMT 55.844193 38.674538 17,300 51 242 -256
2021-01-14 02:36:03 GMT 55.842251 38.670074 17,325 61 235 -384
2021-01-14 02:35:59 GMT 55.840107 38.663292 17,325 65 232 -192
2021-01-14 02:35:56 GMT 55.838852 38.657715 17,350 72 227 64
2021-01-14 02:35:53 GMT 55.837872 38.651875 17,325 76 225 192
2021-01-14 02:35:49 GMT 55.837006 38.645241 17,325 78 224 192
2021-01-14 02:35:46 GMT 55.836288 38.639004 17,300 77 226 192
2021-01-14 02:35:42 GMT 55.835266 38.630676 17,300 76 229 192
2021-01-14 02:35:39 GMT 55.834671 38.626514 17,275 76 230 192
2021-01-14 02:35:35 GMT 55.833893 38.620853 17,275 76 231 192
2021-01-14 02:35:31 GMT 55.832748 38.612534 17,250 75 232 256
2021-01-14 02:35:28 GMT 55.831963 38.607159 17,250 74 233 384
2021-01-14 02:35:25 GMT 55.831078 38.601406 17,225 73 233 448
2021-01-14 02:35:21 GMT 55.829865 38.594028 17,200 73 233 512
2021-01-14 02:35:18 GMT 55.828842 38.588448 17,125 66 241 512
2021-01-14 02:35:14 GMT 55.827583 38.582355 17,150 67 240 512
2021-01-14 02:35:11 GMT 55.825790 38.574997 17,100 64 243 512
2021-01-14 02:35:08 GMT 55.824371 38.569820 17,075 62 245 448
2021-01-14 02:35:04 GMT 55.822678 38.564091 17,050 61 248 512
2021-01-14 02:35:01 GMT 55.820927 38.558407 16,850 58 255 640
2021-01-14 02:34:58 GMT 55.818413 38.550510 16,850 60 252 512
2021-01-14 02:34:55 GMT 55.817017 38.546131 16,825 59 255 576
2021-01-14 02:34:50 GMT 55.813980 38.537292 16,775 58 260 512
2021-01-14 02:34:47 GMT 55.812317 38.532574 16,675 57 267 768
2021-01-14 02:34:44 GMT 55.810593 38.527679 16,725 57 264 704
2021-01-14 02:34:40 GMT 55.807709 38.519730 16,650 57 267 896
2021-01-14 02:34:37 GMT 55.805695 38.514156 16,625 57 270 1088
2021-01-14 02:34:34 GMT 55.803772 38.508743 16,575 57 272 1152
2021-01-14 02:34:29 GMT 55.800201 38.499172 16,425 55 282 1280
2021-01-14 02:34:26 GMT 55.798462 38.494762 16,375 55 282 1344
2021-01-14 02:34:22 GMT 55.794579 38.484936 16,300 54 282 1472
2021-01-14 02:34:17 GMT 55.790726 38.475452 16,225 53 282 1408
2021-01-14 02:34:13 GMT 55.788666 38.470627 16,175 52 282 1408
2021-01-14 02:34:10 GMT 55.785095 38.462219 16,050 52 281 1472
2021-01-14 02:34:07 GMT 55.782848 38.456955 16,000 52 281 1472
2021-01-14 02:34:04 GMT 55.780197 38.450817 15,925 53 280 1536
2021-01-14 02:33:59 GMT 55.777447 38.444080 15,800 54 278 1664
2021-01-14 02:33:56 GMT 55.774887 38.437584 15,725 55 277 1664
2021-01-14 02:33:53 GMT 55.772793 38.432236 15,650 55 277 1600
2021-01-14 02:33:49 GMT 55.769859 38.424938 15,550 54 278 1600
2021-01-14 02:33:45 GMT 55.766460 38.416531 15,425 53 278 1600
2021-01-14 02:33:42 GMT 55.764645 38.412151 15,375 53 278 1600
2021-01-14 02:33:38 GMT 55.761932 38.405624 15,225 53 278 1728
2021-01-14 02:33:35 GMT 55.758957 38.398380 15,150 54 277 1728
2021-01-14 02:33:29 GMT 55.754776 38.387775 14,975 55 277 1792
2021-01-14 02:33:26 GMT 55.751999 38.380569 14,875 56 276 1792
2021-01-14 02:33:23 GMT 55.750076 38.375416 14,800 56 276 1792
2021-01-14 02:33:19 GMT 55.747375 38.368034 14,675 56 277 1792
2021-01-14 02:33:16 GMT 55.745235 38.362286 14,575 56 277 1792
2021-01-14 02:33:13 GMT 55.743374 38.357307 14,500 56 277 1792
2021-01-14 02:33:10 GMT 55.740997 38.350780 14,400 56 277 1792
2021-01-14 02:33:06 GMT 55.737598 38.341599 14,250 56 277 1856
2021-01-14 02:33:03 GMT 55.735737 38.336620 14,150 56 277 1856
2021-01-14 02:33:00 GMT 55.734009 38.331966 14,075 56 277 1920
2021-01-14 02:32:57 GMT 55.731903 38.326305 14,000 56 277 1920
2021-01-14 02:32:54 GMT 55.730484 38.322559 13,700 55 278 1920
2021-01-14 02:32:51 GMT 55.728245 38.316708 13,850 55 278 1920
2021-01-14 02:32:48 GMT 55.725494 38.309669 13,725 55 278 1920
2021-01-14 02:32:45 GMT 55.723114 38.303581 13,550 55 278 1920
2021-01-14 02:32:41 GMT 55.721237 38.298840 13,550 55 279 1920
2021-01-14 02:32:37 GMT 55.717163 38.288269 13,350 55 279 1920
2021-01-14 02:32:34 GMT 55.715698 38.284523 13,300 54 279 1920
2021-01-14 02:32:31 GMT 55.712460 38.276451 13,150 54 279 1920
2021-01-14 02:32:27 GMT 55.710228 38.271133 13,025 53 280 1920
2021-01-14 02:32:24 GMT 55.707413 38.264465 12,950 52 281 1856
2021-01-14 02:32:21 GMT 55.705444 38.259720 12,875 52 280 1920
2021-01-14 02:32:16 GMT 55.701614 38.250961 12,650 51 280 1856
2021-01-14 02:32:13 GMT 55.699287 38.245728 12,625 51 280 1856
2021-01-14 02:32:10 GMT 55.697388 38.241409 12,550 51 280 1792
2021-01-14 02:32:07 GMT 55.694092 38.234001 12,450 51 280 1728
2021-01-14 02:32:04 GMT 55.691559 38.228645 12,350 49 279 1792
2021-01-14 02:32:00 GMT 55.688625 38.222466 12,175 50 279 1984
2021-01-14 02:31:57 GMT 55.685440 38.215359 11,300 54 277 1984
2021-01-14 02:31:51 GMT 55.681644 38.205730 11,900 56 276 1984
2021-01-14 02:31:48 GMT 55.678757 38.198132 11,800 56 276 1984
2021-01-14 02:31:44 GMT 55.676662 38.192513 11,725 56 276 1920
2021-01-14 02:31:41 GMT 55.674847 38.187618 11,575 55 276 1856
2021-01-14 02:31:38 GMT 55.672668 38.182152 11,450 54 276 1856
2021-01-14 02:31:35 GMT 55.670792 38.177406 11,300 54 275 1792
2021-01-14 02:31:32 GMT 55.668457 38.171745 11,375 53 275 1856
2021-01-14 02:31:29 GMT 55.665722 38.165215 11,250 55 274 1728
2021-01-14 02:31:26 GMT 55.663486 38.159206 11,175 60 270 1664
2021-01-14 02:31:22 GMT 55.660694 38.149853 11,025 65 266 1664
2021-01-14 02:31:19 GMT 55.659763 38.145988 10,925 69 262 1600
2021-01-14 02:31:15 GMT 55.657715 38.135860 10,800 73 259 1536
2021-01-14 02:31:12 GMT 55.657150 38.132629 10,800 73 259 1536
2021-01-14 02:31:05 GMT 55.655018 38.117840 10,600 77 254 1472
2021-01-14 02:31:02 GMT 55.654221 38.111572 10,450 77 251 1280
2021-01-14 02:30:57 GMT 55.652500 38.099129 10,375 70 253 1152
2021-01-14 02:30:53 GMT 55.651703 38.095177 10,300 63 254 1280
2021-01-14 02:30:50 GMT 55.649940 38.088654 10,250 59 257 1344
2021-01-14 02:30:47 GMT 55.646851 38.080692 10,150 49 268 1344
2021-01-14 02:30:44 GMT 55.645248 38.077366 10,025 37 277 1408
2021-01-14 02:30:41 GMT 55.641998 38.071957 9,925 34 277 1408
2021-01-14 02:30:37 GMT 55.639160 38.068043 9,975 35 277 1408
2021-01-14 02:30:34 GMT 55.636024 38.064449 9,900 28 278 1280
2021-01-14 02:30:31 GMT 55.631973 38.060886 9,825 18 275 1088
2021-01-14 02:30:28 GMT 55.628403 38.058304 9,775 17 275 1088
2021-01-14 02:30:24 GMT 55.622910 38.055641 9,700 12 273 1024
2021-01-14 02:30:21 GMT 55.619682 38.054581 9,625 2 268 960
2021-01-14 02:30:17 GMT 55.615681 38.053894 9,600 2 268 960
2021-01-14 02:30:14 GMT 55.611282 38.053642 9,550 0 265 832
2021-01-14 02:30:11 GMT 55.607067 38.053982 9,525 356 260 768
2021-01-14 02:30:08 GMT 55.603436 38.054752 9,475 352 255 768
2021-01-14 02:30:05 GMT 55.600296 38.055641 9,425 348 251 576
2021-01-14 02:30:02 GMT 55.597057 38.056896 9,400 345 246 512
2021-01-14 02:29:59 GMT 55.592728 38.058956 9,375 343 241 640
2021-01-14 02:29:56 GMT 55.589611 38.060677 9,350 341 237 1280
2021-01-14 02:29:53 GMT 55.587479 38.062050 9,250 339 235 2048
2021-01-14 02:29:50 GMT 55.584351 38.064194 9,125 337 236 2176
2021-01-14 02:29:47 GMT 55.581436 38.066463 9,075 336 235 2240
2021-01-14 02:29:44 GMT 55.578064 38.069260 8,950 334 236 2240
2021-01-14 02:29:40 GMT 55.574574 38.072262 8,725 334 236 2304
2021-01-14 02:29:35 GMT 55.569443 38.076782 8,600 334 236 2304
2021-01-14 02:29:32 GMT 55.565918 38.079861 8,500 334 236 2304
2021-01-14 02:29:29 GMT 55.564590 38.081028 8,450 334 235 2304
2021-01-14 02:29:26 GMT 55.561352 38.083935 8,325 333 236 2368
2021-01-14 02:29:23 GMT 55.557816 38.087112 8,100 333 236 2304
2021-01-14 02:29:20 GMT 55.554749 38.089931 8,050 333 236 2304
2021-01-14 02:29:17 GMT 55.551994 38.092518 7,950 332 237 2304
2021-01-14 02:29:13 GMT 55.548038 38.096210 7,875 331 236 2304
2021-01-14 02:29:10 GMT 55.546036 38.098270 7,600 331 236 2368
2021-01-14 02:29:07 GMT 55.542171 38.102131 7,550 331 236 2368
2021-01-14 02:29:03 GMT 55.538269 38.105995 7,375 331 236 2368
2021-01-14 02:29:00 GMT 55.536217 38.108051 7,300 331 235 2432
2021-01-14 02:28:57 GMT 55.533375 38.110886 7,150 331 236 2560
2021-01-14 02:28:52 GMT 55.528393 38.115692 6,950 331 236 2752
2021-01-14 02:28:48 GMT 55.525276 38.118782 6,800 331 238 2816
2021-01-14 02:28:45 GMT 55.521412 38.122643 6,600 331 239 2880
2021-01-14 02:28:42 GMT 55.518620 38.125477 6,375 331 242 2368
2021-01-14 02:28:39 GMT 55.515266 38.128822 6,300 331 241 1856
2021-01-14 02:28:36 GMT 55.513092 38.130882 6,250 332 238 960
2021-01-14 02:28:33 GMT 55.510300 38.133629 6,225 332 235 704
2021-01-14 02:28:30 GMT 55.507278 38.136375 6,175 333 234 704
2021-01-14 02:28:26 GMT 55.500504 38.142117 6,025 336 234 1088
2021-01-14 02:28:23 GMT 55.497574 38.144363 6,050 337 234 1472
2021-01-14 02:28:20 GMT 55.497574 38.144363 5,975 339 235 1536
2021-01-14 02:28:16 GMT 55.493225 38.147194 5,875 342 237 1664
2021-01-14 02:28:12 GMT 55.487988 38.150024 5,700 346 245 2176
2021-01-14 02:28:08 GMT 55.484619 38.151440 5,575 350 252 1792
2021-01-14 02:28:05 GMT 55.481552 38.152355 5,525 356 258 896
2021-01-14 02:28:01 GMT 55.476105 38.153355 5,425 358 260 576
2021-01-14 02:27:58 GMT 55.471928 38.153542 5,475 4 258 -384
2021-01-14 02:27:53 GMT 55.467270 38.153286 5,450 3 261 -320
2021-01-14 02:27:50 GMT 55.463837 38.152771 5,475 4 256 -448
2021-01-14 02:27:47 GMT 55.459778 38.152168 5,550 6 246 -1344
2021-01-14 02:27:44 GMT 55.456657 38.151653 5,675 8 240 -1088
2021-01-14 02:27:40 GMT 55.452347 38.150608 5,650 9 239 -960
2021-01-14 02:27:37 GMT 55.448502 38.149361 5,700 12 234 -384
2021-01-14 02:27:34 GMT 55.445904 38.148308 5,700 17 230 640
2021-01-14 02:27:31 GMT 55.441910 38.146149 5,650 20 230 1088
2021-01-14 02:27:28 GMT 55.439480 38.144531 5,575 23 232 1472
2021-01-14 02:27:24 GMT 55.435913 38.141624 5,450 28 238 2176
2021-01-14 02:27:20 GMT 55.431519 38.137020 5,475 86 222 192
2021-01-14 02:27:15 GMT 55.426071 38.130394 5,075 35 268 1664
2021-01-14 02:27:10 GMT 55.421326 38.124474 4,975 34 275 1024
2021-01-14 02:27:07 GMT 55.418564 38.121105 4,950 34 280 960
2021-01-14 02:27:03 GMT 55.414574 38.116482 4,900 32 290 128
2021-01-14 02:26:59 GMT 55.408054 38.109074 5,175 37 263 -2624
2021-01-14 02:26:53 GMT 55.402843 38.103165 4,900 33 285 -320
2021-01-14 02:26:48 GMT 55.397827 38.097355 4,925 33 279 -1280
2021-01-14 02:26:44 GMT 55.392517 38.090813 5,100 36 266 -2560
2021-01-14 02:26:37 GMT 55.386703 38.082653 5,500 130 190 1984
2021-01-14 02:26:33 GMT 55.383385 38.076534 5,450 52 239 -1216
2021-01-14 02:26:29 GMT 55.381256 38.070534 5,500 62 231 -384
2021-01-14 02:26:25 GMT 55.379654 38.064236 5,500 73 225 64
2021-01-14 02:26:22 GMT 55.378777 38.059219 5,475 77 224 192
2021-01-14 02:26:18 GMT 55.378052 38.052197 5,475 86 222 192
2021-01-14 02:26:15 GMT 55.377823 38.045170 5,450 91 221 128
2021-01-14 02:26:12 GMT 55.377892 38.041409 5,450 95 220 128
2021-01-14 02:26:08 GMT 55.378681 38.031590 5,425 102 219 128
2021-01-14 02:26:03 GMT 55.380077 38.023018 5,425 109 217 64
2021-01-14 02:25:57 GMT 55.382034 38.014633 5,425 115 216 0
2021-01-14 02:25:52 GMT 55.384323 38.007202 5,425 129 195 2176
2021-01-14 02:25:47 GMT 55.387108 37.999794 5,450 126 211 -320
2021-01-14 02:25:43 GMT 55.389481 37.994301 5,500 130 207 -576
2021-01-14 02:25:40 GMT 55.391670 37.989807 5,525 132 203 -512
2021-01-14 02:25:36 GMT 55.393673 37.985977 5,575 132 197 -448
2021-01-14 02:25:32 GMT 55.396820 37.979897 5,575 132 189 384
2021-01-14 02:25:29 GMT 55.398193 37.977234 5,550 131 186 768
2021-01-14 02:25:26 GMT 55.399612 37.974487 5,500 131 187 1280
2021-01-14 02:25:22 GMT 55.402283 37.969082 5,350 129 193 2048
2021-01-14 02:25:19 GMT 55.403774 37.965919 5,250 128 200 2240
2021-01-14 02:25:16 GMT 55.405125 37.962841 1,775 137 177 -1856
2021-01-14 02:25:13 GMT 55.407120 37.958168 5,025 126 206 2496
2021-01-14 02:25:10 GMT 55.408569 37.954765 4,925 125 207 2560
2021-01-14 02:25:07 GMT 55.410416 37.950253 4,700 124 215 2944
2021-01-14 02:25:04 GMT 55.414154 37.940536 4,525 123 223 2752
2021-01-14 02:25:01 GMT 55.414154 37.940536 4,450 122 227 2496
2021-01-14 02:24:57 GMT 55.418289 37.928360 4,300 120 234 1280
2021-01-14 02:24:53 GMT 55.418289 37.928360 4,325 118 229 -512
2021-01-14 02:24:50 GMT 55.419788 37.923637 4,350 118 226 -1024
2021-01-14 02:24:46 GMT 55.421741 37.917149 4,525 118 208 -1856
2021-01-14 02:24:40 GMT 55.424538 37.908157 4,675 117 191 832
2021-01-14 02:24:35 GMT 55.426350 37.901917 4,500 117 186 3648
2021-01-14 02:24:30 GMT 55.428589 37.894188 4,050 116 192 5696
2021-01-14 02:24:27 GMT 55.430008 37.889099 3,575 116 199 6592
2021-01-14 02:24:23 GMT 55.431519 37.883930 3,300 117 206 5888
2021-01-14 02:24:20 GMT 55.432915 37.879196 3,000 118 209 4992
2021-01-14 02:24:16 GMT 55.434776 37.873283 2,700 119 211 3712
2021-01-14 02:24:12 GMT 55.436172 37.868958 2,425 122 206 3520
2021-01-14 02:24:09 GMT 55.438477 37.862358 1,925 150 189 -640
2021-01-14 02:24:06 GMT 55.439384 37.859802 2,050 123 207 1984
2021-01-14 02:24:02 GMT 55.441574 37.853809 1,750 126 201 2176
2021-01-14 02:23:56 GMT 55.444927 37.845757 1,550 128 200 1600
2021-01-14 02:23:50 GMT 55.448364 37.838493 1,550 135 189 -640
2021-01-14 02:23:42 GMT 55.453678 37.829704 1,775 137 177 -1856
2021-01-14 02:23:38 GMT 55.455444 37.826874 1,925 150 189 -640
2021-01-14 02:23:35 GMT 55.457520 37.823597 2,000 141 179 -448
2021-01-14 02:23:31 GMT 55.459946 37.820019 1,975 144 183 -704
2021-01-14 02:23:28 GMT 55.461639 37.817688 2,000 143 183 -576
2021-01-14 02:23:25 GMT 55.465027 37.813442 2,050 125 156 -192
2021-01-14 02:23:21 GMT 55.466904 37.811447 2,075 151 190 -576
2021-01-14 02:23:17 GMT 55.474159 37.804558 2,650 153 197 -704
2021-01-14 02:23:12 GMT 55.474159 37.804558 2,900 125 156 -192
2021-01-14 02:23:09 GMT 55.476151 37.802872 2,200 153 194 -1536
2021-01-14 02:23:04 GMT 55.480633 37.799065 2,325 154 180 -1408
2021-01-14 02:23:00 GMT 55.484482 37.795883 2,450 154 181 -1408
2021-01-14 02:22:53 GMT 55.488647 37.792301 2,775 152 166 -896
2021-01-14 02:22:49 GMT 55.493454 37.788059 2,850 152 164 -576
2021-01-14 02:22:46 GMT 55.493454 37.788059 2,775 152 166 -896
2021-01-14 02:22:40 GMT 55.497810 37.784126 2,850 152 163 -448
2021-01-14 02:22:36 GMT 55.500366 37.781734 2,875 152 161 -192
2021-01-14 02:22:33 GMT 55.502243 37.780067 2,900 125 156 -192
2021-01-14 02:22:28 GMT 55.505489 37.776917 2,900 145 158 -256
2021-01-14 02:22:23 GMT 55.508842 37.772800 2,925 137 156 -256
2021-01-14 02:22:20 GMT 55.510284 37.770481 2,925 130 155 -256
2021-01-14 02:22:17 GMT 55.512039 37.767082 2,950 129 155 -256
2021-01-14 02:22:13 GMT 55.513592 37.763615 2,950 115 164 -192
2021-01-14 02:22:09 GMT 55.515125 37.759838 2,975 123 158 -192
2021-01-14 02:22:06 GMT 55.516663 37.755600 3,025 119 166 -192
2021-01-14 02:21:59 GMT 55.520050 37.742947 3,025 115 164 -192
2021-01-14 02:21:55 GMT 55.520050 37.742947 3,025 119 166 -192
2021-01-14 02:21:52 GMT 55.520901 37.740356 3,100 125 169 -192
2021-01-14 02:21:47 GMT 55.523483 37.733791 3,050 130 170 -128
2021-01-14 02:21:44 GMT 55.524628 37.731461 3,075 134 171 -128
2021-01-14 02:21:38 GMT 55.528069 37.726276 3,075 148 172 -128
2021-01-14 02:21:35 GMT 55.531219 37.723141 3,100 157 173 -256
2021-01-14 02:21:29 GMT 55.535614 37.720894 3,125 175 178 64
2021-01-14 02:21:26 GMT 55.538406 37.720474 3,100 184 182 128
2021-01-14 02:21:23 GMT 55.540512 37.720558 3,100 186 182 128
2021-01-14 02:21:18 GMT 55.544266 37.721390 3,075 193 186 64
2021-01-14 02:21:15 GMT 55.547714 37.723019 3,100 197 187 128
2021-01-14 02:21:12 GMT 55.549484 37.723888 3,100 197 187 128
2021-01-14 02:21:06 GMT 55.554611 37.726719 3,075 202 187 128
2021-01-14 02:21:03 GMT 55.557770 37.728714 3,075 202 187 128
2021-01-14 02:20:59 GMT 55.560467 37.730656 3,075 204 188 64
2021-01-14 02:20:56 GMT 55.562576 37.732292 3,075 205 187 64
2021-01-14 02:20:52 GMT 55.565048 37.734291 3,050 207 188 64
2021-01-14 02:20:48 GMT 55.568569 37.737610 3,050 211 193 64
2021-01-14 02:20:44 GMT 55.571777 37.741032 3,050 216 200 64
2021-01-14 02:20:40 GMT 55.574753 37.744614 3,050 216 201 64
2021-01-14 02:20:37 GMT 55.577133 37.747738 3,050 220 205 128
2021-01-14 02:20:34 GMT 55.579376 37.751022 3,025 223 198 -320
2021-01-14 02:20:30 GMT 55.582169 37.755432 3,025 223 206 192
2021-01-14 02:20:27 GMT 55.584255 37.758720 3,025 222 201 -192
2021-01-14 02:20:22 GMT 55.587700 37.764130 3,050 222 194 -320
2021-01-14 02:20:19 GMT 55.589611 37.767136 3,725 222 186 -704
2021-01-14 02:20:16 GMT 55.591278 37.769833 3,100 222 186 -704
2021-01-14 02:20:13 GMT 55.593708 37.773571 3,150 222 180 -768
2021-01-14 02:20:10 GMT 55.595474 37.776402 3,175 222 178 -640
2021-01-14 02:20:07 GMT 55.597641 37.779736 3,200 222 174 -384
2021-01-14 02:20:04 GMT 55.599384 37.782581 3,225 222 172 -384
2021-01-14 02:20:01 GMT 55.601486 37.785892 3,250 223 172 -512
2021-01-14 02:19:56 GMT 55.603500 37.789139 3,275 223 169 -640
2021-01-14 02:19:53 GMT 55.605484 37.792282 3,325 222 167 -640
2021-01-14 02:19:50 GMT 55.607300 37.795132 3,350 223 167 -704
2021-01-14 02:19:46 GMT 55.609543 37.798714 3,375 224 168 -896
2021-01-14 02:19:43 GMT 55.611675 37.802155 3,450 224 168 -960
2021-01-14 02:19:40 GMT 55.612839 37.804214 3,475 225 168 -832
2021-01-14 02:19:37 GMT 55.614532 37.807034 3,575 225 167 -896
2021-01-14 02:19:33 GMT 55.617142 37.811447 3,575 225 167 -896
2021-01-14 02:19:30 GMT 55.618515 37.813858 3,625 225 167 -960
2021-01-14 02:19:26 GMT 55.620941 37.818104 3,700 225 167 -960
2021-01-14 02:19:23 GMT 55.622196 37.820351 3,750 225 168 -896
2021-01-14 02:19:20 GMT 55.623871 37.823269 3,800 225 168 -896
2021-01-14 02:19:15 GMT 55.626526 37.827988 3,850 225 168 -896
2021-01-14 02:19:12 GMT 55.628761 37.831676 3,925 223 167 -832
2021-01-14 02:19:07 GMT 55.631367 37.835972 4,000 223 167 -512
2021-01-14 02:19:03 GMT 55.633759 37.839745 4,000 223 168 -384
2021-01-14 02:18:59 GMT 55.635605 37.842667 4,025 223 169 -384
2021-01-14 02:18:56 GMT 55.637604 37.845924 4,025 223 169 -384
2021-01-14 02:18:52 GMT 55.639748 37.849445 4,150 215 168 -896
2021-01-14 02:18:49 GMT 55.641655 37.852280 4,125 217 169 -896
2021-01-14 02:18:45 GMT 55.644745 37.856056 4,175 211 167 -832
2021-01-14 02:18:42 GMT 55.647057 37.858288 4,225 208 165 -960
2021-01-14 02:18:39 GMT 55.648819 37.859718 4,275 204 163 -832
2021-01-14 02:18:34 GMT 55.651611 37.861801 4,450 210 178 -576
2021-01-14 02:18:31 GMT 55.654312 37.863880 4,375 204 162 -320
2021-01-14 02:18:27 GMT 55.656364 37.865498 4,375 204 162 -320
2021-01-14 02:18:24 GMT 55.658646 37.867210 4,400 205 162 -320
2021-01-14 02:18:21 GMT 55.661407 37.869457 4,425 205 162 -256
2021-01-14 02:18:17 GMT 55.663010 37.870789 4,450 205 162 -64
2021-01-14 02:18:13 GMT 55.665863 37.873051 4,450 204 160 0
2021-01-14 02:18:10 GMT 55.668098 37.874763 4,450 203 157 64
2021-01-14 02:18:07 GMT 55.670097 37.876308 4,450 203 156 0
2021-01-14 02:18:04 GMT 55.672424 37.877941 4,450 202 156 0
2021-01-14 02:18:00 GMT 55.674957 37.879776 4,450 202 157 -128
2021-01-14 02:17:57 GMT 55.676651 37.880943 4,450 203 157 -128
2021-01-14 02:17:54 GMT 55.678432 37.882233 4,450 202 159 -128
2021-01-14 02:17:51 GMT 55.680542 37.883690 4,475 200 162 -64
2021-01-14 02:17:48 GMT 55.683552 37.885578 4,475 200 164 -64
2021-01-14 02:17:43 GMT 55.686768 37.887600 4,475 217 181 -1024
2021-01-14 02:17:38 GMT 55.690815 37.890217 4,450 205 176 128
2021-01-14 02:17:34 GMT 55.694229 37.893093 4,425 208 180 0
2021-01-14 02:17:31 GMT 55.696121 37.895020 4,450 212 183 -640
2021-01-14 02:17:27 GMT 55.698715 37.897923 4,600 217 183 -1216
2021-01-14 02:17:23 GMT 55.701336 37.901199 4,600 216 182 -1216
2021-01-14 02:17:19 GMT 55.703850 37.904377 4,750 214 179 -704
2021-01-14 02:17:16 GMT 55.705666 37.906693 4,825 214 179 -704
2021-01-14 02:17:12 GMT 55.710972 37.913048 4,775 213 178 -704
2021-01-14 02:17:09 GMT 55.710972 37.913048 4,825 210 178 -576
2021-01-14 02:17:06 GMT 55.712601 37.914848 4,875 210 179 -832
2021-01-14 02:17:03 GMT 55.714741 37.917080 4,875 210 178 -576
2021-01-14 02:17:00 GMT 55.717163 37.919479 4,875 210 179 -832
2021-01-14 02:16:57 GMT 55.718887 37.921200 4,925 210 179 -1024
2021-01-14 02:16:54 GMT 55.722015 37.924473 5,000 212 180 -960
2021-01-14 02:16:49 GMT 55.727497 37.931328 5,100 222 184 -768
2021-01-14 02:16:45 GMT 55.727497 37.931328 5,100 221 184 -768
2021-01-14 02:16:41 GMT 55.733002 37.940037 5,175 223 186 -704
2021-01-14 02:16:37 GMT 55.733002 37.940037 5,325 246 210 -768
2021-01-14 02:16:32 GMT 55.736389 37.945530 5,275 223 189 -640
2021-01-14 02:16:28 GMT 55.738762 37.949265 5,300 221 190 -640
2021-01-14 02:16:25 GMT 55.741058 37.952854 5,350 221 190 -640
2021-01-14 02:16:20 GMT 55.744350 37.957592 5,400 218 192 -768
2021-01-14 02:16:14 GMT 55.747971 37.962589 5,475 220 194 -768
2021-01-14 02:16:10 GMT 55.751007 37.967117 5,525 224 197 -704
2021-01-14 02:16:05 GMT 55.754356 37.973385 5,575 233 203 -704
2021-01-14 02:16:02 GMT 55.755844 37.976822 5,625 240 206 -704
2021-01-14 02:15:59 GMT 55.757217 37.980652 5,650 244 209 -704
2021-01-14 02:15:55 GMT 55.759415 37.988560 5,700 249 212 -704
2021-01-14 02:15:50 GMT 55.761108 37.997074 5,775 254 216 -768
2021-01-14 02:15:44 GMT 55.762550 38.006256 5,825 257 219 -768
2021-01-14 02:15:39 GMT 55.763718 38.015526 5,900 259 222 -704
2021-01-14 02:15:35 GMT 55.764496 38.022598 5,950 260 224 -704
2021-01-14 02:15:30 GMT 55.765228 38.030838 6,000 267 229 -896
2021-01-14 02:15:27 GMT 55.765640 38.036831 6,050 267 229 -896
2021-01-14 02:15:22 GMT 55.765823 38.047733 6,125 272 231 -960
2021-01-14 02:15:17 GMT 55.765549 38.057140 6,200 276 232 -896
2021-01-14 02:15:14 GMT 55.765205 38.062305 6,250 278 234 -960
2021-01-14 02:15:10 GMT 55.764496 38.069958 6,325 283 234 -1216
2021-01-14 02:15:06 GMT 55.763718 38.075699 6,375 288 234 -1216
2021-01-14 02:15:03 GMT 55.762783 38.081100 6,450 290 234 -1216
2021-01-14 02:14:59 GMT 55.761108 38.088139 6,575 304 230 -1280
2021-01-14 02:14:56 GMT 55.759480 38.093376 6,600 304 230 -1280
2021-01-14 02:14:52 GMT 55.756897 38.099422 6,675 314 227 -1344
2021-01-14 02:14:49 GMT 55.751953 38.106495 6,775 325 221 -1344
2021-01-14 02:14:46 GMT 55.751953 38.106495 6,825 333 217 -1344
2021-01-14 02:14:43 GMT 55.749161 38.108994 7,025 16 187 -704
2021-01-14 02:14:40 GMT 55.745865 38.110989 6,975 348 206 -1408
2021-01-14 02:14:37 GMT 55.744068 38.111744 7,025 354 203 -1408
2021-01-14 02:14:32 GMT 55.739319 38.112320 7,250 19 186 -640
2021-01-14 02:14:29 GMT 55.736111 38.111572 7,250 19 186 -640
2021-01-14 02:14:26 GMT 55.734100 38.110573 7,225 19 186 -640
2021-01-14 02:14:22 GMT 55.728058 38.104500 7,275 32 180 -448
2021-01-14 02:14:18 GMT 55.728058 38.104500 7,275 54 177 64
2021-01-14 02:14:15 GMT 55.726055 38.100842 7,275 58 178 0
2021-01-14 02:14:11 GMT 55.724762 38.098007 7,475 87 171 -1024
2021-01-14 02:14:07 GMT 55.722473 38.090599 7,275 68 176 -448
2021-01-14 02:14:03 GMT 55.721603 38.085770 7,325 77 173 -960
2021-01-14 02:13:58 GMT 55.721073 38.078785 7,625 93 169 -1024
2021-01-14 02:13:55 GMT 55.721169 38.074665 7,450 99 167 -1024
2021-01-14 02:13:50 GMT 55.722050 38.067627 7,550 109 166 -1088
2021-01-14 02:13:46 GMT 55.722931 38.063797 7,600 116 165 -960
2021-01-14 02:13:42 GMT 55.724518 38.059044 7,700 128 165 -1600
2021-01-14 02:13:39 GMT 55.725815 38.056141 7,775 137 163 -2816
2021-01-14 02:13:35 GMT 55.728989 38.051662 8,050 150 160 -3200
2021-01-14 02:13:32 GMT 55.730301 38.050484 8,200 166 160 -2496
2021-01-14 02:13:29 GMT 55.732315 38.049316 8,300 166 160 -2496
2021-01-14 02:13:25 GMT 55.734947 38.048573 8,475 185 170 -960
2021-01-14 02:13:22 GMT 55.737785 38.048744 8,475 185 170 -960
2021-01-14 02:13:19 GMT 55.740021 38.049519 8,600 203 185 -1024
2021-01-14 02:13:16 GMT 55.743073 38.051647 8,575 207 190 -1024
2021-01-14 02:13:13 GMT 55.744675 38.053207 8,625 212 194 -1024
2021-01-14 02:13:09 GMT 55.748402 38.058102 8,725 224 203 -896
2021-01-14 02:13:06 GMT 55.749378 38.059647 8,775 235 209 -704
2021-01-14 02:13:03 GMT 55.751862 38.064381 8,775 231 206 -640
2021-01-14 02:12:57 GMT 55.755386 38.073288 8,850 241 213 -320
2021-01-14 02:12:53 GMT 55.757107 38.078957 8,825 245 221 320
2021-01-14 02:12:48 GMT 55.759247 38.086853 8,750 246 232 512
2021-01-14 02:12:44 GMT 55.761574 38.095695 8,850 246 235 320
2021-01-14 02:12:38 GMT 55.763668 38.103848 8,800 245 239 -896
2021-01-14 02:12:35 GMT 55.765411 38.110157 8,825 244 238 -1280
2021-01-14 02:12:31 GMT 55.767517 38.117649 8,950 244 237 -1664
2021-01-14 02:12:28 GMT 55.768929 38.122559 9,075 244 236 -1664
2021-01-14 02:12:23 GMT 55.771164 38.130627 9,400 245 233 -1664
2021-01-14 02:12:19 GMT 55.772736 38.136623 9,250 245 235 -1728
2021-01-14 02:12:16 GMT 55.774654 38.143673 9,350 244 232 -1664
2021-01-14 02:12:12 GMT 55.776333 38.149593 9,450 244 229 -1536
2021-01-14 02:12:07 GMT 55.778610 38.157578 9,550 243 227 -1152
2021-01-14 02:12:03 GMT 55.781219 38.166416 9,650 242 224 -1088
2021-01-14 02:11:57 GMT 55.783642 38.174145 9,750 240 221 -1088
2021-01-14 02:11:53 GMT 55.785370 38.179405 9,825 240 220 -1088
2021-01-14 02:11:50 GMT 55.789948 38.193554 9,925 241 219 -1088
2021-01-14 02:11:44 GMT 55.789948 38.193554 9,975 242 220 -1024
2021-01-14 02:11:41 GMT 55.792099 38.200794 10,050 243 220 -1024
2021-01-14 02:11:35 GMT 55.794617 38.209366 10,150 243 220 -960
2021-01-14 02:11:32 GMT 55.796024 38.213966 10,175 242 220 -960
2021-01-14 02:11:28 GMT 55.797745 38.219719 10,250 242 219 -960
2021-01-14 02:11:24 GMT 55.799515 38.225471 10,300 241 218 -960
2021-01-14 02:11:19 GMT 55.802124 38.233753 10,425 242 215 -1472
2021-01-14 02:11:16 GMT 55.803516 38.238258 10,500 243 213 -1408
2021-01-14 02:11:12 GMT 55.806030 38.247101 10,600 245 213 -1024
2021-01-14 02:11:09 GMT 55.808807 38.257889 10,775 246 212 -1024
2021-01-14 02:11:03 GMT 55.808807 38.257889 10,725 246 210 -640
2021-01-14 02:11:00 GMT 55.810364 38.264133 10,775 244 209 -640
2021-01-14 02:10:57 GMT 55.811600 38.268791 10,800 244 209 -640
2021-01-14 02:10:54 GMT 55.813019 38.273705 10,825 242 208 -640
2021-01-14 02:10:50 GMT 55.814690 38.279114 10,875 241 207 -576
2021-01-14 02:10:46 GMT 55.817001 38.286522 10,925 241 208 -512
2021-01-14 02:10:43 GMT 55.817760 38.288727 10,950 241 209 -448
2021-01-14 02:10:38 GMT 55.820415 38.297222 10,975 242 211 -704
2021-01-14 02:10:35 GMT 55.821674 38.301430 11,025 244 212 -832
2021-01-14 02:10:31 GMT 55.823318 38.307579 11,125 249 216 -960
2021-01-14 02:10:27 GMT 55.824932 38.314476 11,125 250 217 -1024
2021-01-14 02:10:23 GMT 55.826477 38.322643 11,175 252 218 -1024
2021-01-14 02:10:20 GMT 55.827209 38.326969 11,250 253 218 -960
2021-01-14 02:10:17 GMT 55.828053 38.331642 11,300 252 218 -960
2021-01-14 02:10:13 GMT 55.829540 38.338852 11,375 249 215 -896
2021-01-14 02:10:10 GMT 55.830425 38.342972 11,400 248 215 -896
2021-01-14 02:10:05 GMT 55.832611 38.352272 11,525 247 214 -960
2021-01-14 02:10:02 GMT 55.833359 38.355503 12,050 259 219 -960
2021-01-14 02:09:59 GMT 55.834671 38.360680 11,575 246 213 -896
2021-01-14 02:09:56 GMT 55.835770 38.364925 11,625 245 212 -960
2021-01-14 02:09:52 GMT 55.837784 38.372082 11,700 242 211 -960
2021-01-14 02:09:47 GMT 55.840256 38.379906 11,775 240 210 -1024
2021-01-14 02:09:42 GMT 55.842251 38.385799 11,850 240 209 -960
2021-01-14 02:09:39 GMT 55.844376 38.392307 11,950 244 212 -960
2021-01-14 02:09:36 GMT 55.845337 38.395554 11,950 247 214 -960
2021-01-14 02:09:33 GMT 55.846527 38.400627 12,000 252 216 -960
2021-01-14 02:09:27 GMT 55.848209 38.411808 12,075 264 222 -960
2021-01-14 02:09:22 GMT 55.848721 38.418758 12,800 262 224 -896
2021-01-14 02:09:19 GMT 55.849228 38.427261 12,225 264 223 -896
2021-01-14 02:09:15 GMT 55.849503 38.432175 12,275 263 223 -896
2021-01-14 02:09:12 GMT 55.849930 38.438072 12,325 263 224 -896
2021-01-14 02:09:06 GMT 55.850876 38.449818 12,425 262 224 -896
2021-01-14 02:09:03 GMT 55.851334 38.455227 13,600 260 223 -832
2021-01-14 02:08:58 GMT 55.852211 38.466740 12,550 263 226 -896
2021-01-14 02:08:55 GMT 55.852444 38.469570 12,575 263 226 -832
2021-01-14 02:08:52 GMT 55.852818 38.474380 12,625 262 224 -832
2021-01-14 02:08:49 GMT 55.853329 38.479786 12,700 260 224 -832
2021-01-14 02:08:46 GMT 55.854118 38.487854 12,725 260 223 -832
2021-01-14 02:08:42 GMT 55.854584 38.492489 12,750 260 223 -832
2021-01-14 02:08:38 GMT 55.855236 38.498840 12,825 261 223 -896
2021-01-14 02:08:35 GMT 55.855865 38.505417 12,850 261 222 -832
2021-01-14 02:08:31 GMT 55.856400 38.511627 13,050 262 221 -832
2021-01-14 02:08:28 GMT 55.856960 38.518066 12,950 262 222 -832
2021-01-14 02:08:25 GMT 55.857422 38.523643 13,000 262 221 -832
2021-01-14 02:08:19 GMT 55.858429 38.535961 13,100 262 221 -896
2021-01-14 02:08:15 GMT 55.858978 38.542538 13,150 263 220 -896
2021-01-14 02:08:12 GMT 55.859390 38.548363 13,200 263 219 -896
2021-01-14 02:08:07 GMT 55.860077 38.557934 13,275 263 218 -896
2021-01-14 02:08:04 GMT 55.860306 38.560596 13,300 263 218 -896
2021-01-14 02:08:01 GMT 55.860764 38.566757 13,425 261 216 -896
2021-01-14 02:07:55 GMT 55.861801 38.578491 13,450 261 216 -896
2021-01-14 02:07:51 GMT 55.862320 38.584232 13,525 261 214 -896
2021-01-14 02:07:48 GMT 55.862778 38.589478 13,550 264 215 -704
2021-01-14 02:07:44 GMT 55.863510 38.601879 13,600 265 215 -512
2021-01-14 02:07:41 GMT 55.863510 38.601879 13,625 269 218 -576
2021-01-14 02:07:37 GMT 55.863430 38.609989 13,675 275 220 -576
2021-01-14 02:07:34 GMT 55.863197 38.614799 13,675 279 222 -576
2021-01-14 02:07:30 GMT 55.862591 38.620632 14,525 29 236 -704
2021-01-14 02:07:26 GMT 55.861176 38.628513 13,775 292 228 -640
2021-01-14 02:07:21 GMT 55.858681 38.638145 13,825 301 232 -640
2021-01-14 02:07:17 GMT 55.856728 38.643639 13,900 309 235 -704
2021-01-14 02:07:14 GMT 55.854073 38.649902 13,900 310 235 -704
2021-01-14 02:07:10 GMT 55.852119 38.653934 13,950 314 236 -704
2021-01-14 02:07:06 GMT 55.846024 38.664135 14,000 320 237 -704
2021-01-14 02:07:03 GMT 55.846024 38.664135 14,025 321 238 -640
2021-01-14 02:06:59 GMT 55.843227 38.667927 14,075 324 238 -512
2021-01-14 02:06:56 GMT 55.839874 38.671963 14,100 30 236 -704
2021-01-14 02:06:53 GMT 55.837463 38.674454 14,125 332 241 -448
2021-01-14 02:06:50 GMT 55.834030 38.677616 14,150 338 242 -512
2021-01-14 02:06:46 GMT 55.829910 38.680447 14,175 344 243 -512
2021-01-14 02:06:42 GMT 55.826000 38.682346 14,200 349 243 -576
2021-01-14 02:06:38 GMT 55.820435 38.683609 14,250 359 244 -640
2021-01-14 02:06:34 GMT 55.811523 38.682091 14,300 11 242 -640
2021-01-14 02:06:30 GMT 55.811523 38.682091 14,325 12 242 -640
2021-01-14 02:06:27 GMT 55.809383 38.681232 14,350 14 241 -640
2021-01-14 02:06:23 GMT 55.804729 38.678913 14,500 26 238 -704
2021-01-14 02:06:20 GMT 55.800957 38.676598 14,450 22 239 -640
2021-01-14 02:06:17 GMT 55.798306 38.674706 14,550 25 238 -704
2021-01-14 02:06:12 GMT 55.793556 38.670673 14,525 28 237 -704
2021-01-14 02:06:09 GMT 55.790714 38.667927 14,550 31 235 -704
2021-01-14 02:06:06 GMT 55.788528 38.665550 14,600 32 235 -704
2021-01-14 02:06:02 GMT 55.781433 38.656979 14,675 74 206 -256
2021-01-14 02:05:59 GMT 55.778099 38.652134 14,675 38 232 -704
2021-01-14 02:05:56 GMT 55.778099 38.652134 14,725 79 204 -256
2021-01-14 02:05:52 GMT 55.775620 38.648239 14,775 43 229 -704
2021-01-14 02:05:49 GMT 55.773258 38.644066 14,800 47 226 -704
2021-01-14 02:05:46 GMT 55.771729 38.641079 14,825 51 223 -768
2021-01-14 02:05:43 GMT 55.768974 38.634708 15,000 74 206 -256
2021-01-14 02:05:38 GMT 55.767197 38.629345 14,950 65 210 -640
2021-01-14 02:05:35 GMT 55.766090 38.625271 14,975 67 209 -384
2021-01-14 02:05:32 GMT 55.765045 38.619690 15,000 76 205 -256
2021-01-14 02:05:28 GMT 55.764416 38.612995 15,000 86 202 -256
2021-01-14 02:05:25 GMT 55.764366 38.607075 15,025 94 198 -256
2021-01-14 02:05:21 GMT 55.764771 38.601048 15,050 100 197 -256
2021-01-14 02:05:18 GMT 55.765392 38.596432 15,050 107 195 -256
2021-01-14 02:05:14 GMT 55.766830 38.589310 15,075 113 194 -192
2021-01-14 02:05:11 GMT 55.767700 38.585815 15,075 117 192 -192
2021-01-14 02:05:08 GMT 55.769024 38.581409 15,075 120 192 -64
2021-01-14 02:05:05 GMT 55.770035 38.578407 15,075 122 192 0
2021-01-14 02:05:01 GMT 55.772141 38.572571 15,075 123 192 64
2021-01-14 02:04:58 GMT 55.773605 38.568752 15,075 124 192 64
2021-01-14 02:04:55 GMT 55.775116 38.564842 15,075 124 193 64
2021-01-14 02:04:51 GMT 55.777267 38.559349 15,075 123 193 64
2021-01-14 02:04:48 GMT 55.779125 38.554459 15,075 122 195 64
2021-01-14 02:04:45 GMT 55.780193 38.551285 15,075 120 196 64
2021-01-14 02:04:40 GMT 55.782570 38.544071 15,075 119 197 64
2021-01-14 02:04:37 GMT 55.783733 38.540382 15,050 119 197 128
2021-01-14 02:04:33 GMT 55.785919 38.533298 15,050 119 197 128
2021-01-14 02:04:30 GMT 55.786835 38.530468 15,050 120 197 128
2021-01-14 02:04:27 GMT 55.788296 38.526051 15,050 121 195 128
2021-01-14 02:04:24 GMT 55.789398 38.522812 15,025 121 196 64
2021-01-14 02:04:20 GMT 55.791733 38.516151 15,025 121 195 64
2021-01-14 02:04:17 GMT 55.793289 38.511574 15,025 121 195 64
2021-01-14 02:04:14 GMT 55.794342 38.508495 15,025 121 196 64
2021-01-14 02:04:10 GMT 55.796494 38.502087 15,000 120 197 64
2021-01-14 02:04:06 GMT 55.799561 38.492916 15,000 120 198 64
2021-01-14 02:04:03 GMT 55.800587 38.489742 15,000 120 198 64
2021-01-14 02:03:59 GMT 55.801300 38.487686 15,000 118 200 64
2021-01-14 02:03:56 GMT 55.802628 38.483444 15,000 118 200 64
2021-01-14 02:03:52 GMT 55.804642 38.476868 15,000 118 201 128
2021-01-14 02:03:49 GMT 55.805786 38.473122 15,000 118 200 64
2021-01-14 02:03:45 GMT 55.807205 38.468376 15,000 118 200 64
2021-01-14 02:03:42 GMT 55.809357 38.461388 15,000 120 200 64
2021-01-14 02:03:39 GMT 55.810318 38.458473 15,000 147 200 0
2021-01-14 02:03:35 GMT 55.811829 38.454063 15,000 122 201 0
2021-01-14 02:03:31 GMT 55.814178 38.447769 14,975 126 200 0
2021-01-14 02:03:28 GMT 55.815491 38.444576 14,975 134 199 64
2021-01-14 02:03:23 GMT 55.821030 38.433422 14,975 138 198 0
2021-01-14 02:03:20 GMT 55.821030 38.433422 14,975 136 199 0
2021-01-14 02:03:16 GMT 55.824326 38.428097 14,975 140 199 0
2021-01-14 02:03:11 GMT 55.826706 38.424767 14,975 143 200 0
2021-01-14 02:03:08 GMT 55.829494 38.421249 14,975 148 200 0
2021-01-14 02:03:05 GMT 55.831604 38.419022 14,975 153 200 0
2021-01-14 02:03:01 GMT 55.834846 38.416016 14,975 166 193 -128
2021-01-14 02:02:58 GMT 55.837646 38.414028 14,975 163 194 -64
2021-01-14 02:02:54 GMT 55.840385 38.412750 14,950 173 193 512
2021-01-14 02:02:50 GMT 55.846161 38.411381 14,925 177 193 512
2021-01-14 02:02:47 GMT 55.847672 38.411282 14,925 179 194 512
2021-01-14 02:02:44 GMT 55.849789 38.411293 14,900 182 194 384
2021-01-14 02:02:38 GMT 55.856049 38.412197 14,875 191 194 320
2021-01-14 02:02:34 GMT 55.858215 38.412750 14,850 192 193 320
2021-01-14 02:02:30 GMT 55.862640 38.414612 14,825 237 209 -192
2021-01-14 02:02:27 GMT 55.864826 38.415928 14,825 237 209 -192
2021-01-14 02:02:24 GMT 55.868038 38.418331 14,800 207 196 256
2021-01-14 02:02:19 GMT 55.871670 38.422024 14,900 237 209 -192
2021-01-14 02:02:13 GMT 55.875210 38.427174 14,800 227 205 -320
2021-01-14 02:02:09 GMT 55.878185 38.433182 14,900 237 209 -192
2021-01-14 02:02:06 GMT 55.879864 38.437302 14,850 236 209 -256
2021-01-14 02:02:03 GMT 55.881226 38.440830 14,850 237 209 -192
2021-01-14 02:02:00 GMT 55.883541 38.447170 14,875 238 209 -192
2021-01-14 02:01:56 GMT 55.885071 38.451485 14,875 238 208 -192
2021-01-14 02:01:53 GMT 55.886353 38.455147 14,900 239 210 -192
2021-01-14 02:01:49 GMT 55.889145 38.463551 14,900 241 210 -64
2021-01-14 02:01:44 GMT 55.891220 38.470428 14,900 243 213 0
2021-01-14 02:01:38 GMT 55.893738 38.479443 14,900 248 217 128
2021-01-14 02:01:35 GMT 55.894913 38.484360 14,900 248 217 128
2021-01-14 02:01:32 GMT 55.895737 38.488186 14,900 250 219 128
2021-01-14 02:01:28 GMT 55.897156 38.496094 14,875 271 233 0
2021-01-14 02:01:25 GMT 55.897881 38.501072 14,875 259 225 64
2021-01-14 02:01:22 GMT 55.898346 38.505749 14,875 309 252 -128
2021-01-14 02:01:17 GMT 55.898804 38.516235 15,000 274 235 -64
2021-01-14 02:01:13 GMT 55.898438 38.525475 14,875 279 237 -64
2021-01-14 02:01:06 GMT 55.896561 38.538956 15,000 290 243 -64
2021-01-14 02:00:57 GMT 55.892441 38.555019 14,900 301 249 -128
2021-01-14 02:00:54 GMT 55.890289 38.561096 14,900 309 252 -128
2021-01-14 02:00:51 GMT 55.889080 38.564156 14,900 307 251 -128
2021-01-14 02:00:45 GMT 55.884705 38.573830 14,900 313 254 -128
2021-01-14 02:00:42 GMT 55.881866 38.579266 14,925 317 256 -128
2021-01-14 02:00:35 GMT 55.876091 38.589134 14,925 318 257 -128
2021-01-14 02:00:31 GMT 55.872879 38.594284 14,925 319 257 -64
2021-01-14 02:00:27 GMT 55.868599 38.601151 14,950 318 258 -64
2021-01-14 02:00:22 GMT 55.863647 38.609451 14,950 316 259 -64
2021-01-14 02:00:15 GMT 55.858261 38.618916 14,950 316 260 -64
2021-01-14 02:00:10 GMT 55.855190 38.624413 14,975 316 260 0
2021-01-14 02:00:07 GMT 55.851425 38.630760 14,975 318 258 0
2021-01-14 02:00:04 GMT 55.849274 38.634254 14,975 320 258 -64
2021-01-14 02:00:01 GMT 55.846626 38.638313 14,975 321 258 -64
2021-01-14 01:59:57 GMT 55.842064 38.644753 14,975 325 260 -128
2021-01-14 01:59:52 GMT 55.837143 38.650902 14,975 329 263 -64
2021-01-14 01:59:49 GMT 55.835495 38.652817 14,975 329 263 -64
2021-01-14 01:59:46 GMT 55.832195 38.656342 15,000 331 265 -64
2021-01-14 01:59:41 GMT 55.825863 38.662090 15,000 339 265 128
2021-01-14 01:59:37 GMT 55.822140 38.664749 15,000 342 265 192
2021-01-14 01:59:34 GMT 55.817532 38.667240 14,975 348 264 192
2021-01-14 01:59:29 GMT 55.813015 38.668613 14,950 27 250 64
2021-01-14 01:59:25 GMT 55.807659 38.668873 14,950 4 260 64
2021-01-14 01:59:21 GMT 55.802673 38.667465 14,925 17 256 192
2021-01-14 01:59:15 GMT 55.795990 38.662804 14,925 25 251 128
2021-01-14 01:59:12 GMT 55.792995 38.659775 14,900 37 242 64
2021-01-14 01:59:09 GMT 55.790771 38.657143 14,925 35 245 128
2021-01-14 01:59:05 GMT 55.786758 38.651791 14,900 47 232 -64
2021-01-14 01:59:01 GMT 55.781982 38.644657 14,925 51 229 -64
2021-01-14 01:58:56 GMT 55.778412 38.638584 14,900 45 234 0
2021-01-14 01:58:52 GMT 55.776718 38.635422 14,900 47 232 -64
2021-01-14 01:58:49 GMT 55.774475 38.630924 14,925 49 231 -64
2021-01-14 01:58:45 GMT 55.771271 38.624020 14,950 53 228 -192
2021-01-14 01:58:42 GMT 55.769669 38.620106 14,925 55 226 -320
2021-01-14 01:58:36 GMT 55.766323 38.610592 14,950 63 222 -128
2021-01-14 01:58:32 GMT 55.764542 38.604042 14,975 69 218 -128
2021-01-14 01:58:29 GMT 55.763481 38.598747 15,000 78 213 -192
2021-01-14 01:58:24 GMT 55.762390 38.590561 14,975 80 213 -192
2021-01-14 01:58:21 GMT 55.762024 38.586315 14,975 82 211 -128
2021-01-14 01:58:18 GMT 55.761658 38.581322 14,975 85 210 -64
2021-01-14 01:58:15 GMT 55.761341 38.574028 15,000 88 209 -64
2021-01-14 01:58:12 GMT 55.761200 38.568668 15,000 88 209 -64
2021-01-14 01:58:09 GMT 55.761017 38.562843 15,000 87 209 -64
2021-01-14 01:58:06 GMT 55.760925 38.558517 15,000 88 209 -64
2021-01-14 01:58:02 GMT 55.760788 38.551525 15,000 88 209 -64
2021-01-14 01:57:58 GMT 55.760735 38.546219 15,025 88 209 -64
2021-01-14 01:57:55 GMT 55.760643 38.539612 15,025 88 209 -128
2021-01-14 01:57:50 GMT 55.760551 38.533344 15,050 87 210 -128
2021-01-14 01:57:47 GMT 55.760422 38.527637 15,050 87 211 -128
2021-01-14 01:57:44 GMT 55.760239 38.521481 15,050 86 212 -128
2021-01-14 01:57:41 GMT 55.760036 38.516438 15,050 84 214 -128
2021-01-14 01:57:37 GMT 55.759712 38.509998 15,050 84 215 -128
2021-01-14 01:57:34 GMT 55.759323 38.503334 15,075 83 216 -64
2021-01-14 01:57:28 GMT 55.758736 38.492832 15,075 85 217 -64
2021-01-14 01:57:23 GMT 55.758453 38.485275 15,075 86 218 -64
2021-01-14 01:57:20 GMT 55.758316 38.479874 15,100 91 216 -128
2021-01-14 01:57:17 GMT 55.758362 38.474464 15,100 94 213 -192
2021-01-14 01:57:14 GMT 55.758545 38.469212 15,100 98 211 192
2021-01-14 01:57:11 GMT 55.759048 38.462719 15,075 101 210 192
2021-01-14 01:57:07 GMT 55.759689 38.457726 15,075 108 208 0
2021-01-14 01:57:04 GMT 55.761246 38.450233 15,075 114 206 -128
2021-01-14 01:57:00 GMT 55.762459 38.446312 15,075 121 205 -128
2021-01-14 01:56:57 GMT 55.763947 38.442245 15,100 127 204 -128
2021-01-14 01:56:53 GMT 55.766647 38.436787 15,100 135 201 -192
2021-01-14 01:56:50 GMT 55.768463 38.433952 15,100 143 199 -192
2021-01-14 01:56:47 GMT 55.771225 38.430508 15,125 149 198 0
2021-01-14 01:56:43 GMT 55.774384 38.427513 15,125 157 197 -64
2021-01-14 01:56:39 GMT 55.777122 38.425629 15,125 161 196 -64
2021-01-14 01:56:36 GMT 55.779636 38.424423 15,125 168 195 -64
2021-01-14 01:56:33 GMT 55.783035 38.423435 15,125 174 196 128
2021-01-14 01:56:29 GMT 55.786060 38.423054 15,125 177 197 128
2021-01-14 01:56:26 GMT 55.792439 38.423054 15,100 181 197 128
2021-01-14 01:56:23 GMT 55.792439 38.423054 15,100 181 197 128
2021-01-14 01:56:20 GMT 55.794811 38.423054 15,100 181 197 128
2021-01-14 01:56:17 GMT 55.797592 38.423100 15,100 180 198 192
2021-01-14 01:56:12 GMT 55.801895 38.423100 15,075 178 198 192
2021-01-14 01:56:09 GMT 55.804260 38.422966 15,075 178 198 192
2021-01-14 01:56:06 GMT 55.807343 38.422852 15,050 178 198 192
2021-01-14 01:56:03 GMT 55.814072 38.422520 15,075 176 200 -256
2021-01-14 01:55:59 GMT 55.814072 38.422520 15,075 176 200 -256
2021-01-14 01:55:55 GMT 55.817249 38.422195 15,025 173 203 192
2021-01-14 01:55:52 GMT 55.820602 38.421764 15,075 175 201 128
2021-01-14 01:55:48 GMT 55.824280 38.421165 15,075 172 203 192
2021-01-14 01:55:45 GMT 55.826111 38.420853 15,050 172 204 192
2021-01-14 01:55:42 GMT 55.829361 38.420021 15,050 170 206 128
2021-01-14 01:55:39 GMT 55.835545 38.418331 15,050 170 206 128
2021-01-14 01:55:35 GMT 55.835545 38.418331 15,025 170 205 128
2021-01-14 01:55:31 GMT 55.839828 38.417130 15,025 174 204 64
2021-01-14 01:55:28 GMT 55.843094 38.416275 15,000 171 205 128
2021-01-14 01:55:25 GMT 55.845200 38.415695 15,025 172 204 128
2021-01-14 01:55:21 GMT 55.848862 38.415028 15,000 201 208 0
2021-01-14 01:55:18 GMT 55.852211 38.414639 15,000 182 203 0
2021-01-14 01:55:15 GMT 55.855774 38.414696 15,000 184 203 0
2021-01-14 01:55:12 GMT 55.859070 38.415112 15,000 188 204 0
2021-01-14 01:55:07 GMT 55.861862 38.415859 15,000 195 206 0
2021-01-14 01:55:04 GMT 55.865154 38.417301 15,000 196 206 0
2021-01-14 01:55:00 GMT 55.868637 38.419273 15,000 201 208 0
2021-01-14 01:54:54 GMT 55.874084 38.423767 15,000 270 241 64
2021-01-14 01:54:51 GMT 55.876968 38.427097 15,000 220 212 -64
2021-01-14 01:54:48 GMT 55.879910 38.431549 15,000 287 248 0
2021-01-14 01:54:43 GMT 55.882191 38.436272 15,025 237 221 -192
2021-01-14 01:54:40 GMT 55.883514 38.439831 15,025 241 222 -192
2021-01-14 01:54:37 GMT 55.884983 38.445969 15,025 270 241 64
2021-01-14 01:54:33 GMT 55.886032 38.453148 15,025 262 235 128
2021-01-14 01:54:30 GMT 55.886379 38.459702 15,000 281 246 0
2021-01-14 01:54:27 GMT 55.886398 38.465549 15,000 276 244 64
2021-01-14 01:54:22 GMT 55.885803 38.473454 15,000 283 246 64
2021-01-14 01:54:19 GMT 55.885029 38.479359 15,000 287 248 0
2021-01-14 01:54:14 GMT 55.882748 38.491032 15,000 293 250 64
2021-01-14 01:54:10 GMT 55.881027 38.498669 15,000 293 249 64
2021-01-14 01:54:07 GMT 55.879303 38.506332 15,000 292 249 64
2021-01-14 01:54:02 GMT 55.877701 38.513157 15,000 293 247 64
2021-01-14 01:53:59 GMT 55.876099 38.520145 15,000 293 247 0
2021-01-14 01:53:56 GMT 55.875137 38.524223 15,000 291 248 0
2021-01-14 01:53:52 GMT 55.873577 38.531200 15,000 291 248 0
2021-01-14 01:53:48 GMT 55.871300 38.541756 15,000 291 248 64
2021-01-14 01:53:43 GMT 55.869507 38.550442 15,000 290 248 64
2021-01-14 01:53:38 GMT 55.867401 38.560764 15,025 292 253 -256
2021-01-14 01:53:35 GMT 55.866829 38.563557 15,025 292 253 -256
2021-01-14 01:53:32 GMT 55.865383 38.570251 15,000 292 252 -256
2021-01-14 01:53:29 GMT 55.863968 38.576660 15,025 293 252 -256
2021-01-14 01:53:26 GMT 55.861313 38.588146 15,050 293 254 -192
2021-01-14 01:53:23 GMT 55.861313 38.588146 15,050 294 254 -192
2021-01-14 01:53:19 GMT 55.859390 38.595886 15,050 296 255 -192
2021-01-14 01:53:16 GMT 55.857937 38.601406 15,050 296 255 -192
2021-01-14 01:53:13 GMT 55.856277 38.607040 15,075 299 258 -192
2021-01-14 01:53:10 GMT 55.853935 38.614799 15,100 301 260 -192
2021-01-14 01:53:03 GMT 55.850098 38.625599 15,125 307 264 -192
2021-01-14 01:53:00 GMT 55.847992 38.630844 15,125 314 267 0
2021-01-14 01:52:57 GMT 55.844925 38.637501 15,125 315 268 64
2021-01-14 01:52:53 GMT 55.841831 38.643124 15,125 318 269 0
2021-01-14 01:52:49 GMT 55.835953 38.651566 15,125 324 272 0
2021-01-14 01:52:46 GMT 55.835403 38.652233 15,075 329 273 -64
2021-01-14 01:52:42 GMT 55.831879 38.655895 15,100 339 272 64
2021-01-14 01:52:38 GMT 55.826431 38.659973 15,100 343 272 192
2021-01-14 01:52:35 GMT 55.822174 38.661888 15,100 350 271 192
2021-01-14 01:52:31 GMT 55.817825 38.663136 15,100 0 267 128
2021-01-14 01:52:27 GMT 55.813900 38.663548 15,075 0 267 128
2021-01-14 01:52:24 GMT 55.810135 38.663387 15,075 5 265 64
2021-01-14 01:52:21 GMT 55.806728 38.662777 15,075 11 261 -64
2021-01-14 01:52:18 GMT 55.801758 38.660641 15,075 18 256 -128
2021-01-14 01:52:15 GMT 55.799004 38.658916 15,075 32 244 64
2021-01-14 01:52:09 GMT 55.791367 38.652649 15,075 27 249 64
2021-01-14 01:52:05 GMT 55.788387 38.649731 15,075 30 245 64
2021-01-14 01:52:02 GMT 55.784958 38.646072 15,075 32 242 0
2021-01-14 01:51:57 GMT 55.780930 38.641163 15,100 38 239 -192
2021-01-14 01:51:54 GMT 55.778687 38.638000 15,100 59 226 128
2021-01-14 01:51:50 GMT 55.775208 38.632092 15,100 48 232 192
2021-01-14 01:51:47 GMT 55.773056 38.627682 15,075 54 228 192
2021-01-14 01:51:44 GMT 55.771023 38.622093 15,075 61 225 128
2021-01-14 01:51:40 GMT 55.769535 38.616688 15,075 71 221 0
2021-01-14 01:51:37 GMT 55.768463 38.610420 15,075 79 217 0
2021-01-14 01:51:32 GMT 55.767998 38.603897 15,050 107 205 0
2021-01-14 01:51:29 GMT 55.767975 38.598549 15,075 102 207 0
2021-01-14 01:51:25 GMT 55.768604 38.590591 15,075 104 207 0
2021-01-14 01:51:22 GMT 55.769211 38.586479 15,050 107 205 0
2021-01-14 01:51:19 GMT 55.771591 38.575993 15,075 113 202 -64
2021-01-14 01:51:16 GMT 55.771591 38.575993 15,075 118 200 -64
2021-01-14 01:51:11 GMT 55.774189 38.568192 15,075 123 199 -64
2021-01-14 01:51:07 GMT 55.775772 38.563988 15,075 125 198 -64
2021-01-14 01:51:04 GMT 55.777084 38.560848 15,100 129 196 -64
2021-01-14 01:51:01 GMT 55.779739 38.555187 15,100 130 196 0
2021-01-14 01:50:58 GMT 55.780891 38.552742 15,100 132 196 0
2021-01-14 01:50:55 GMT 55.783081 38.548527 15,100 132 196 0
2021-01-14 01:50:50 GMT 55.785736 38.543369 15,100 131 196 0
2021-01-14 01:50:45 GMT 55.790436 38.533859 15,075 131 196 128
2021-01-14 01:50:42 GMT 55.790436 38.533859 15,075 130 196 128
2021-01-14 01:50:38 GMT 55.792809 38.528969 15,075 130 196 128
2021-01-14 01:50:34 GMT 55.795742 38.522530 15,075 126 198 128
2021-01-14 01:50:31 GMT 55.796535 38.520725 15,050 125 198 128
2021-01-14 01:50:27 GMT 55.798645 38.515236 15,050 216 213 64
2021-01-14 01:50:24 GMT 55.801529 38.506748 15,025 119 200 64
2021-01-14 01:50:21 GMT 55.801529 38.506748 15,050 119 200 64
2021-01-14 01:50:18 GMT 55.802994 38.502254 15,050 119 200 64
2021-01-14 01:50:15 GMT 55.804680 38.496864 15,025 119 199 64
2021-01-14 01:50:12 GMT 55.806126 38.492401 15,025 118 199 64
2021-01-14 01:50:08 GMT 55.807480 38.487854 15,025 118 200 64
2021-01-14 01:50:04 GMT 55.809338 38.481586 15,025 116 200 64
2021-01-14 01:50:01 GMT 55.810688 38.476868 15,025 116 200 0
2021-01-14 01:49:58 GMT 55.811806 38.472748 15,025 115 201 0
2021-01-14 01:49:55 GMT 55.812920 38.468456 15,025 111 202 0
2021-01-14 01:49:52 GMT 55.814209 38.463219 15,025 111 202 0
2021-01-14 01:49:49 GMT 55.815170 38.458889 15,025 110 204 0
2021-01-14 01:49:46 GMT 55.816181 38.454380 15,025 110 205 0
2021-01-14 01:49:42 GMT 55.817963 38.445572 15,025 109 207 64
2021-01-14 01:49:38 GMT 55.818832 38.441414 15,025 109 208 64
2021-01-14 01:49:35 GMT 55.819576 38.437557 15,025 109 209 64
2021-01-14 01:49:31 GMT 55.821159 38.429832 15,025 111 210 64
2021-01-14 01:49:27 GMT 55.822861 38.422768 15,025 123 207 128
2021-01-14 01:49:23 GMT 55.824978 38.416443 15,000 126 206 64
2021-01-14 01:49:20 GMT 55.825928 38.414364 15,000 135 204 64
2021-01-14 01:49:16 GMT 55.829353 38.409061 15,125 148 201 128
2021-01-14 01:49:13 GMT 55.831123 38.407261 15,125 157 201 64
2021-01-14 01:49:10 GMT 55.833939 38.405209 14,975 165 200 64
2021-01-14 01:49:06 GMT 55.837921 38.403740 14,975 173 201 0
2021-01-14 01:49:03 GMT 55.841316 38.403481 14,975 185 201 0
2021-01-14 01:48:58 GMT 55.844879 38.404209 14,975 201 205 0
2021-01-14 01:48:55 GMT 55.847881 38.405712 14,975 216 213 64
2021-01-14 01:48:52 GMT 55.850372 38.407619 14,975 213 210 -64
2021-01-14 01:48:49 GMT 55.852352 38.409748 14,975 218 216 0
2021-01-14 01:48:45 GMT 55.856689 38.415359 14,975 218 213 64
2021-01-14 01:48:41 GMT 55.860497 38.420479 14,975 217 213 64
2021-01-14 01:48:38 GMT 55.862034 38.422539 14,975 217 213 64
2021-01-14 01:48:32 GMT 55.866177 38.427856 14,975 216 212 0
2021-01-14 01:48:29 GMT 55.868454 38.430676 14,975 215 213 0
2021-01-14 01:48:25 GMT 55.871204 38.434124 14,975 216 213 0
2021-01-14 01:48:22 GMT 55.874359 38.438000 14,975 216 214 0
2021-01-14 01:48:18 GMT 55.877254 38.441936 14,975 218 216 0
2021-01-14 01:48:15 GMT 55.880699 38.446655 14,975 220 217 64
2021-01-14 01:48:12 GMT 55.882370 38.449154 14,975 222 216 64
2021-01-14 01:48:07 GMT 55.885868 38.454807 14,975 228 217 0
2021-01-14 01:48:04 GMT 55.888092 38.459057 14,975 230 217 -64
2021-01-14 01:48:00 GMT 55.891083 38.465710 15,000 251 225 -256
2021-01-14 01:47:57 GMT 55.892166 38.468628 14,975 241 222 -64
2021-01-14 01:47:54 GMT 55.893539 38.472790 14,975 244 224 -128
2021-01-14 01:47:51 GMT 55.894901 38.478241 15,000 253 226 -256
2021-01-14 01:47:47 GMT 55.896389 38.486481 15,025 258 227 -192
2021-01-14 01:47:42 GMT 55.897385 38.498592 15,000 268 232 192
2021-01-14 01:47:36 GMT 55.897339 38.505581 14,975 294 246 0
2021-01-14 01:47:33 GMT 55.896900 38.512142 14,975 283 240 128
2021-01-14 01:47:29 GMT 55.895233 38.522644 14,975 292 244 0
2021-01-14 01:47:26 GMT 55.894547 38.525391 14,975 296 247 0
2021-01-14 01:47:21 GMT 55.891457 38.534889 14,975 320 255 64
2021-01-14 01:47:16 GMT 55.888195 38.541927 14,975 313 254 -64
2021-01-14 01:47:13 GMT 55.885483 38.546947 14,975 317 255 0
2021-01-14 01:47:10 GMT 55.882935 38.551285 14,975 318 255 0
2021-01-14 01:47:06 GMT 55.879395 38.557018 14,975 319 255 0
2021-01-14 01:47:02 GMT 55.876232 38.561840 14,975 320 255 64
2021-01-14 01:46:57 GMT 55.871159 38.569305 14,975 322 256 64
2021-01-14 01:46:53 GMT 55.867401 38.574577 14,975 322 255 64
2021-01-14 01:46:49 GMT 55.864037 38.579266 14,925 322 256 64
2021-01-14 01:46:45 GMT 55.860764 38.583900 14,975 322 256 0
2021-01-14 01:46:40 GMT 55.855747 38.590939 14,950 322 259 64
2021-01-14 01:46:35 GMT 55.850952 38.597630 14,950 322 259 64
2021-01-14 01:46:30 GMT 55.845413 38.605614 14,950 321 258 128
2021-01-14 01:46:27 GMT 55.842682 38.609619 14,950 320 258 192
2021-01-14 01:46:22 GMT 55.838333 38.616280 14,925 319 257 192
2021-01-14 01:46:19 GMT 55.836594 38.619022 14,925 319 257 192
2021-01-14 01:46:15 GMT 55.832016 38.626347 14,900 318 256 0
2021-01-14 01:46:12 GMT 55.829681 38.630093 14,925 318 255 -64
2021-01-14 01:46:09 GMT 55.827492 38.633766 14,925 317 254 -64
2021-01-14 01:46:06 GMT 55.824932 38.638058 14,925 317 253 -64
2021-01-14 01:46:02 GMT 55.820744 38.645184 14,925 317 252 -64
2021-01-14 01:45:59 GMT 55.818974 38.648102 14,925 318 251 -64
2021-01-14 01:45:55 GMT 55.815536 38.653732 14,925 324 250 0
2021-01-14 01:45:52 GMT 55.812687 38.658054 14,950 323 250 0
2021-01-14 01:45:49 GMT 55.809940 38.661835 14,950 325 251 0
2021-01-14 01:45:44 GMT 55.805283 38.667213 14,925 332 253 -128
2021-01-14 01:45:41 GMT 55.800385 38.671207 14,950 343 254 -192
2021-01-14 01:45:38 GMT 55.799328 38.671875 14,950 343 254 -192
2021-01-14 01:45:34 GMT 55.795185 38.673847 14,950 352 255 -192
2021-01-14 01:45:31 GMT 55.789536 38.675205 14,975 0 255 -128
2021-01-14 01:45:28 GMT 55.787292 38.675205 14,975 1 255 -128
2021-01-14 01:45:25 GMT 55.782803 38.674622 14,975 12 253 -64
2021-01-14 01:45:22 GMT 55.779190 38.673374 14,975 14 253 0
2021-01-14 01:45:17 GMT 55.775539 38.671448 14,975 20 250 -64
2021-01-14 01:45:11 GMT 55.768089 38.665524 14,975 28 245 128
2021-01-14 01:45:07 GMT 55.764771 38.662220 14,975 32 243 128
2021-01-14 01:45:03 GMT 55.761017 38.657799 14,950 35 242 128
2021-01-14 01:44:59 GMT 55.757805 38.653419 14,950 39 240 128
2021-01-14 01:44:56 GMT 55.755428 38.649647 14,950 44 237 0
2021-01-14 01:44:53 GMT 55.751984 38.643291 14,950 48 233 -128
2021-01-14 01:44:50 GMT 55.748585 38.635056 14,975 54 229 -128
2021-01-14 01:44:47 GMT 55.748585 38.635056 15,000 75 214 -256
2021-01-14 01:44:41 GMT 55.745728 38.623936 15,000 73 215 -320
2021-01-14 01:44:36 GMT 55.745003 38.617886 15,000 99 203 320
2021-01-14 01:44:33 GMT 55.744816 38.612740 15,000 114 197 256
2021-01-14 01:44:30 GMT 55.745003 38.607414 14,975 103 201 320
2021-01-14 01:44:27 GMT 55.745728 38.601463 14,975 108 199 320
2021-01-14 01:44:24 GMT 55.746689 38.596970 14,950 114 197 256
2021-01-14 01:44:20 GMT 55.748337 38.591141 14,950 124 194 -128
2021-01-14 01:44:16 GMT 55.750031 38.586819 14,950 135 192 -128
2021-01-14 01:44:13 GMT 55.751862 38.583069 14,950 136 190 -128
2021-01-14 01:44:10 GMT 55.753784 38.579655 14,950 137 191 -128
2021-01-14 01:44:06 GMT 55.756393 38.575577 14,975 139 190 -128
2021-01-14 01:44:02 GMT 55.758591 38.572250 14,975 139 191 -128
2021-01-14 01:43:59 GMT 55.763390 38.564842 15,000 138 192 -128
2021-01-14 01:43:56 GMT 55.763390 38.564842 15,000 138 191 -128
2021-01-14 01:43:53 GMT 55.764973 38.562355 15,000 133 193 0
2021-01-14 01:43:49 GMT 55.767609 38.558102 15,000 137 193 -128
2021-01-14 01:43:46 GMT 55.769768 38.554459 15,025 135 193 -64
2021-01-14 01:43:41 GMT 55.772690 38.549362 15,025 135 195 -128
2021-01-14 01:43:37 GMT 55.775352 38.544674 15,025 135 194 -64
2021-01-14 01:43:34 GMT 55.776947 38.541870 15,025 135 194 -64
2021-01-14 01:43:30 GMT 55.780521 38.535831 15,025 137 193 0
2021-01-14 01:43:25 GMT 55.782898 38.531883 15,025 136 193 0
2021-01-14 01:43:22 GMT 55.785187 38.528053 15,050 136 193 -64
2021-01-14 01:43:19 GMT 55.787315 38.524506 15,050 135 193 -64
2021-01-14 01:43:15 GMT 55.790112 38.519611 15,050 135 193 0
2021-01-14 01:43:12 GMT 55.791458 38.517296 15,050 133 194 0
2021-01-14 01:43:08 GMT 55.794159 38.512402 15,050 131 196 -64
2021-01-14 01:43:05 GMT 55.795650 38.509483 15,050 132 195 0
2021-01-14 01:43:02 GMT 55.797653 38.505535 15,050 131 195 -64
2021-01-14 01:42:59 GMT 55.799789 38.501335 15,050 131 196 -64
2021-01-14 01:42:55 GMT 55.802307 38.496094 15,075 129 198 -64
2021-01-14 01:42:52 GMT 55.803612 38.493259 15,075 128 198 -64
2021-01-14 01:42:49 GMT 55.805332 38.489487 15,075 128 198 -64
2021-01-14 01:42:45 GMT 55.808125 38.483131 15,075 128 198 64
2021-01-14 01:42:42 GMT 55.809357 38.480362 15,050 128 197 256
2021-01-14 01:42:38 GMT 55.811462 38.475784 15,025 129 196 192
2021-01-14 01:42:35 GMT 55.813339 38.471542 15,025 129 196 192
2021-01-14 01:42:32 GMT 55.815353 38.467129 15,025 129 196 192
2021-01-14 01:42:29 GMT 55.817299 38.462875 15,000 128 196 192
2021-01-14 01:42:24 GMT 55.819565 38.457809 14,975 126 196 128
2021-01-14 01:42:21 GMT 55.821075 38.454395 15,000 127 196 128
2021-01-14 01:42:18 GMT 55.822678 38.450565 14,975 126 195 128
2021-01-14 01:42:14 GMT 55.825195 38.444408 14,975 124 196 128
2021-01-14 01:42:09 GMT 55.827538 38.438332 14,975 123 195 128
2021-01-14 01:42:06 GMT 55.830414 38.430176 14,950 121 196 128
2021-01-14 01:42:03 GMT 55.830414 38.430176 14,950 121 196 128
2021-01-14 01:42:00 GMT 55.832100 38.425114 14,950 119 197 64
2021-01-14 01:41:57 GMT 55.833160 38.421852 14,950 118 196 64
2021-01-14 01:41:52 GMT 55.835358 38.414639 14,950 119 196 64
2021-01-14 01:41:49 GMT 55.836456 38.411198 14,950 119 196 64
2021-01-14 01:41:45 GMT 55.838150 38.405956 14,925 120 195 64
2021-01-14 01:41:42 GMT 55.840210 38.399879 14,950 124 194 -64
2021-01-14 01:41:39 GMT 55.841412 38.396702 14,950 125 194 -128
2021-01-14 01:41:36 GMT 55.843506 38.391808 14,950 130 192 -192
2021-01-14 01:41:33 GMT 55.844971 38.388977 14,950 138 191 -320
2021-01-14 01:41:30 GMT 55.846348 38.386745 14,975 138 191 -320
2021-01-14 01:41:27 GMT 55.848770 38.383400 14,975 147 188 -320
2021-01-14 01:41:24 GMT 55.851837 38.380482 15,025 162 185 -256
2021-01-14 01:41:21 GMT 55.853886 38.379108 15,025 164 186 -192
2021-01-14 01:41:16 GMT 55.857513 38.377407 15,025 178 187 64
2021-01-14 01:41:13 GMT 55.860077 38.376701 15,025 176 187 64
2021-01-14 01:41:09 GMT 55.863876 38.376575 15,025 185 188 64
2021-01-14 01:41:05 GMT 55.867310 38.377323 15,025 206 196 -64
2021-01-14 01:41:02 GMT 55.871017 38.379238 15,025 204 194 -64
2021-01-14 01:40:58 GMT 55.872803 38.380737 15,025 213 198 -64
2021-01-14 01:40:55 GMT 55.874771 38.382736 15,025 219 201 -64
2021-01-14 01:40:50 GMT 55.879490 38.389664 15,025 225 205 0
2021-01-14 01:40:46 GMT 55.881912 38.394299 15,025 230 207 0
2021-01-14 01:40:42 GMT 55.885849 38.402794 15,025 232 208 0
2021-01-14 01:40:39 GMT 55.885849 38.402794 15,025 235 210 0
2021-01-14 01:40:35 GMT 55.888138 38.408535 15,025 237 210 64
2021-01-14 01:40:32 GMT 55.889732 38.412838 15,025 246 216 64
2021-01-14 01:40:28 GMT 55.891594 38.418674 15,025 243 214 64
2021-01-14 01:40:25 GMT 55.893131 38.423996 15,025 247 217 64
2021-01-14 01:40:21 GMT 55.894913 38.432007 15,025 251 219 64
2021-01-14 01:40:16 GMT 55.895874 38.438499 15,025 261 225 0
2021-01-14 01:40:13 GMT 55.896343 38.443394 15,025 273 232 -64
2021-01-14 01:40:09 GMT 55.896606 38.450485 15,025 285 239 -64
2021-01-14 01:40:06 GMT 55.896389 38.457642 15,025 278 235 -64
2021-01-14 01:40:02 GMT 55.895367 38.467686 15,025 292 243 -64
2021-01-14 01:39:58 GMT 55.894455 38.473206 15,025 290 242 -64
2021-01-14 01:39:54 GMT 55.891342 38.486107 15,050 300 246 -128
2021-01-14 01:39:51 GMT 55.891342 38.486107 15,050 300 246 -128
2021-01-14 01:39:47 GMT 55.889359 38.492401 15,050 301 247 -64
2021-01-14 01:39:43 GMT 55.887123 38.498924 15,050 302 248 -64
2021-01-14 01:39:40 GMT 55.885029 38.505020 15,050 302 249 -64
2021-01-14 01:39:36 GMT 55.882050 38.513737 15,200 300 249 -64
2021-01-14 01:39:31 GMT 55.879723 38.520985 15,200 300 249 -64
2021-01-14 01:39:28 GMT 55.877792 38.526974 15,200 300 250 -64
2021-01-14 01:39:24 GMT 55.875366 38.534378 15,075 301 251 -64
2021-01-14 01:39:20 GMT 55.873352 38.540371 15,075 303 253 0
2021-01-14 01:39:17 GMT 55.871109 38.546780 15,075 303 253 0
2021-01-14 01:39:13 GMT 55.869232 38.552025 15,100 302 251 0
2021-01-14 01:39:10 GMT 55.866920 38.558495 15,075 303 253 0
2021-01-14 01:39:06 GMT 55.864838 38.564426 15,075 302 250 128
2021-01-14 01:39:03 GMT 55.862869 38.570251 15,100 301 250 0
2021-01-14 01:39:00 GMT 55.860126 38.578320 15,100 301 250 64
2021-01-14 01:38:57 GMT 55.859253 38.581070 15,100 301 250 128
2021-01-14 01:38:54 GMT 55.857796 38.585358 15,075 301 250 128
2021-01-14 01:38:51 GMT 55.856049 38.590645 15,075 302 250 128
2021-01-14 01:38:48 GMT 55.854214 38.596172 15,075 302 249 128
2021-01-14 01:38:45 GMT 55.851837 38.603039 15,075 303 251 128
2021-01-14 01:38:41 GMT 55.850208 38.607414 15,075 304 251 128
2021-01-14 01:38:38 GMT 55.847977 38.613167 15,050 310 252 64
2021-01-14 01:38:35 GMT 55.846161 38.617458 15,050 310 252 64
2021-01-14 01:38:32 GMT 55.843094 38.623768 15,050 316 255 192
2021-01-14 01:38:28 GMT 55.839844 38.629513 15,025 320 257 128
2021-01-14 01:38:25 GMT 55.837463 38.633091 14,975 343 261 128
2021-01-14 01:38:22 GMT 55.833939 38.637585 15,025 329 260 128
2021-01-14 01:38:17 GMT 55.829865 38.641834 15,000 333 261 128
2021-01-14 01:38:14 GMT 55.825256 38.645611 15,000 339 261 64
2021-01-14 01:38:11 GMT 55.822884 38.647327 15,000 342 262 128
2021-01-14 01:38:07 GMT 55.816460 38.651016 15,000 343 261 128
2021-01-14 01:38:04 GMT 55.813900 38.652306 15,000 346 261 128
2021-01-14 01:37:59 GMT 55.808685 38.654621 14,975 349 261 192
2021-01-14 01:37:56 GMT 55.803818 38.656311 14,975 352 261 192
2021-01-14 01:37:53 GMT 55.801804 38.656895 14,950 78 214 -64
2021-01-14 01:37:50 GMT 55.798676 38.657539 14,950 355 261 192
2021-01-14 01:37:47 GMT 55.793789 38.658142 14,925 0 261 192
2021-01-14 01:37:44 GMT 55.789738 38.657970 14,900 78 214 -64
2021-01-14 01:37:41 GMT 55.786697 38.657642 14,925 7 261 128
2021-01-14 01:37:36 GMT 55.779648 38.655396 14,900 14 259 64
2021-01-14 01:37:33 GMT 55.777264 38.654282 14,900 16 258 64
2021-01-14 01:37:28 GMT 55.771721 38.650677 14,900 26 252 0
2021-01-14 01:37:24 GMT 55.767857 38.647156 14,900 33 248 -64
2021-01-14 01:37:21 GMT 55.763901 38.642746 14,900 39 244 -256
2021-01-14 01:37:17 GMT 55.760597 38.637630 14,925 44 241 0
2021-01-14 01:37:12 GMT 55.757858 38.632259 14,925 53 235 -64
2021-01-14 01:37:06 GMT 55.754406 38.622265 14,925 64 225 -192
2021-01-14 01:37:03 GMT 55.753334 38.618145 14,925 68 221 0
2021-01-14 01:37:00 GMT 55.751984 38.611450 14,925 73 218 64
2021-01-14 01:36:56 GMT 55.750900 38.604794 14,925 77 215 0
2021-01-14 01:36:52 GMT 55.750168 38.598301 14,925 79 213 -64
2021-01-14 01:36:47 GMT 55.749390 38.589394 14,950 83 210 -64
2021-01-14 01:36:43 GMT 55.749004 38.580639 14,950 87 207 -64
2021-01-14 01:36:40 GMT 55.748932 38.577328 14,950 89 206 -64
2021-01-14 01:36:36 GMT 55.748959 38.569736 14,950 91 204 -64
2021-01-14 01:36:33 GMT 55.749069 38.565506 14,950 93 203 -128
2021-01-14 01:36:29 GMT 55.749283 38.560295 14,950 103 199 128
2021-01-14 01:36:25 GMT 55.749981 38.552914 14,950 104 198 128
2021-01-14 01:36:22 GMT 55.750763 38.547363 14,950 106 195 128
2021-01-14 01:36:17 GMT 55.751953 38.540207 14,950 107 191 64
2021-01-14 01:36:14 GMT 55.752548 38.537125 14,950 107 191 64
2021-01-14 01:36:11 GMT 55.753380 38.532486 14,950 105 196 -192
2021-01-14 01:36:07 GMT 55.754608 38.525143 14,925 105 193 64
2021-01-14 01:36:04 GMT 55.755150 38.521671 14,925 104 194 64
2021-01-14 01:36:01 GMT 55.755798 38.517151 14,925 104 194 64
2021-01-14 01:35:55 GMT 55.757401 38.505917 14,925 104 195 64
2021-01-14 01:35:52 GMT 55.758133 38.501255 14,925 105 195 0
2021-01-14 01:35:47 GMT 55.759480 38.492489 14,925 104 196 -256
2021-01-14 01:35:43 GMT 55.760132 38.487854 14,950 103 198 -256
2021-01-14 01:35:40 GMT 55.760696 38.483860 14,950 103 198 -256
2021-01-14 01:35:36 GMT 55.761528 38.477982 14,975 103 199 -256
2021-01-14 01:35:31 GMT 55.762833 38.468800 15,000 105 201 -128
2021-01-14 01:35:26 GMT 55.764130 38.461136 15,000 110 200 64
2021-01-14 01:35:23 GMT 55.765347 38.455582 14,975 113 199 0
2021-01-14 01:35:20 GMT 55.765915 38.453232 14,975 115 198 0
2021-01-14 01:35:17 GMT 55.767719 38.447342 14,975 122 196 0
2021-01-14 01:35:14 GMT 55.769207 38.443394 14,975 127 195 0
2021-01-14 01:35:10 GMT 55.770931 38.439617 14,975 132 194 0
2021-01-14 01:35:05 GMT 55.775116 38.432755 14,975 141 192 -64
2021-01-14 01:35:01 GMT 55.781891 38.425430 14,975 152 192 0
2021-01-14 01:34:55 GMT 55.782291 38.425026 14,975 152 192 0
2021-01-14 01:34:51 GMT 55.785503 38.422024 15,000 151 193 0
2021-01-14 01:34:43 GMT 55.791458 38.416359 15,000 151 195 0
2021-01-14 01:34:40 GMT 55.794113 38.413780 15,000 151 196 0
2021-01-14 01:34:37 GMT 55.795807 38.412113 15,000 151 196 0
2021-01-14 01:34:33 GMT 55.799747 38.408375 15,000 152 196 0
2021-01-14 01:34:30 GMT 55.802307 38.406120 15,000 153 196 0
2021-01-14 01:34:26 GMT 55.805984 38.402882 15,000 154 197 -64
2021-01-14 01:34:22 GMT 55.807938 38.401211 15,000 155 197 -128
2021-01-14 01:34:19 GMT 55.810638 38.398964 15,000 155 197 -128
2021-01-14 01:34:13 GMT 55.816040 38.394554 15,025 155 197 -64
2021-01-14 01:34:10 GMT 55.817963 38.393055 15,025 155 197 0
2021-01-14 01:34:07 GMT 55.820648 38.390865 15,025 154 198 0
2021-01-14 01:34:03 GMT 55.824047 38.388035 15,025 153 199 0
2021-01-14 01:34:00 GMT 55.826283 38.386147 15,025 153 199 0
2021-01-14 01:33:57 GMT 55.829166 38.383656 15,025 153 199 -64
2021-01-14 01:33:53 GMT 55.832424 38.380737 15,025 153 200 -64
2021-01-14 01:33:50 GMT 55.834808 38.378738 15,025 154 201 -64
2021-01-14 01:33:47 GMT 55.837418 38.376492 15,025 154 202 -64
2021-01-14 01:33:44 GMT 55.840897 38.373581 15,025 154 202 -64
2021-01-14 01:33:40 GMT 55.844101 38.370834 15,025 153 203 -64
2021-01-14 01:33:37 GMT 55.846344 38.368752 15,050 152 202 0
2021-01-14 01:33:33 GMT 55.849186 38.366058 15,050 151 201 -64
2021-01-14 01:33:29 GMT 55.852844 38.362427 15,050 149 201 -64
2021-01-14 01:33:25 GMT 55.855469 38.359711 15,050 148 199 -64
2021-01-14 01:33:22 GMT 55.858124 38.356876 15,050 149 199 -64
2021-01-14 01:33:19 GMT 55.862919 38.351810 15,075 149 198 -64
2021-01-14 01:33:13 GMT 55.865433 38.349407 15,050 154 198 256
2021-01-14 01:33:07 GMT 55.869530 38.346493 15,025 165 198 128
2021-01-14 01:33:03 GMT 55.874268 38.344948 15,025 177 199 64
2021-01-14 01:32:58 GMT 55.878513 38.345203 15,000 190 201 64
2021-01-14 01:32:55 GMT 55.881638 38.346279 15,000 197 204 64
2021-01-14 01:32:49 GMT 55.886566 38.349667 15,000 212 205 0
2021-01-14 01:32:46 GMT 55.889786 38.353104 15,000 218 207 128
2021-01-14 01:32:42 GMT 55.892014 38.356277 15,000 225 209 192
2021-01-14 01:32:37 GMT 55.895233 38.362595 14,975 234 211 256
2021-01-14 01:32:34 GMT 55.896790 38.366920 14,975 243 215 256
2021-01-14 01:32:31 GMT 55.898251 38.371811 14,950 246 217 256
2021-01-14 01:32:28 GMT 55.899414 38.377132 14,900 269 226 192
2021-01-14 01:32:24 GMT 55.900208 38.382282 14,925 261 222 256
2021-01-14 01:32:21 GMT 55.900860 38.388634 14,925 265 224 192
2021-01-14 01:32:18 GMT 55.901047 38.396633 14,900 296 236 -64
2021-01-14 01:32:15 GMT 55.900864 38.400379 14,900 279 229 64
2021-01-14 01:32:12 GMT 55.900066 38.407776 14,875 288 233 -64
2021-01-14 01:32:07 GMT 55.898392 38.415943 14,900 296 236 -64
2021-01-14 01:32:04 GMT 55.896809 38.421593 14,900 299 238 -64
2021-01-14 01:32:01 GMT 55.895782 38.424931 14,900 300 239 0
2021-01-14 01:31:56 GMT 55.892990 38.433781 14,900 298 241 64
2021-01-14 01:31:53 GMT 55.891315 38.439014 14,900 298 241 64
2021-01-14 01:31:50 GMT 55.889500 38.445023 14,900 299 241 64
2021-01-14 01:31:47 GMT 55.887962 38.450089 14,900 298 240 64
2021-01-14 01:31:44 GMT 55.886856 38.453896 14,900 298 241 64
2021-01-14 01:31:41 GMT 55.884750 38.461056 14,900 297 240 64
2021-01-14 01:31:37 GMT 55.883167 38.466568 14,875 297 240 64
2021-01-14 01:31:34 GMT 55.881119 38.473866 14,875 297 239 0
2021-01-14 01:31:30 GMT 55.879257 38.480530 14,875 297 239 -64
2021-01-14 01:31:26 GMT 55.877396 38.486996 14,875 297 240 -128
2021-01-14 01:31:21 GMT 55.874542 38.497257 14,900 297 239 -128
2021-01-14 01:31:16 GMT 55.872528 38.504581 14,925 296 239 -128
2021-01-14 01:31:12 GMT 55.870693 38.511456 14,925 296 240 -128
2021-01-14 01:31:09 GMT 55.869343 38.516521 14,925 296 240 -128
2021-01-14 01:31:06 GMT 55.867813 38.522144 14,925 296 240 -64
2021-01-14 01:31:03 GMT 55.866550 38.526909 14,950 295 240 0
2021-01-14 01:31:00 GMT 55.864922 38.533089 14,950 295 240 0
2021-01-14 01:30:56 GMT 55.863098 38.540539 14,950 293 241 128
2021-01-14 01:30:51 GMT 55.861084 38.549026 14,900 293 241 640
2021-01-14 01:30:46 GMT 55.858776 38.559265 14,825 293 241 704
2021-01-14 01:30:42 GMT 55.857239 38.565960 14,800 293 244 448
2021-01-14 01:30:39 GMT 55.855701 38.572655 14,775 292 244 320
2021-01-14 01:30:36 GMT 55.854538 38.577721 14,750 290 244 -128
2021-01-14 01:30:33 GMT 55.853420 38.582954 14,750 291 244 -64
2021-01-14 01:30:29 GMT 55.851933 38.590248 14,775 289 243 -128
2021-01-14 01:30:25 GMT 55.850674 38.596947 14,775 288 243 -128
2021-01-14 01:30:22 GMT 55.849777 38.602127 14,775 287 242 -128
2021-01-14 01:30:19 GMT 55.848633 38.608871 14,775 287 242 -128
2021-01-14 01:30:16 GMT 55.847351 38.616611 14,825 285 240 -128
2021-01-14 01:30:12 GMT 55.846481 38.621937 14,825 13 257 384
2021-01-14 01:30:09 GMT 55.845337 38.628761 14,800 287 242 -128
2021-01-14 01:30:05 GMT 55.844193 38.635586 14,800 288 242 -128
2021-01-14 01:29:59 GMT 55.842110 38.647926 14,825 286 241 -128
2021-01-14 01:29:54 GMT 55.840897 38.655811 14,825 284 238 -192
2021-01-14 01:29:50 GMT 55.839478 38.665882 14,850 284 240 -128
2021-01-14 01:29:47 GMT 55.838928 38.669960 14,850 283 240 -64
2021-01-14 01:29:44 GMT 55.838379 38.674374 14,850 284 239 -64
2021-01-14 01:29:40 GMT 55.837234 38.682861 14,875 285 237 -704
2021-01-14 01:29:35 GMT 55.835632 38.693016 14,950 289 236 -704
2021-01-14 01:29:32 GMT 55.834568 38.698566 14,975 293 238 -448
2021-01-14 01:29:29 GMT 55.833298 38.703751 15,000 301 241 -320
2021-01-14 01:29:26 GMT 55.831375 38.709579 15,000 312 246 -128
2021-01-14 01:29:23 GMT 55.824875 38.721146 15,000 333 254 64
2021-01-14 01:29:18 GMT 55.824875 38.721146 15,000 327 252 128
2021-01-14 01:29:14 GMT 55.821762 38.724560 15,000 333 254 64
2021-01-14 01:29:08 GMT 55.814411 38.729725 15,000 351 259 64
2021-01-14 01:29:05 GMT 55.810913 38.731216 14,975 355 260 64
2021-01-14 01:29:02 GMT 55.807381 38.732040 14,975 359 259 0
2021-01-14 01:28:58 GMT 55.801300 38.731968 14,975 6 258 320
2021-01-14 01:28:54 GMT 55.798306 38.731270 14,950 10 257 384
2021-01-14 01:28:51 GMT 55.795418 38.729980 14,925 17 256 384
2021-01-14 01:28:48 GMT 55.792065 38.727921 14,900 24 255 256
2021-01-14 01:28:45 GMT 55.787704 38.723892 14,850 39 250 192
2021-01-14 01:28:42 GMT 55.785233 38.720982 14,875 37 251 192
2021-01-14 01:28:36 GMT 55.779419 38.712326 14,850 40 249 320
2021-01-14 01:28:32 GMT 55.777176 38.708828 14,825 39 249 320
2021-01-14 01:28:27 GMT 55.772003 38.701172 14,825 39 250 320
2021-01-14 01:28:23 GMT 55.768559 38.696163 14,800 39 250 320
2021-01-14 01:28:17 GMT 55.763168 38.688107 14,775 41 250 320
2021-01-14 01:28:13 GMT 55.759827 38.682693 14,750 43 251 320
2021-01-14 01:28:10 GMT 55.758041 38.679699 14,750 45 251 512
2021-01-14 01:28:07 GMT 55.753830 38.671459 14,700 51 253 128
2021-01-14 01:28:04 GMT 55.752548 38.668629 14,700 55 252 -768
2021-01-14 01:28:01 GMT 55.750683 38.663895 14,750 60 248 -896
2021-01-14 01:27:57 GMT 55.748863 38.658569 14,800 61 246 -832
2021-01-14 01:27:53 GMT 55.746677 38.648186 14,875 83 228 -768
2021-01-14 01:27:50 GMT 55.746399 38.645096 14,875 89 224 -448
2021-01-14 01:27:47 GMT 55.746399 38.638573 14,900 96 219 -320
2021-01-14 01:27:43 GMT 55.747375 38.631092 14,925 111 210 -256
2021-01-14 01:27:38 GMT 55.749893 38.622437 14,950 127 204 -128
2021-01-14 01:27:34 GMT 55.751472 38.618660 14,950 130 202 64
2021-01-14 01:27:31 GMT 55.753876 38.613613 14,950 131 201 128
2021-01-14 01:27:27 GMT 55.755848 38.609650 14,950 130 202 128
2021-01-14 01:27:23 GMT 55.758408 38.604324 14,925 128 201 192
2021-01-14 01:27:19 GMT 55.761108 38.598404 14,900 127 202 192
2021-01-14 01:27:14 GMT 55.763668 38.592651 14,900 126 202 128
2021-01-14 01:27:10 GMT 55.765625 38.587761 14,900 124 202 128
2021-01-14 01:27:07 GMT 55.767208 38.583813 14,900 123 202 64
2021-01-14 01:27:04 GMT 55.768742 38.579865 14,900 123 202 128
2021-01-14 01:27:00 GMT 55.770744 38.574287 14,875 122 201 128
2021-01-14 01:26:57 GMT 55.772327 38.569908 14,875 122 201 128
2021-01-14 01:26:54 GMT 55.773834 38.565590 14,875 122 201 128
2021-01-14 01:26:50 GMT 55.776146 38.559010 14,850 120 200 64
2021-01-14 01:26:45 GMT 55.778366 38.552273 14,850 119 201 0
2021-01-14 01:26:40 GMT 55.780060 38.546696 14,875 117 200 -128
2021-01-14 01:26:37 GMT 55.781406 38.542187 14,875 116 200 -192
2021-01-14 01:26:34 GMT 55.782848 38.536949 14,875 116 200 -192
2021-01-14 01:26:31 GMT 55.783859 38.533215 14,875 115 201 -256
2021-01-14 01:26:28 GMT 55.785278 38.527721 14,900 112 203 -128
2021-01-14 01:26:25 GMT 55.786560 38.522644 14,925 113 201 -256
2021-01-14 01:26:21 GMT 55.787876 38.517036 14,925 112 202 -192
2021-01-14 01:26:17 GMT 55.789646 38.509399 14,950 112 203 -128
2021-01-14 01:26:13 GMT 55.790810 38.504417 14,950 115 199 128
2021-01-14 01:26:10 GMT 55.791553 38.501160 14,950 112 201 64
2021-01-14 01:26:06 GMT 55.793610 38.492931 14,950 115 200 128
2021-01-14 01:26:03 GMT 55.794388 38.490101 14,950 117 199 128
2021-01-14 01:25:59 GMT 55.796219 38.484444 14,925 123 197 64
2021-01-14 01:25:55 GMT 55.798508 38.479031 14,925 130 195 64
2021-01-14 01:25:51 GMT 55.801300 38.474037 14,925 140 194 0
2021-01-14 01:25:47 GMT 55.804321 38.470207 14,950 157 194 -192
2021-01-14 01:25:44 GMT 55.807343 38.467381 14,925 157 194 -192
2021-01-14 01:25:39 GMT 55.811050 38.464966 14,950 163 194 -128
2021-01-14 01:25:36 GMT 55.813061 38.463905 15,000 164 194 -128
2021-01-14 01:25:32 GMT 55.816227 38.462360 14,975 165 195 -128
2021-01-14 01:25:29 GMT 55.818695 38.461220 14,975 165 195 -128
2021-01-14 01:25:25 GMT 55.822495 38.459473 15,000 165 197 0
2021-01-14 01:25:20 GMT 55.826385 38.457642 15,000 164 195 -128
2021-01-14 01:25:17 GMT 55.829212 38.456352 15,000 165 195 -64
2021-01-14 01:25:14 GMT 55.831879 38.455063 15,000 165 197 0
2021-01-14 01:25:11 GMT 55.834476 38.453953 15,000 165 197 0
2021-01-14 01:25:08 GMT 55.836823 38.452896 15,000 165 197 0
2021-01-14 01:25:05 GMT 55.840572 38.451202 15,000 163 200 0
2021-01-14 01:25:02 GMT 55.842270 38.450317 15,000 164 199 0
2021-01-14 01:24:59 GMT 55.844925 38.448986 15,000 163 200 64
2021-01-14 01:24:56 GMT 55.847534 38.447655 15,000 162 201 64
2021-01-14 01:24:53 GMT 55.851471 38.445408 15,000 162 200 64
2021-01-14 01:24:50 GMT 55.853622 38.444157 14,975 161 199 64
2021-01-14 01:24:47 GMT 55.856827 38.442245 15,000 160 198 64
2021-01-14 01:24:44 GMT 55.858063 38.441494 14,975 160 198 0
2021-01-14 01:24:41 GMT 55.860729 38.439789 14,975 159 198 0
2021-01-14 01:24:38 GMT 55.863464 38.437916 14,975 158 199 0
2021-01-14 01:24:35 GMT 55.866734 38.435581 14,975 156 200 0
2021-01-14 01:24:30 GMT 55.870880 38.432579 14,975 156 200 0
2021-01-14 01:24:27 GMT 55.872368 38.431377 15,000 156 200 0
2021-01-14 01:24:24 GMT 55.875347 38.429146 15,000 157 201 0
2021-01-14 01:24:21 GMT 55.877907 38.427174 14,975 185 204 -64
2021-01-14 01:24:18 GMT 55.879990 38.425598 15,000 157 201 0
2021-01-14 01:24:14 GMT 55.884247 38.422604 14,975 162 203 0
2021-01-14 01:24:11 GMT 55.886810 38.421104 14,975 163 202 0
2021-01-14 01:24:08 GMT 55.889919 38.419788 14,975 170 203 0
2021-01-14 01:24:02 GMT 55.896015 38.418846 15,000 185 204 -64
2021-01-14 01:23:58 GMT 55.898804 38.419273 15,000 195 206 -64
2021-01-14 01:23:54 GMT 55.903278 38.421333 15,000 209 208 -128
2021-01-14 01:23:50 GMT 55.906677 38.424099 15,000 213 209 -64
2021-01-14 01:23:47 GMT 55.908772 38.426399 15,000 222 212 0
2021-01-14 01:23:43 GMT 55.911472 38.430347 15,000 227 213 -64
2021-01-14 01:23:40 GMT 55.913845 38.434811 15,025 237 216 -64
2021-01-14 01:23:37 GMT 55.916080 38.440304 15,025 251 223 0
2021-01-14 01:23:33 GMT 55.917526 38.444908 15,025 251 223 0
2021-01-14 01:23:30 GMT 55.918762 38.450317 15,025 253 223 64
2021-01-14 01:23:26 GMT 55.919712 38.456268 15,025 267 231 128
2021-01-14 01:23:23 GMT 55.920269 38.464508 15,000 271 234 64
2021-01-14 01:23:20 GMT 55.920269 38.467941 15,000 274 235 0
2021-01-14 01:23:15 GMT 55.919586 38.476784 15,025 316 252 320
2021-01-14 01:23:11 GMT 55.917572 38.487022 15,025 298 245 -192
2021-01-14 01:23:06 GMT 55.915054 38.494930 14,975 323 258 0
2021-01-14 01:23:00 GMT 55.910934 38.503834 15,000 318 253 320
2021-01-14 01:22:55 GMT 55.906956 38.510082 14,975 322 255 128
2021-01-14 01:22:52 GMT 55.903061 38.515572 14,975 323 255 0
2021-01-14 01:22:49 GMT 55.901043 38.518326 14,975 322 256 0
2021-01-14 01:22:46 GMT 55.898712 38.521561 14,975 322 256 0
2021-01-14 01:22:43 GMT 55.895416 38.526138 14,975 323 257 0
2021-01-14 01:22:39 GMT 55.892059 38.530769 14,975 323 258 0
2021-01-14 01:22:36 GMT 55.888103 38.536091 14,975 323 258 0
2021-01-14 01:22:32 GMT 55.884521 38.540871 14,975 323 258 0
2021-01-14 01:22:29 GMT 55.881592 38.544865 14,975 323 257 0
2021-01-14 01:22:25 GMT 55.878605 38.549049 15,000 322 256 -64
2021-01-14 01:22:21 GMT 55.874268 38.555187 15,000 322 256 -64
2021-01-14 01:22:18 GMT 55.872345 38.557934 15,000 322 256 -64
2021-01-14 01:22:14 GMT 55.868412 38.563557 15,000 321 256 -64
2021-01-14 01:22:09 GMT 55.863968 38.570004 15,000 320 256 -64
2021-01-14 01:22:06 GMT 55.860870 38.574631 15,000 320 256 -64
2021-01-14 01:22:03 GMT 55.858448 38.578403 15,000 319 257 -64
2021-01-14 01:21:59 GMT 55.854630 38.584648 15,000 318 257 -64
2021-01-14 01:21:56 GMT 55.852070 38.588791 15,000 318 257 -64
2021-01-14 01:21:53 GMT 55.849365 38.593307 15,025 317 257 -64
2021-01-14 01:21:48 GMT 55.845016 38.600716 15,025 317 258 -64
2021-01-14 01:21:45 GMT 55.842014 38.605785 15,025 317 258 -64
2021-01-14 01:21:39 GMT 55.835907 38.615860 15,050 319 260 -192
2021-01-14 01:21:34 GMT 55.832565 38.620937 15,050 321 261 -192
2021-01-14 01:21:28 GMT 55.826248 38.629677 15,075 326 263 -192
2021-01-14 01:21:24 GMT 55.823318 38.633255 15,075 334 262 128
2021-01-14 01:21:21 GMT 55.819439 38.637199 15,075 334 262 128
2021-01-14 01:21:18 GMT 55.816132 38.640079 15,075 352 260 -64
2021-01-14 01:21:15 GMT 55.813293 38.642178 15,050 341 262 64
2021-01-14 01:21:12 GMT 55.809814 38.644325 15,075 344 261 64
2021-01-14 01:21:08 GMT 55.804588 38.646812 15,050 348 261 0
2021-01-14 01:21:05 GMT 55.801529 38.647739 15,050 354 261 -64
2021-01-14 01:21:02 GMT 55.798141 38.648487 15,050 355 261 -64
2021-01-14 01:20:58 GMT 55.792858 38.649044 15,050 359 261 -64
2021-01-14 01:20:52 GMT 55.784618 38.649132 15,075 1 263 -64
2021-01-14 01:20:48 GMT 55.779915 38.648872 15,075 2 263 -192
2021-01-14 01:20:43 GMT 55.775352 38.648273 15,100 6 264 -320
2021-01-14 01:20:40 GMT 55.770790 38.647411 15,125 9 264 -256
2021-01-14 01:20:36 GMT 55.767159 38.646381 15,125 9 264 -192
2021-01-14 01:20:33 GMT 55.762985 38.644741 15,125 14 266 128
2021-01-14 01:20:30 GMT 55.759247 38.642948 15,100 19 263 64
2021-01-14 01:20:27 GMT 55.755939 38.640888 15,100 48 249 -64
2021-01-14 01:20:23 GMT 55.751377 38.637371 15,100 27 261 64
2021-01-14 01:20:19 GMT 55.747696 38.633755 15,100 31 258 64
2021-01-14 01:20:16 GMT 55.744442 38.630074 15,100 38 255 0
2021-01-14 01:20:13 GMT 55.740784 38.625183 15,100 40 254 0
2021-01-14 01:20:09 GMT 55.738625 38.621838 15,100 55 244 256
2021-01-14 01:20:05 GMT 55.734528 38.614285 15,100 50 247 64
2021-01-14 01:20:02 GMT 55.732864 38.610451 15,075 55 244 256
2021-01-14 01:19:55 GMT 55.728882 38.597469 15,050 72 236 64
2021-01-14 01:19:52 GMT 55.728012 38.592140 15,050 79 232 0
2021-01-14 01:19:48 GMT 55.727371 38.584816 15,050 85 230 0
2021-01-14 01:19:44 GMT 55.727325 38.576828 15,050 94 224 64
2021-01-14 01:19:41 GMT 55.727600 38.571751 15,050 97 223 64
2021-01-14 01:19:38 GMT 55.728104 38.566387 15,050 103 218 0
2021-01-14 01:19:35 GMT 55.728745 38.561096 15,050 104 217 0
2021-01-14 01:19:32 GMT 55.729660 38.555435 15,050 108 215 64
2021-01-14 01:19:25 GMT 55.731918 38.545532 15,050 117 212 64
2021-01-14 01:19:22 GMT 55.734329 38.538292 15,025 124 210 0
2021-01-14 01:19:18 GMT 55.736576 38.533257 15,025 133 209 0
2021-01-14 01:19:14 GMT 55.738953 38.528969 15,025 137 208 64
2021-01-14 01:19:11 GMT 55.740673 38.526134 15,025 137 208 64
2021-01-14 01:19:07 GMT 55.744080 38.520561 15,025 136 210 64
2021-01-14 01:19:04 GMT 55.745590 38.518150 15,050 136 210 64
2021-01-14 01:19:01 GMT 55.748016 38.514072 15,025 136 210 256
2021-01-14 01:18:58 GMT 55.749748 38.511112 14,875 137 208 256
2021-01-14 01:18:55 GMT 55.751999 38.507332 15,000 136 208 256
2021-01-14 01:18:51 GMT 55.755295 38.501919 14,975 138 206 256
2021-01-14 01:18:47 GMT 55.757664 38.498241 14,875 155 213 192
2021-01-14 01:18:42 GMT 55.761337 38.493015 14,950 143 208 256
2021-01-14 01:18:39 GMT 55.764954 38.488522 14,925 148 208 256
2021-01-14 01:18:33 GMT 55.771362 38.482361 14,900 154 208 256
2021-01-14 01:18:30 GMT 55.771362 38.482361 14,875 155 208 192
2021-01-14 01:18:25 GMT 55.776352 38.478451 14,875 157 211 192
2021-01-14 01:18:22 GMT 55.778519 38.476868 14,875 156 212 192
2021-01-14 01:18:19 GMT 55.781158 38.474789 14,875 155 213 192
2021-01-14 01:18:16 GMT 55.783360 38.473003 14,850 155 214 192
2021-01-14 01:18:10 GMT 55.794571 38.461887 14,825 149 221 256
2021-01-14 01:18:02 GMT 55.796814 38.459358 14,800 145 227 128
2021-01-14 01:17:59 GMT 55.798351 38.457642 14,900 141 240 -256
2021-01-14 01:17:54 GMT 55.803589 38.451317 14,775 144 229 192
2021-01-14 01:17:49 GMT 55.807388 38.446239 14,900 141 240 -256
2021-01-14 01:17:46 GMT 55.810410 38.442078 14,750 141 240 -192
2021-01-14 01:17:42 GMT 55.815716 38.434551 14,750 140 238 0
2021-01-14 01:17:39 GMT 55.815716 38.434551 14,750 140 238 -64
2021-01-14 01:17:36 GMT 55.817947 38.431293 14,750 140 239 -128
2021-01-14 01:17:33 GMT 55.821945 38.425598 14,775 141 240 -320
2021-01-14 01:17:29 GMT 55.824978 38.421333 14,800 142 241 -512
2021-01-14 01:17:25 GMT 55.828217 38.417027 14,825 146 240 -512
2021-01-14 01:17:21 GMT 55.831963 38.412579 14,875 149 239 -512
2021-01-14 01:17:17 GMT 55.836411 38.408119 14,900 154 238 -512
2021-01-14 01:17:12 GMT 55.840431 38.405025 14,925 161 236 -576
2021-01-14 01:17:09 GMT 55.843273 38.403481 14,950 164 236 -512
2021-01-14 01:17:06 GMT 55.847092 38.402107 14,975 174 235 -256
2021-01-14 01:17:02 GMT 55.850967 38.401627 15,000 182 236 -64
2021-01-14 01:16:59 GMT 55.854813 38.401878 15,000 184 235 -128
2021-01-14 01:16:56 GMT 55.858017 38.402710 15,000 191 236 0
2021-01-14 01:16:53 GMT 55.862267 38.404427 15,000 198 237 0
2021-01-14 01:16:50 GMT 55.864380 38.405624 15,000 206 240 -64
2021-01-14 01:16:47 GMT 55.867851 38.407948 15,000 206 240 -64
2021-01-14 01:16:40 GMT 55.874451 38.414444 15,000 224 244 128
2021-01-14 01:16:37 GMT 55.876930 38.417728 15,000 224 244 128
2021-01-14 01:16:30 GMT 55.883263 38.429062 15,000 237 246 64
2021-01-14 01:16:20 GMT 55.888988 38.445110 14,975 263 261 0
2021-01-14 01:16:16 GMT 55.892212 38.460472 15,000 251 253 -64
2021-01-14 01:16:12 GMT 55.892212 38.460472 15,000 258 257 -64
2021-01-14 01:16:09 GMT 55.892807 38.465134 15,000 259 258 0
2021-01-14 01:16:05 GMT 55.893723 38.474453 15,000 265 263 0
2021-01-14 01:16:02 GMT 55.894226 38.483444 15,000 267 264 0
2021-01-14 01:15:59 GMT 55.894272 38.486938 15,000 270 267 -64
2021-01-14 01:15:56 GMT 55.894199 38.493347 15,000 274 269 0
2021-01-14 01:15:53 GMT 55.893875 38.500385 15,000 278 272 0
2021-01-14 01:15:49 GMT 55.893082 38.508995 15,000 284 274 -64
2021-01-14 01:15:46 GMT 55.891983 38.516068 15,000 299 277 64
2021-01-14 01:15:42 GMT 55.890427 38.523312 15,025 295 276 0
2021-01-14 01:15:39 GMT 55.888275 38.531052 15,000 299 277 64
2021-01-14 01:15:36 GMT 55.886429 38.536694 15,000 305 277 384
2021-01-14 01:15:31 GMT 55.882980 38.546047 15,000 305 276 128
2021-01-14 01:15:28 GMT 55.881088 38.551025 14,950 306 278 384
2021-01-14 01:15:25 GMT 55.878571 38.557518 14,975 309 281 -256
2021-01-14 01:15:21 GMT 55.875412 38.565758 14,925 305 277 384
2021-01-14 01:15:18 GMT 55.873997 38.569393 14,900 306 278 384
2021-01-14 01:15:15 GMT 55.871796 38.574997 14,875 334 294 512
2021-01-14 01:15:11 GMT 55.867401 38.585732 14,900 307 279 384
2021-01-14 01:15:08 GMT 55.866211 38.588562 14,875 308 281 64
2021-01-14 01:15:05 GMT 55.864174 38.593254 14,975 334 294 512
2021-01-14 01:14:59 GMT 55.858727 38.605785 14,875 309 281 -256
2021-01-14 01:14:56 GMT 55.855888 38.612137 14,900 309 282 -256
2021-01-14 01:14:51 GMT 55.852722 38.619175 14,900 309 282 -192
2021-01-14 01:14:47 GMT 55.849777 38.625683 14,925 310 284 -192
2021-01-14 01:14:44 GMT 55.846985 38.631676 14,850 55 271 -64
2021-01-14 01:14:39 GMT 55.841629 38.643162 14,950 310 283 -192
2021-01-14 01:14:35 GMT 55.838608 38.649570 14,975 311 283 -192
2021-01-14 01:14:28 GMT 55.832474 38.661919 14,975 314 285 -128
2021-01-14 01:14:24 GMT 55.829727 38.667068 15,000 315 286 -128
2021-01-14 01:14:20 GMT 55.824417 38.676250 15,000 319 288 -128
2021-01-14 01:14:17 GMT 55.822723 38.678867 14,925 321 289 -128
2021-01-14 01:14:14 GMT 55.819611 38.683361 14,975 334 294 512
2021-01-14 01:14:11 GMT 55.816452 38.687439 15,000 328 292 192
2021-01-14 01:14:07 GMT 55.811943 38.692303 14,975 333 293 576
2021-01-14 01:14:03 GMT 55.807472 38.696079 14,925 1 292 256
2021-01-14 01:13:57 GMT 55.798862 38.700714 14,875 351 295 384
2021-01-14 01:13:54 GMT 55.794159 38.702087 14,800 1 292 256
2021-01-14 01:13:49 GMT 55.787086 38.702602 14,800 9 288 192
2021-01-14 01:13:46 GMT 55.784271 38.702419 14,850 6 290 256
2021-01-14 01:13:43 GMT 55.780426 38.701756 14,825 7 288 192
2021-01-14 01:13:39 GMT 55.772884 38.699169 14,800 14 286 128
2021-01-14 01:13:36 GMT 55.770721 38.698177 14,800 15 286 128
2021-01-14 01:13:32 GMT 55.767014 38.696178 14,800 18 284 128
2021-01-14 01:13:28 GMT 55.759621 38.690929 14,775 25 282 64
2021-01-14 01:13:25 GMT 55.758408 38.689854 14,800 29 281 128
2021-01-14 01:13:22 GMT 55.754730 38.686295 14,775 48 274 0
2021-01-14 01:13:16 GMT 55.748165 38.677883 14,775 44 275 64
2021-01-14 01:13:13 GMT 55.744675 38.671532 14,750 51 272 -64
2021-01-14 01:13:08 GMT 55.740967 38.661888 14,775 62 267 -128
2021-01-14 01:13:05 GMT 55.739594 38.657310 14,775 65 264 -128
2021-01-14 01:13:02 GMT 55.738392 38.652477 14,775 68 262 -128
2021-01-14 01:12:58 GMT 55.736206 38.641663 14,800 72 260 -192
2021-01-14 01:12:55 GMT 55.735645 38.638145 14,800 74 258 -192
2021-01-14 01:12:52 GMT 55.734669 38.631451 14,800 76 257 -192
2021-01-14 01:12:45 GMT 55.732910 38.617359 14,825 79 251 -128
2021-01-14 01:12:41 GMT 55.732269 38.610619 14,825 81 250 -128
2021-01-14 01:12:35 GMT 55.731503 38.596172 14,850 89 248 -192
2021-01-14 01:12:32 GMT 55.731583 38.588978 14,875 95 245 -192
2021-01-14 01:12:24 GMT 55.732849 38.575745 14,900 109 241 -256
2021-01-14 01:12:21 GMT 55.734146 38.569252 14,900 115 239 -128
2021-01-14 01:12:17 GMT 55.736069 38.562759 14,925 120 237 -192
2021-01-14 01:12:14 GMT 55.737854 38.557850 14,925 127 235 -256
2021-01-14 01:12:11 GMT 55.739693 38.553684 14,925 130 234 -256
2021-01-14 01:12:08 GMT 55.742393 38.548279 14,950 128 238 -832
2021-01-14 01:12:04 GMT 55.745419 38.542271 14,975 131 235 -256
2021-01-14 01:12:00 GMT 55.747280 38.538582 14,975 131 235 -256
2021-01-14 01:11:55 GMT 55.751907 38.528969 15,000 130 236 -256
2021-01-14 01:11:52 GMT 55.756165 38.519814 15,025 129 238 -320
2021-01-14 01:11:48 GMT 55.756165 38.519814 15,100 128 238 -832
2021-01-14 01:11:45 GMT 55.758362 38.514977 15,100 128 236 -768
2021-01-14 01:11:42 GMT 55.759850 38.511627 15,125 128 235 -640
2021-01-14 01:11:39 GMT 55.762344 38.506081 15,150 128 232 -384
2021-01-14 01:11:34 GMT 55.765503 38.499172 15,175 129 231 0
2021-01-14 01:11:31 GMT 55.767700 38.494263 15,175 129 230 0
2021-01-14 01:11:28 GMT 55.770035 38.489185 15,175 129 231 0
2021-01-14 01:11:23 GMT 55.773788 38.481113 15,175 129 230 -64
2021-01-14 01:11:19 GMT 55.775352 38.477726 15,175 138 224 -64
2021-01-14 01:11:15 GMT 55.778751 38.470516 15,175 130 229 -64
2021-01-14 01:11:12 GMT 55.780472 38.466965 15,175 131 228 -64
2021-01-14 01:11:09 GMT 55.782394 38.463051 15,200 138 224 -64
2021-01-14 01:11:03 GMT 55.789505 38.448715 15,200 131 228 -64
2021-01-14 01:11:00 GMT 55.789505 38.448715 15,200 131 226 64
2021-01-14 01:10:56 GMT 55.791508 38.444767 15,200 131 225 0
2021-01-14 01:10:52 GMT 55.794891 38.438000 15,200 131 225 0
2021-01-14 01:10:49 GMT 55.796677 38.434505 15,200 192 222 384
2021-01-14 01:10:43 GMT 55.800724 38.426483 15,200 133 224 0
2021-01-14 01:10:40 GMT 55.802959 38.422279 15,050 192 222 384
2021-01-14 01:10:36 GMT 55.806313 38.416271 15,200 137 224 -64
2021-01-14 01:10:33 GMT 55.808121 38.413197 15,200 137 224 -64
2021-01-14 01:10:28 GMT 55.811554 38.407951 15,200 142 225 -64
2021-01-14 01:10:24 GMT 55.818554 38.399017 15,200 146 224 -64
2021-01-14 01:10:21 GMT 55.818554 38.399017 15,200 148 224 -64
2021-01-14 01:10:18 GMT 55.820324 38.397045 15,200 149 224 -64
2021-01-14 01:10:12 GMT 55.826431 38.391140 15,200 153 223 0
2021-01-14 01:10:08 GMT 55.829353 38.388805 15,150 158 222 256
2021-01-14 01:10:03 GMT 55.835266 38.384769 15,175 161 222 320
2021-01-14 01:10:00 GMT 55.839569 38.382236 15,150 163 222 320
2021-01-14 01:09:57 GMT 55.839569 38.382236 15,150 165 221 256
2021-01-14 01:09:54 GMT 55.844345 38.380051 15,125 169 221 256
2021-01-14 01:09:50 GMT 55.848129 38.378906 15,125 171 221 256
2021-01-14 01:09:46 GMT 55.851372 38.378162 15,100 174 221 256
2021-01-14 01:09:41 GMT 55.855682 38.377743 15,100 178 221 256
2021-01-14 01:09:37 GMT 55.861057 38.377907 15,075 185 220 384
2021-01-14 01:09:32 GMT 55.865753 38.378906 15,025 194 222 384
2021-01-14 01:09:28 GMT 55.869667 38.380566 15,000 199 224 384
2021-01-14 01:09:23 GMT 55.875069 38.384342 14,975 207 227 320
2021-01-14 01:09:19 GMT 55.878468 38.387691 14,950 217 230 256
2021-01-14 01:09:16 GMT 55.880749 38.390434 14,950 219 231 256
2021-01-14 01:09:12 GMT 55.884659 38.396358 14,925 225 233 256
2021-01-14 01:09:08 GMT 55.886894 38.400562 14,900 241 239 192
2021-01-14 01:09:04 GMT 55.889328 38.406040 15,075 235 237 192
2021-01-14 01:09:01 GMT 55.891434 38.411533 14,900 239 237 192
2021-01-14 01:08:57 GMT 55.893597 38.418419 15,050 244 239 128
2021-01-14 01:08:50 GMT 55.896423 38.430092 14,875 252 241 64
2021-01-14 01:08:47 GMT 55.897552 38.436184 14,875 254 242 64
2021-01-14 01:08:43 GMT 55.899261 38.447239 14,850 257 241 64
2021-01-14 01:08:40 GMT 55.899601 38.449657 14,850 257 241 64
2021-01-14 01:08:35 GMT 55.900860 38.459957 14,850 263 242 128
2021-01-14 01:08:31 GMT 55.901596 38.469212 14,850 265 243 192
2021-01-14 01:08:25 GMT 55.901882 38.480129 14,825 273 249 256
2021-01-14 01:08:22 GMT 55.901733 38.486691 14,800 279 253 256
2021-01-14 01:08:19 GMT 55.901276 38.492916 14,800 279 253 256
2021-01-14 01:08:15 GMT 55.899994 38.502419 14,800 291 261 0
2021-01-14 01:08:10 GMT 55.898529 38.510410 14,775 291 261 0
2021-01-14 01:08:07 GMT 55.897202 38.516735 14,800 296 264 -128
2021-01-14 01:08:04 GMT 55.895828 38.522312 14,800 297 266 -64
2021-01-14 01:07:59 GMT 55.893402 38.531467 14,800 297 266 -64
2021-01-14 01:07:54 GMT 55.890476 38.542099 14,800 296 268 -64
2021-01-14 01:07:50 GMT 55.888245 38.550339 14,825 296 270 -64
2021-01-14 01:07:46 GMT 55.886215 38.557850 14,825 297 272 -64
2021-01-14 01:07:42 GMT 55.881493 38.574886 14,825 297 276 0
2021-01-14 01:07:39 GMT 55.881493 38.574886 14,825 297 276 0
2021-01-14 01:07:36 GMT 55.880310 38.579239 14,800 297 278 64
2021-01-14 01:07:31 GMT 55.876648 38.592808 14,800 295 282 0
2021-01-14 01:07:28 GMT 55.876373 38.593887 14,800 295 282 0
2021-01-14 01:07:25 GMT 55.874405 38.601627 14,800 294 283 -128
2021-01-14 01:07:21 GMT 55.872070 38.611366 14,825 293 285 -64
2021-01-14 01:07:18 GMT 55.871017 38.616028 14,825 293 287 -64
2021-01-14 01:07:13 GMT 55.868362 38.627682 14,825 292 285 0
2021-01-14 01:07:09 GMT 55.866486 38.636086 14,975 296 283 -384
2021-01-14 01:07:04 GMT 55.864269 38.645866 14,825 294 283 -128
2021-01-14 01:06:59 GMT 55.860916 38.659260 14,850 297 283 -384
2021-01-14 01:06:55 GMT 55.858795 38.666714 14,900 300 282 -384
2021-01-14 01:06:52 GMT 55.856873 38.672874 14,900 301 282 -384
2021-01-14 01:06:49 GMT 55.855133 38.677784 14,925 305 282 -256
2021-01-14 01:06:46 GMT 55.853165 38.682861 14,925 305 282 -256
2021-01-14 01:06:43 GMT 55.850258 38.689213 14,925 313 285 0
2021-01-14 01:06:40 GMT 55.847305 38.694595 14,925 322 287 -128
2021-01-14 01:06:37 GMT 55.843925 38.699429 14,925 322 287 -128
2021-01-14 01:06:33 GMT 55.840015 38.703976 14,950 331 290 -192
2021-01-14 01:06:30 GMT 55.836338 38.707497 14,975 336 290 -256
2021-01-14 01:06:27 GMT 55.833344 38.709911 14,975 339 290 -256
2021-01-14 01:06:24 GMT 55.828079 38.713490 15,000 343 290 -256
2021-01-14 01:06:20 GMT 55.823502 38.715904 15,000 349 291 -192
2021-01-14 01:06:17 GMT 55.819565 38.717403 15,000 352 292 -256
2021-01-14 01:06:13 GMT 55.813705 38.718483 15,025 358 293 -256
2021-01-14 01:06:09 GMT 55.808441 38.718651 15,050 3 293 -256
2021-01-14 01:06:06 GMT 55.805695 38.718315 15,125 7 292 -320
2021-01-14 01:06:03 GMT 55.800522 38.717068 15,075 10 290 -320
2021-01-14 01:06:00 GMT 55.796539 38.715405 15,100 17 287 -384
2021-01-14 01:05:57 GMT 55.794159 38.714157 15,125 27 281 -64
2021-01-14 01:05:54 GMT 55.790249 38.711700 15,125 27 281 -64
2021-01-14 01:05:50 GMT 55.783630 38.705917 15,150 31 280 0
2021-01-14 01:05:47 GMT 55.775894 38.696594 15,125 42 276 -64
2021-01-14 01:05:41 GMT 55.775894 38.696594 15,150 39 278 -64
2021-01-14 01:05:37 GMT 55.771637 38.689854 15,150 44 275 -64
2021-01-14 01:05:31 GMT 55.766834 38.680458 15,150 52 273 0
2021-01-14 01:05:27 GMT 55.762894 38.670212 15,150 65 269 -64
2021-01-14 01:05:21 GMT 55.760365 38.660889 15,175 82 262 -192
2021-01-14 01:05:18 GMT 55.758865 38.653149 15,150 74 265 -192
2021-01-14 01:05:15 GMT 55.758224 38.648739 15,175 79 263 -192
2021-01-14 01:05:09 GMT 55.757011 38.634369 15,200 89 259 -256
2021-01-14 01:05:06 GMT 55.757057 38.628445 15,200 96 254 -384
2021-01-14 01:05:02 GMT 55.757721 38.618942 15,225 102 252 -384
2021-01-14 01:04:59 GMT 55.758316 38.613949 15,250 104 251 -384
2021-01-14 01:04:56 GMT 55.760971 38.599216 15,275 108 249 -256
2021-01-14 01:04:52 GMT 55.760971 38.599216 15,275 112 248 -128
2021-01-14 01:04:48 GMT 55.763031 38.590725 15,300 116 248 -64
2021-01-14 01:04:45 GMT 55.763577 38.588879 15,300 118 247 0
2021-01-14 01:04:41 GMT 55.766693 38.579521 15,275 124 246 -128
2021-01-14 01:04:37 GMT 55.768974 38.573940 15,300 127 246 -64
2021-01-14 01:04:34 GMT 55.771072 38.569138 15,300 132 239 128
2021-01-14 01:04:30 GMT 55.773743 38.562843 15,325 126 246 -64
2021-01-14 01:04:25 GMT 55.777130 38.554855 15,325 128 244 -64
2021-01-14 01:04:22 GMT 55.779404 38.549564 15,325 128 244 -64
2021-01-14 01:04:18 GMT 55.782196 38.543385 15,325 129 242 192
2021-01-14 01:04:15 GMT 55.784012 38.539436 15,300 132 239 128
2021-01-14 01:04:12 GMT 55.786972 38.533630 15,300 132 239 128
2021-01-14 01:04:07 GMT 55.791508 38.524845 15,300 131 238 128
2021-01-14 01:04:04 GMT 55.791878 38.524075 15,275 130 236 128
2021-01-14 01:04:00 GMT 55.795441 38.516735 15,275 129 235 64
2021-01-14 01:03:55 GMT 55.799103 38.508743 15,275 128 234 64
2021-01-14 01:03:51 GMT 55.801422 38.503559 15,275 127 233 64
2021-01-14 01:03:48 GMT 55.803864 38.497757 15,275 126 232 0
2021-01-14 01:03:45 GMT 55.804913 38.495235 15,275 125 231 0
2021-01-14 01:03:42 GMT 55.806915 38.490341 15,275 124 230 -64
2021-01-14 01:03:39 GMT 55.808777 38.485538 15,275 123 229 -64
2021-01-14 01:03:35 GMT 55.811554 38.477951 15,275 122 227 -128
2021-01-14 01:03:31 GMT 55.813805 38.471718 15,275 122 226 -128
2021-01-14 01:03:28 GMT 55.814667 38.469296 15,275 122 225 -128
2021-01-14 01:03:24 GMT 55.817642 38.460972 15,300 121 223 -256
2021-01-14 01:03:19 GMT 55.820526 38.452396 15,325 120 224 -320
2021-01-14 01:03:16 GMT 55.822044 38.447857 15,350 118 225 -512
2021-01-14 01:03:13 GMT 55.823135 38.444408 15,375 119 224 -384
2021-01-14 01:03:10 GMT 55.824738 38.439331 15,375 118 225 -448
2021-01-14 01:03:06 GMT 55.827164 38.431423 15,425 118 225 -448
2021-01-14 01:03:03 GMT 55.828144 38.428116 15,425 117 226 -384
2021-01-14 01:03:00 GMT 55.829681 38.422935 15,450 117 227 -384
2021-01-14 01:02:57 GMT 55.831696 38.416275 15,475 117 226 -384
2021-01-14 01:02:54 GMT 55.832382 38.413864 15,500 116 225 -384
2021-01-14 01:02:51 GMT 55.833824 38.408806 15,525 116 225 -384
2021-01-14 01:02:48 GMT 55.835453 38.403137 15,525 116 225 -384
2021-01-14 01:02:44 GMT 55.837269 38.396618 15,575 116 224 -448
2021-01-14 01:02:41 GMT 55.838852 38.390778 15,600 114 223 -448
2021-01-14 01:02:38 GMT 55.840393 38.384899 15,625 114 223 -512
2021-01-14 01:02:34 GMT 55.841675 38.379990 15,650 114 221 -640
2021-01-14 01:02:30 GMT 55.843231 38.373913 15,700 115 220 -576
2021-01-14 01:02:27 GMT 55.844528 38.369064 15,700 117 219 -320
2021-01-14 01:02:24 GMT 55.846161 38.364090 15,725 128 217 -128
2021-01-14 01:02:21 GMT 55.851372 38.353615 15,725 132 216 -128
2021-01-14 01:02:17 GMT 55.851372 38.353615 15,725 140 215 0
2021-01-14 01:02:14 GMT 55.853233 38.351040 15,725 146 214 0
2021-01-14 01:02:11 GMT 55.855286 38.348553 15,725 148 215 0
2021-01-14 01:02:08 GMT 55.858078 38.345718 15,725 164 216 -64
2021-01-14 01:02:05 GMT 55.860825 38.343575 15,725 161 215 -64
2021-01-14 01:02:02 GMT 55.864361 38.341599 15,725 173 218 -64
2021-01-14 01:01:59 GMT 55.867249 38.340569 15,725 173 218 -64
2021-01-14 01:01:54 GMT 55.872986 38.339954 15,750 184 218 -64
2021-01-14 01:01:51 GMT 55.875092 38.340202 15,750 190 219 -128
2021-01-14 01:01:48 GMT 55.877628 38.340912 15,750 192 219 -128
2021-01-14 01:01:45 GMT 55.883450 38.344345 15,750 205 222 -256
2021-01-14 01:01:42 GMT 55.883450 38.344345 15,775 210 224 -320
2021-01-14 01:01:38 GMT 55.886902 38.348026 15,800 216 225 -320
2021-01-14 01:01:35 GMT 55.889832 38.352104 15,825 222 228 -320
2021-01-14 01:01:32 GMT 55.892212 38.355934 15,850 226 229 -320
2021-01-14 01:01:28 GMT 55.894852 38.360741 15,850 230 230 -320
2021-01-14 01:01:25 GMT 55.897041 38.365376 15,875 233 231 -320
2021-01-14 01:01:21 GMT 55.900040 38.372829 15,900 238 232 -384
2021-01-14 01:01:18 GMT 55.901230 38.376274 15,925 241 233 -384
2021-01-14 01:01:15 GMT 55.902348 38.379791 15,925 243 233 -448
2021-01-14 01:01:12 GMT 55.904022 38.385567 15,975 246 234 -448
2021-01-14 01:01:09 GMT 55.905468 38.391552 16,000 252 236 -448
2021-01-14 01:01:06 GMT 55.906769 38.397648 16,000 254 237 -448
2021-01-14 01:01:03 GMT 55.907887 38.404427 16,025 255 237 -448
2021-01-14 01:01:00 GMT 55.908352 38.407173 16,050 256 237 -448
2021-01-14 01:00:57 GMT 55.909332 38.414124 16,075 256 237 -448
2021-01-14 01:00:54 GMT 55.910122 38.419704 16,100 257 236 -512
2021-01-14 01:00:51 GMT 55.911144 38.427513 16,150 260 241 -512
2021-01-14 01:00:47 GMT 55.911850 38.433506 16,150 261 242 -512
2021-01-14 01:00:44 GMT 55.912403 38.439186 16,225 263 244 -512
2021-01-14 01:00:40 GMT 55.912994 38.446323 16,275 263 244 -448
2021-01-14 01:00:37 GMT 55.913361 38.451817 16,350 261 247 -512
2021-01-14 01:00:32 GMT 55.914368 38.464466 16,275 262 246 -448
2021-01-14 01:00:28 GMT 55.915009 38.472122 16,300 261 247 -576
2021-01-14 01:00:24 GMT 55.915512 38.477367 16,350 261 247 -512
2021-01-14 01:00:21 GMT 55.916409 38.486221 16,375 261 248 -512
2021-01-14 01:00:17 GMT 55.916920 38.492146 16,425 263 249 -512
2021-01-14 01:00:13 GMT 55.917572 38.500423 16,525 264 249 -576
2021-01-14 01:00:09 GMT 55.918690 38.516781 16,650 261 248 -576
2021-01-14 01:00:05 GMT 55.918690 38.516781 16,500 262 248 -576
2021-01-14 01:00:02 GMT 55.919128 38.522476 16,550 261 247 -576
2021-01-14 00:59:59 GMT 55.919815 38.530052 16,600 261 247 -576
2021-01-14 00:59:56 GMT 55.920410 38.536179 16,600 261 246 -640
2021-01-14 00:59:53 GMT 55.920914 38.541454 16,625 261 247 -576
2021-01-14 00:59:49 GMT 55.922413 38.558323 16,675 262 249 -512
2021-01-14 00:59:46 GMT 55.922413 38.558323 16,700 263 252 -512
2021-01-14 00:59:42 GMT 55.922836 38.563511 16,725 262 251 -512
2021-01-14 00:59:38 GMT 55.923569 38.573250 16,775 263 255 -448
2021-01-14 00:59:34 GMT 55.923981 38.579491 16,800 263 255 -448
2021-01-14 00:59:31 GMT 55.924553 38.586987 16,825 263 256 -384
2021-01-14 00:59:28 GMT 55.924850 38.591141 16,825 262 258 -512
2021-01-14 00:59:25 GMT 55.925484 38.598660 16,850 262 257 -448
2021-01-14 00:59:22 GMT 55.925858 38.603642 16,875 262 258 -512
2021-01-14 00:59:18 GMT 55.926647 38.612137 16,900 261 259 -512
2021-01-14 00:59:15 GMT 55.927277 38.619106 16,950 261 259 -512
2021-01-14 00:59:12 GMT 55.927963 38.626347 16,975 261 260 -640
2021-01-14 00:59:08 GMT 55.928741 38.634968 17,000 263 261 -640
2021-01-14 00:59:05 GMT 55.929256 38.642178 17,050 265 263 -640
2021-01-14 00:59:02 GMT 55.929581 38.648273 17,075 265 263 -640
2021-01-14 00:58:57 GMT 55.929955 38.656685 17,250 279 273 -640
2021-01-14 00:58:53 GMT 55.930161 38.666134 17,175 270 267 -576
2021-01-14 00:58:49 GMT 55.930069 38.674538 17,200 274 269 -576
2021-01-14 00:58:42 GMT 55.928741 38.692219 17,275 285 276 -640
2021-01-14 00:58:39 GMT 55.927906 38.697708 17,325 297 284 -640
2021-01-14 00:58:34 GMT 55.924896 38.710995 17,375 298 284 -640
2021-01-14 00:58:31 GMT 55.923981 38.714237 17,375 298 284 -640
2021-01-14 00:58:27 GMT 55.920597 38.723972 17,450 309 291 -640
2021-01-14 00:58:24 GMT 55.917755 38.730583 17,500 313 293 -576
2021-01-14 00:58:21 GMT 55.916080 38.734100 17,500 313 293 -576
2021-01-14 00:58:17 GMT 55.912266 38.741138 17,525 317 296 -640
2021-01-14 00:58:12 GMT 55.905487 38.751526 17,600 323 299 -576
2021-01-14 00:58:08 GMT 55.903336 38.754440 17,625 325 300 -576
2021-01-14 00:58:05 GMT 55.899765 38.758850 17,650 327 301 -576
2021-01-14 00:58:02 GMT 55.894573 38.764400 17,700 333 304 -576
2021-01-14 00:57:59 GMT 55.891068 38.767590 17,725 335 305 -576
2021-01-14 00:57:55 GMT 55.886490 38.771336 17,750 338 308 -576
2021-01-14 00:57:51 GMT 55.881027 38.774788 17,800 343 310 -640
2021-01-14 00:57:48 GMT 55.877426 38.776497 17,875 352 314 -640
2021-01-14 00:57:45 GMT 55.871483 38.778393 17,875 352 314 -640
2021-01-14 00:57:42 GMT 55.867340 38.779079 17,900 359 316 -704
2021-01-14 00:57:38 GMT 55.862732 38.779163 17,950 1 316 -704
2021-01-14 00:57:34 GMT 55.857426 38.778732 17,975 5 316 -704
2021-01-14 00:57:31 GMT 55.852341 38.777576 18,025 11 316 -704
2021-01-14 00:57:28 GMT 55.848160 38.776073 18,050 12 316 -768
2021-01-14 00:57:25 GMT 55.844101 38.774246 18,100 14 316 -768
2021-01-14 00:57:20 GMT 55.835453 38.769119 18,150 21 316 -768
2021-01-14 00:57:15 GMT 55.830891 38.765774 18,200 24 316 -768
2021-01-14 00:57:11 GMT 55.823547 38.759266 18,275 28 315 -768
2021-01-14 00:57:08 GMT 55.820297 38.755936 18,300 30 315 -768
2021-01-14 00:57:03 GMT 55.815079 38.750111 18,350 35 314 -768
2021-01-14 00:57:00 GMT 55.811337 38.745434 18,450 39 313 -768
2021-01-14 00:56:57 GMT 55.808033 38.740883 18,450 40 313 -768
2021-01-14 00:56:54 GMT 55.804367 38.735546 18,475 41 313 -768
2021-01-14 00:56:50 GMT 55.799652 38.728054 18,525 43 314 -704
2021-01-14 00:56:46 GMT 55.796906 38.723392 18,550 44 314 -704
2021-01-14 00:56:43 GMT 55.793564 38.717236 18,575 50 314 -704
2021-01-14 00:56:40 GMT 55.789856 38.709579 18,650 51 314 -704
2021-01-14 00:56:37 GMT 55.787502 38.704319 18,675 53 315 -704
2021-01-14 00:56:33 GMT 55.784386 38.696251 18,700 58 314 -768
2021-01-14 00:56:29 GMT 55.781498 38.687241 18,725 63 312 -768
2021-01-14 00:56:26 GMT 55.779877 38.681278 18,825 66 313 -704
2021-01-14 00:56:23 GMT 55.777634 38.672375 18,850 67 313 -704
2021-01-14 00:56:19 GMT 55.775215 38.661232 18,900 72 311 -704
2021-01-14 00:56:16 GMT 55.774513 38.657627 18,925 76 306 -704
2021-01-14 00:56:13 GMT 55.772980 38.648014 19,025 78 302 -704
2021-01-14 00:56:08 GMT 55.771500 38.628845 19,025 89 290 -384
2021-01-14 00:56:04 GMT 55.771442 38.626816 19,050 90 289 -384
2021-01-14 00:56:01 GMT 55.771591 38.618858 19,050 96 283 -448
2021-01-14 00:55:58 GMT 55.771954 38.612907 19,075 97 282 -448
2021-01-14 00:55:55 GMT 55.772598 38.605957 19,100 102 277 -512
2021-01-14 00:55:52 GMT 55.773605 38.598385 19,150 105 274 -512
2021-01-14 00:55:48 GMT 55.774750 38.591537 19,175 110 269 -576
2021-01-14 00:55:45 GMT 55.776260 38.584484 19,200 112 267 -576
2021-01-14 00:55:42 GMT 55.777634 38.579159 19,250 115 264 -640
2021-01-14 00:55:38 GMT 55.779778 38.572056 19,300 124 258 -704
2021-01-14 00:55:35 GMT 55.782848 38.563988 19,425 130 254 -704
2021-01-14 00:55:30 GMT 55.785828 38.557720 19,375 134 253 -640
2021-01-14 00:55:27 GMT 55.787365 38.554890 19,425 136 251 -640
2021-01-14 00:55:24 GMT 55.791321 38.548527 19,475 145 248 -512
2021-01-14 00:55:21 GMT 55.793015 38.546116 19,475 142 249 -512
2021-01-14 00:55:18 GMT 55.801163 38.536961 19,525 154 246 -384
2021-01-14 00:55:14 GMT 55.801163 38.536961 19,525 154 246 -384
2021-01-14 00:55:11 GMT 55.803192 38.535316 19,525 159 246 -384
2021-01-14 00:55:08 GMT 55.806450 38.533257 19,550 162 245 -256
2021-01-14 00:55:05 GMT 55.809814 38.531715 19,550 174 244 64
2021-01-14 00:55:00 GMT 55.815250 38.530170 19,550 177 243 192
2021-01-14 00:54:57 GMT 55.818466 38.529800 19,550 179 244 192
2021-01-14 00:54:54 GMT 55.821259 38.529720 19,525 189 249 64
2021-01-14 00:54:48 GMT 55.829361 38.530636 19,525 189 249 64
2021-01-14 00:54:44 GMT 55.832840 38.531631 19,525 196 255 -192
2021-01-14 00:54:41 GMT 55.837463 38.533546 19,525 196 255 -192
2021-01-14 00:54:38 GMT 55.843784 38.537292 19,550 201 258 -448
2021-01-14 00:54:35 GMT 55.844925 38.538124 19,575 204 259 -576
2021-01-14 00:54:32 GMT 55.847462 38.540298 19,600 210 262 -704
2021-01-14 00:54:27 GMT 55.851791 38.544785 19,625 214 264 -704
2021-01-14 00:54:24 GMT 55.854904 38.548695 19,675 219 268 -704
2021-01-14 00:54:21 GMT 55.858383 38.553604 19,700 221 269 -704
2021-01-14 00:54:18 GMT 55.861633 38.558598 19,750 224 272 -768
2021-01-14 00:54:14 GMT 55.864502 38.563473 19,825 230 277 -704
2021-01-14 00:54:10 GMT 55.867481 38.569221 19,825 231 279 -704
2021-01-14 00:54:07 GMT 55.870331 38.575245 19,850 232 280 -704
2021-01-14 00:54:04 GMT 55.872692 38.580894 19,925 237 285 -704
2021-01-14 00:54:01 GMT 55.874928 38.586819 19,925 240 288 -704
2021-01-14 00:53:58 GMT 55.876652 38.591797 19,975 242 290 -640
2021-01-14 00:53:55 GMT 55.878654 38.598316 20,000 244 292 -704
2021-01-14 00:53:51 GMT 55.881180 38.607956 20,075 249 297 -704
2021-01-14 00:53:47 GMT 55.885494 38.628273 20,125 251 298 -704
2021-01-14 00:53:43 GMT 55.885494 38.628273 20,150 255 300 -640
2021-01-14 00:53:40 GMT 55.886169 38.631840 20,200 254 300 -640
2021-01-14 00:53:36 GMT 55.887863 38.642578 20,275 258 300 -704
2021-01-14 00:53:33 GMT 55.888779 38.649734 20,275 258 299 -704
2021-01-14 00:53:30 GMT 55.889500 38.655655 20,300 259 299 -704
2021-01-14 00:53:27 GMT 55.890564 38.666634 20,400 263 298 -640
2021-01-14 00:53:23 GMT 55.891129 38.673935 20,400 265 299 -640
2021-01-14 00:53:20 GMT 55.891502 38.680973 20,425 271 300 -448
2021-01-14 00:53:15 GMT 55.891594 38.704575 21,625 271 300 -448
2021-01-14 00:53:11 GMT 55.891594 38.704575 20,500 274 300 -448
2021-01-14 00:53:05 GMT 55.890839 38.717983 20,575 281 300 -1280
2021-01-14 00:53:02 GMT 55.890244 38.724476 20,625 282 301 -1536
2021-01-14 00:52:59 GMT 55.889191 38.733047 20,750 288 298 -2048
2021-01-14 00:52:55 GMT 55.887817 38.741287 20,850 288 298 -2048
2021-01-14 00:52:50 GMT 55.885025 38.753689 21,075 305 293 -2496
2021-01-14 00:52:45 GMT 55.882370 38.762596 21,275 303 294 -2496
2021-01-14 00:52:41 GMT 55.877956 38.773842 21,475 311 290 -2432
2021-01-14 00:52:35 GMT 55.873344 38.783028 21,700 316 285 -2304
2021-01-14 00:52:30 GMT 55.868412 38.790752 21,875 322 283 -1920
2021-01-14 00:52:26 GMT 55.863235 38.797218 22,000 329 287 -832
2021-01-14 00:52:22 GMT 55.859848 38.800549 22,075 335 292 -768
2021-01-14 00:52:19 GMT 55.856049 38.803711 22,075 338 294 -768
2021-01-14 00:52:15 GMT 55.851288 38.806625 22,125 347 300 -896
2021-01-14 00:52:09 GMT 55.842621 38.809547 22,175 355 304 -448
2021-01-14 00:52:05 GMT 55.836319 38.809872 22,200 2 308 -128
2021-01-14 00:52:02 GMT 55.832008 38.809464 22,200 6 310 -64
2021-01-14 00:51:58 GMT 55.827259 38.808346 22,225 14 313 -64
2021-01-14 00:51:55 GMT 55.822838 38.806629 22,225 16 313 -64
2021-01-14 00:51:52 GMT 55.819473 38.804874 22,200 19 314 -192
2021-01-14 00:51:49 GMT 55.813850 38.801048 22,250 22 316 -192
2021-01-14 00:51:44 GMT 55.807709 38.796471 22,250 22 318 0
2021-01-14 00:51:41 GMT 55.803864 38.793640 22,250 22 321 128
2021-01-14 00:51:38 GMT 55.800293 38.790977 22,250 22 321 128
2021-01-14 00:51:34 GMT 55.793701 38.786064 22,250 23 318 320
2021-01-14 00:51:31 GMT 55.790314 38.783401 22,150 23 317 640
2021-01-14 00:51:28 GMT 55.785919 38.780075 22,150 25 316 1728
2021-01-14 00:51:25 GMT 55.780239 38.775558 22,125 23 316 640
2021-01-14 00:51:22 GMT 55.778053 38.773842 22,100 24 315 832
2021-01-14 00:51:18 GMT 55.772652 38.769550 22,050 24 315 1216
2021-01-14 00:51:14 GMT 55.767792 38.765591 21,950 24 315 1408
2021-01-14 00:51:11 GMT 55.762878 38.761482 21,850 25 316 1792
2021-01-14 00:51:07 GMT 55.758270 38.757622 21,625 25 318 2176
2021-01-14 00:51:04 GMT 55.754265 38.754189 21,625 25 321 2304
2021-01-14 00:51:01 GMT 55.751038 38.751442 19,225 20 361 1920
2021-01-14 00:50:58 GMT 55.745049 38.746548 21,325 24 327 2432
2021-01-14 00:50:53 GMT 55.739555 38.742085 21,050 23 332 2624
2021-01-14 00:50:50 GMT 55.735504 38.738911 21,025 23 333 2752
2021-01-14 00:50:47 GMT 55.730576 38.735046 20,150 23 338 3584
2021-01-14 00:50:42 GMT 55.724331 38.730240 20,600 23 342 3712
2021-01-14 00:50:39 GMT 55.720413 38.727222 20,425 23 344 3648
2021-01-14 00:50:35 GMT 55.713066 38.721912 20,025 21 355 3264
2021-01-14 00:50:32 GMT 55.709290 38.719234 20,000 21 355 3200
2021-01-14 00:50:29 GMT 55.705338 38.716507 19,875 21 358 2624
2021-01-14 00:50:26 GMT 55.698357 38.711700 19,700 20 361 2112
2021-01-14 00:50:23 GMT 55.694492 38.709126 19,600 20 362 1792
2021-01-14 00:50:20 GMT 55.689278 38.705692 19,225 16 353 320
2021-01-14 00:50:15 GMT 55.682693 38.701504 19,475 19 362 1024
2021-01-14 00:50:12 GMT 55.677567 38.698341 19,375 18 361 896
2021-01-14 00:50:09 GMT 55.673405 38.695908 19,325 18 360 704
2021-01-14 00:50:05 GMT 55.662415 38.689602 19,300 17 357 448
2021-01-14 00:50:02 GMT 55.657669 38.686981 19,300 17 357 448
2021-01-14 00:49:59 GMT 55.657669 38.686981 19,275 17 355 384
2021-01-14 00:49:54 GMT 55.650604 38.683193 19,225 16 350 320
2021-01-14 00:49:51 GMT 55.645145 38.680370 19,250 15 350 320
2021-01-14 00:49:47 GMT 55.637791 38.676682 19,225 15 346 192
2021-01-14 00:49:44 GMT 55.630016 38.672817 19,225 15 341 128
2021-01-14 00:49:41 GMT 55.630016 38.672817 19,225 15 341 128
2021-01-14 00:49:38 GMT 55.625519 38.670628 19,200 16 339 64
2021-01-14 00:49:34 GMT 55.618973 38.667213 19,200 16 335 128
2021-01-14 00:49:31 GMT 55.614578 38.664799 19,200 17 331 448
2021-01-14 00:49:28 GMT 55.611053 38.662804 19,175 18 330 448
2021-01-14 00:49:25 GMT 55.605671 38.659599 19,150 19 328 512
2021-01-14 00:49:22 GMT 55.600178 38.656170 19,125 19 325 576
2021-01-14 00:49:18 GMT 55.595940 38.653507 19,100 20 323 512
2021-01-14 00:49:13 GMT 55.587891 38.648155 19,050 20 319 704
2021-01-14 00:49:10 GMT 55.585648 38.646656 19,050 20 319 768
2021-01-14 00:49:07 GMT 55.581093 38.643639 19,000 20 318 1024
2021-01-14 00:49:04 GMT 55.575439 38.639748 18,875 21 317 1216
2021-01-14 00:49:01 GMT 55.571182 38.636833 18,825 21 317 1216
2021-01-14 00:48:58 GMT 55.568008 38.634541 18,750 22 316 1216
2021-01-14 00:48:55 GMT 55.563309 38.631191 18,700 22 316 1216
2021-01-14 00:48:52 GMT 55.557674 38.627243 18,625 21 315 1216
2021-01-14 00:48:49 GMT 55.551132 38.622604 18,575 21 316 1152
2021-01-14 00:48:46 GMT 55.551132 38.622604 18,525 21 316 1152
2021-01-14 00:48:42 GMT 55.545502 38.618774 18,475 20 315 1280
2021-01-14 00:48:39 GMT 55.541473 38.616085 18,375 21 315 1216
2021-01-14 00:48:36 GMT 55.538040 38.613781 18,325 22 314 1216
2021-01-14 00:48:33 GMT 55.535248 38.611782 18,300 22 314 1216
2021-01-14 00:48:30 GMT 55.529617 38.607536 18,200 24 312 1088
2021-01-14 00:48:27 GMT 55.526962 38.605457 17,725 29 304 960
2021-01-14 00:48:24 GMT 55.522202 38.601547 18,100 26 311 1088
2021-01-14 00:48:19 GMT 55.516205 38.596054 17,975 29 308 1088
2021-01-14 00:48:16 GMT 55.512287 38.592136 17,950 29 307 1024
2021-01-14 00:48:13 GMT 55.508972 38.588814 17,925 30 307 1024
2021-01-14 00:48:10 GMT 55.505127 38.584900 17,850 30 306 960
2021-01-14 00:48:07 GMT 55.496506 38.576000 17,775 29 304 960
2021-01-14 00:48:04 GMT 55.496506 38.576000 17,750 29 304 960
2021-01-14 00:47:59 GMT 55.490501 38.570080 17,650 28 303 1088
2021-01-14 00:47:56 GMT 55.486908 38.566505 17,600 29 303 1088
2021-01-14 00:47:53 GMT 55.484215 38.563812 17,575 29 302 1024
2021-01-14 00:47:50 GMT 55.479839 38.559437 17,500 29 301 1024
2021-01-14 00:47:45 GMT 55.473415 38.552998 17,425 29 299 1024
2021-01-14 00:47:41 GMT 55.468433 38.548195 17,325 28 299 1024
2021-01-14 00:47:37 GMT 55.463837 38.543785 17,250 27 297 1024
2021-01-14 00:47:32 GMT 55.459305 38.539539 17,225 27 297 1024
2021-01-14 00:47:29 GMT 55.455307 38.535831 17,175 27 296 1152
2021-01-14 00:47:26 GMT 55.451908 38.532742 17,150 27 295 1216
2021-01-14 00:47:23 GMT 55.446228 38.527596 17,025 26 295 1728
2021-01-14 00:47:20 GMT 55.443481 38.525223 16,975 26 295 1792
2021-01-14 00:47:17 GMT 55.440132 38.522228 16,875 26 295 2048
2021-01-14 00:47:13 GMT 55.430374 38.513702 16,675 26 297 2496
2021-01-14 00:47:10 GMT 55.427189 38.510910 16,550 26 299 2560
2021-01-14 00:47:06 GMT 55.427189 38.510910 16,325 25 304 2624
2021-01-14 00:47:03 GMT 55.416855 38.502335 16,125 24 307 2688
2021-01-14 00:46:59 GMT 55.416855 38.502335 16,100 24 308 2688
2021-01-14 00:46:55 GMT 55.412388 38.498756 15,975 24 310 2688
2021-01-14 00:46:48 GMT 55.404610 38.492516 15,600 23 317 2496
2021-01-14 00:46:45 GMT 55.399399 38.488438 15,475 23 317 2368
2021-01-14 00:46:42 GMT 55.394806 38.484947 15,350 22 320 1984
2021-01-14 00:46:38 GMT 55.390133 38.481445 15,225 22 321 2112
2021-01-14 00:46:34 GMT 55.384460 38.477352 15,100 22 322 1920
2021-01-14 00:46:31 GMT 55.380638 38.474537 15,000 22 323 1728
2021-01-14 00:46:27 GMT 55.375809 38.471130 14,950 21 324 1664
2021-01-14 00:46:24 GMT 55.370770 38.467628 14,700 21 324 1600
2021-01-14 00:46:21 GMT 55.366531 38.464634 14,750 21 323 1536
2021-01-14 00:46:18 GMT 55.361618 38.461197 14,650 22 322 1536
2021-01-14 00:46:14 GMT 55.356216 38.457397 14,550 21 322 1536
2021-01-14 00:46:07 GMT 55.347164 38.451149 14,325 21 322 1536
2021-01-14 00:46:03 GMT 55.341522 38.447384 14,075 18 322 1536
2021-01-14 00:45:57 GMT 55.333481 38.442078 14,125 19 322 1536
2021-01-14 00:45:54 GMT 55.329288 38.439415 14,050 19 321 1536
2021-01-14 00:45:49 GMT 55.320770 38.434254 13,875 18 321 1536
2021-01-14 00:45:46 GMT 55.318909 38.433090 13,425 21 318 1344
2021-01-14 00:45:43 GMT 55.314442 38.430508 13,800 18 321 1536
2021-01-14 00:45:36 GMT 55.304523 38.424515 13,425 32 314 1408
2021-01-14 00:45:33 GMT 55.300690 38.421696 13,550 28 315 1344
2021-01-14 00:45:27 GMT 55.292233 38.412365 13,625 40 310 1472
2021-01-14 00:45:23 GMT 55.288559 38.406506 13,500 46 307 1472
2021-01-14 00:45:17 GMT 55.282608 38.394794 13,325 52 304 1536
2021-01-14 00:45:13 GMT 55.279667 38.388145 13,275 53 303 1536
2021-01-14 00:45:06 GMT 55.273499 38.372658 13,050 65 297 1344
2021-01-14 00:45:03 GMT 55.271938 38.367252 13,025 65 297 1344
2021-01-14 00:44:58 GMT 55.268494 38.349442 12,850 80 287 1408
2021-01-14 00:44:55 GMT 55.268494 38.349442 12,850 83 285 1472
2021-01-14 00:44:52 GMT 55.267887 38.343449 12,700 90 281 1408
2021-01-14 00:44:47 GMT 55.267376 38.328468 12,575 94 278 1408
2021-01-14 00:44:43 GMT 55.267548 38.320393 12,500 96 277 1472
2021-01-14 00:44:35 GMT 55.268864 38.301586 12,325 98 275 1536
2021-01-14 00:44:32 GMT 55.269283 38.297009 12,275 99 273 1536
2021-01-14 00:44:27 GMT 55.270401 38.285355 12,125 98 271 1472
2021-01-14 00:44:24 GMT 55.271423 38.273952 11,900 98 272 1472
2021-01-14 00:44:21 GMT 55.271423 38.273952 12,000 98 272 1472
2021-01-14 00:44:16 GMT 55.272537 38.260696 11,850 98 270 1472
2021-01-14 00:44:12 GMT 55.273270 38.251808 11,750 98 269 1408
2021-01-14 00:44:05 GMT 55.274498 38.236252 11,575 97 266 1280
2021-01-14 00:44:02 GMT 55.274822 38.231838 11,450 97 266 1344
2021-01-14 00:43:54 GMT 55.276108 38.214973 11,300 97 263 1408
2021-01-14 00:43:50 GMT 55.276611 38.208107 11,275 97 262 1344
2021-01-14 00:43:43 GMT 55.277664 38.193222 11,125 96 259 1280
2021-01-14 00:43:40 GMT 55.278122 38.185890 11,050 96 257 1216
2021-01-14 00:43:36 GMT 55.278732 38.176659 10,950 96 255 1152
2021-01-14 00:43:33 GMT 55.279385 38.165173 10,875 95 253 1152
2021-01-14 00:43:30 GMT 55.279385 38.165173 10,850 95 252 1088
2021-01-14 00:43:26 GMT 55.279907 38.155518 10,750 95 250 1024
2021-01-14 00:43:23 GMT 55.280090 38.151882 10,200 97 223 768
2021-01-14 00:43:20 GMT 55.280502 38.144691 10,650 96 246 1024
2021-01-14 00:43:15 GMT 55.281155 38.135292 10,575 96 242 960
2021-01-14 00:43:12 GMT 55.281528 38.130135 10,525 96 240 960
2021-01-14 00:43:09 GMT 55.281944 38.123474 10,475 96 238 960
2021-01-14 00:43:05 GMT 55.282413 38.116066 10,400 95 235 960
2021-01-14 00:43:00 GMT 55.283016 38.105247 10,300 96 228 832
2021-01-14 00:42:53 GMT 55.283752 38.093155 10,200 96 224 768
2021-01-14 00:42:49 GMT 55.284256 38.086369 10,150 97 220 768
2021-01-14 00:42:42 GMT 55.285675 38.067547 9,975 96 201 384
2021-01-14 00:42:38 GMT 55.285675 38.067547 10,025 97 209 576
2021-01-14 00:42:33 GMT 55.286324 38.057804 9,975 96 202 384
2021-01-14 00:42:29 GMT 55.286728 38.051308 9,950 95 197 256
2021-01-14 00:42:22 GMT 55.287254 38.042076 9,925 95 181 64
2021-01-14 00:42:18 GMT 55.287552 38.035961 9,925 95 181 64
2021-01-14 00:42:12 GMT 55.288044 38.027428 9,900 95 172 320
2021-01-14 00:42:08 GMT 55.288368 38.021267 9,850 95 166 1216
2021-01-14 00:42:04 GMT 55.288925 38.010998 9,600 86 167 2112
2021-01-14 00:42:00 GMT 55.288925 38.010998 9,650 94 164 1792
2021-01-14 00:41:57 GMT 55.289108 38.005424 9,525 91 166 1856
2021-01-14 00:41:53 GMT 55.289116 38.000294 9,400 88 167 1984
2021-01-14 00:41:48 GMT 55.289017 37.995487 9,150 85 167 2176
2021-01-14 00:41:45 GMT 55.288788 37.989754 9,125 84 168 2304
2021-01-14 00:41:41 GMT 55.288559 37.985474 9,050 84 168 2304
2021-01-14 00:41:38 GMT 55.288322 37.981319 8,900 84 168 2368
2021-01-14 00:41:34 GMT 55.287998 37.974743 8,700 88 168 2368
2021-01-14 00:41:31 GMT 55.288010 37.971901 8,600 95 167 2368
2021-01-14 00:41:27 GMT 55.288513 37.965519 8,425 103 166 2368
2021-01-14 00:41:21 GMT 55.289841 37.958408 8,200 116 165 2368
2021-01-14 00:41:16 GMT 55.291626 37.952999 8,025 126 168 2304
2021-01-14 00:41:13 GMT 55.293213 37.949692 7,800 139 170 2304
2021-01-14 00:41:10 GMT 55.294601 37.947182 7,650 143 172 2240
2021-01-14 00:41:06 GMT 55.297531 37.943222 7,600 149 175 2240
2021-01-14 00:41:01 GMT 55.301407 37.939785 7,400 159 180 2176
2021-01-14 00:40:58 GMT 55.303391 37.938538 7,275 164 183 2176
2021-01-14 00:40:55 GMT 55.305363 37.937622 7,225 168 185 2176
2021-01-14 00:40:52 GMT 55.309177 37.936623 7,050 177 192 2112
2021-01-14 00:40:49 GMT 55.311310 37.936436 6,975 181 194 2112
2021-01-14 00:40:46 GMT 55.314835 37.936760 6,825 187 198 2112
2021-01-14 00:40:43 GMT 55.316536 37.937038 6,750 190 199 2048
2021-01-14 00:40:40 GMT 55.319283 37.937954 6,600 171 186 1920
2021-01-14 00:40:37 GMT 55.321377 37.938705 6,575 191 201 2048
2021-01-14 00:40:33 GMT 55.326141 37.939911 6,400 185 196 1984
2021-01-14 00:40:28 GMT 55.332455 37.939953 6,175 172 187 1920
2021-01-14 00:40:22 GMT 55.335022 37.939507 5,900 168 182 1856
2021-01-14 00:40:18 GMT 55.338730 37.938213 5,875 164 179 1856
2021-01-14 00:40:15 GMT 55.340836 37.937290 5,875 164 179 1856
2021-01-14 00:40:12 GMT 55.343216 37.936031 5,800 162 176 1856
2021-01-14 00:40:06 GMT 55.347702 37.933289 5,550 158 167 3328
2021-01-14 00:40:02 GMT 55.350658 37.931129 5,350 155 165 3392
2021-01-14 00:39:57 GMT 55.354847 37.927719 5,000 155 163 3456
2021-01-14 00:39:54 GMT 55.356243 37.926552 4,900 154 161 3648
2021-01-14 00:39:51 GMT 55.358246 37.924889 4,725 154 161 3776
2021-01-14 00:39:47 GMT 55.360977 37.922623 4,350 154 160 4288
2021-01-14 00:39:44 GMT 55.363228 37.920727 4,225 155 160 4288
2021-01-14 00:39:40 GMT 55.366516 37.918098 3,900 155 161 4224
2021-01-14 00:39:37 GMT 55.367615 37.917294 3,800 156 160 4288
2021-01-14 00:39:33 GMT 55.370544 37.915031 3,425 157 161 4224
2021-01-14 00:39:29 GMT 55.373428 37.912930 3,200 159 162 4096
2021-01-14 00:39:25 GMT 55.375378 37.911655 3,000 160 163 3840
2021-01-14 00:39:22 GMT 55.377640 37.910263 2,800 161 163 3648
2021-01-14 00:39:18 GMT 55.380821 37.908493 2,550 163 162 3072
2021-01-14 00:39:12 GMT 55.386223 37.905994 2,175 166 160 2752
2021-01-14 00:39:08 GMT 55.388397 37.905174 2,000 169 162 3200
2021-01-14 00:39:00 GMT 55.394230 37.903084 1,575 148 160 2112
2021-01-14 00:38:57 GMT 55.395767 37.902103 1,475 153 161 2496
2021-01-14 00:38:47 GMT 55.401958 37.895176 1,025 145 161 3008
2021-01-14 00:38:33 GMT 55.410431 37.884937 800 145 143 0
2021-01-14 00:38:27 GMT 55.413689 37.881107 825 145 118 0
2021-01-14 00:38:16 GMT 55.417774 37.876114 0 143 74
2021-01-14 00:38:06 GMT 55.419670 37.873806 0 146 26
2021-01-14 00:37:57 GMT 55.420265 37.873119 0 149 11
2021-01-14 00:37:45 GMT 55.420704 37.872681 0 177 11
2021-01-14 00:37:35 GMT 55.421185 37.872883 0 227 14
2021-01-14 00:37:25 GMT 55.421570 37.873764 0 239 13
2021-01-14 00:37:16 GMT 55.421764 37.874638 0 292 11
2021-01-14 00:37:05 GMT 55.421509 37.875263 0 326 12
2021-01-14 00:36:55 GMT 55.420918 37.875969 0 326 17
2021-01-14 00:36:45 GMT 55.420246 37.876781 0 326 22
2021-01-14 00:36:34 GMT 55.419273 37.877945 0 326 30
2021-01-14 00:36:25 GMT 55.418076 37.879383 0 326 32
2021-01-14 00:36:13 GMT 55.416725 37.881004 0 326 32
2021-01-14 00:36:04 GMT 55.415588 37.882374 0 326 32
2021-01-14 00:35:54 GMT 55.414398 37.883835 0 326 32
2021-01-14 00:35:42 GMT 55.412842 37.885685 0 326 32
2021-01-14 00:35:33 GMT 55.411968 37.886749 0 326 32
2021-01-14 00:35:24 GMT 55.410851 37.888100 0 326 32
2021-01-14 00:35:05 GMT 55.408493 37.890938 0 326 31
2021-01-14 00:34:53 GMT 55.407310 37.892345 0 326 27
2021-01-14 00:34:36 GMT 55.405586 37.894432 0 326 26
2021-01-14 00:34:31 GMT 55.405148 37.894966 0 326 26
2021-01-14 00:34:20 GMT 55.403938 37.896389 0 326 27
2021-01-14 00:34:14 GMT 55.403400 37.897026 0 326 28
2021-01-14 00:34:01 GMT 55.401936 37.898811 0 326 30
2021-01-14 00:33:53 GMT 55.401119 37.899796 0 326 27
2021-01-14 00:33:44 GMT 55.400143 37.900959 0 326 24
2021-01-14 00:33:33 GMT 55.399235 37.902042 0 326 22
2021-01-14 00:33:23 GMT 55.398457 37.902977 0 326 19
2021-01-14 00:33:12 GMT 55.397793 37.903748 0 326 14
2021-01-14 00:33:00 GMT 55.397266 37.904434 0 286 10
2021-01-14 00:32:53 GMT 55.397232 37.904976 0 239 8
2021-01-14 00:32:42 GMT 55.397369 37.905357 0 233 4
2021-01-14 00:32:19 GMT 55.397408 37.905453 0 233 0
2021-01-14 00:32:00 GMT 55.397396 37.905453 0 233 0
2021-01-14 00:31:50 GMT 55.397392 37.905457 0 233 0
2021-01-14 00:31:30 GMT 55.397396 37.905453 0 233 0
2021-01-14 00:31:15 GMT 55.397404 37.905457 0 233 0
2021-01-14 00:31:05 GMT 55.397396 37.905453 0 233 0
2021-01-14 00:30:55 GMT 55.397404 37.905457 0 233 0
2021-01-14 00:30:31 GMT 55.397419 37.905453 0 233 0
2021-01-14 00:30:25 GMT 55.397415 37.905437 0 233 0
2021-01-14 00:30:06 GMT 55.397404 37.905437 0 233 0
2021-01-14 00:29:55 GMT 55.397408 37.905434 0 233 0
2021-01-14 00:29:35 GMT 55.397415 37.905437 0 233 0
2021-01-14 00:29:20 GMT 55.397415 37.905457 0 233 0
2021-01-14 00:28:55 GMT 55.397419 37.905434 0 233 0
2021-01-14 00:28:41 GMT 55.397408 37.905453 0 233 0
2021-01-14 00:28:36 GMT 55.397415 37.905457 0 233 0
2021-01-14 00:28:26 GMT 55.397408 37.905453 0 233 0
2021-01-14 00:28:17 GMT 55.397419 37.905453 0 233 0

Making use of Plane Finder data

You are free to use the raw flight data, aircraft information and images provided in this report for your own purposes provided the data is correctly attributed to Plane Finder. We ask that you please credit Plane Finder and link to planefinder.net in close proximity to the content.

Optionally one of the following logos (no smaller then 150x24px) can be used and must link to planefinder.net

Embedding the Plane Finder map

You are welcome to embed the Plane Finder playback map on your website to offer visitors a more interactive experience. We suggest using the following HTML code:

<iframe src="//planefinder.net/data/report/YC32-VP-BBN-7700-squawk-2021-01-14/map" width="800" height="600" seamless="seamless"></iframe>

Where our data comes from

Plane Finder has a global network of data feeds and antenna radars that receive data broadcast directly from aircraft. The primary technologies used are ADS-B and MLAT. We also show feeds from the FAA and a FLARM glider feed.

Click here to find out more about the Plane Finder network.

How we collect our data